<?xml version="1.0" encoding="UTF-8" standalone="no" ?>
<gpx xmlns="http://www.topografix.com/GPX/1/1" xmlns:xsi="http://www.w3.org/2001/XMLSchema-instance" xsi:schemaLocation="http://www.topografix.com/GPX/1/1 http://www.topografix.com/GPX/1/1/gpx.xsd" version="1.1" creator="VisuGPX - https://www.visugpx.com">
  <metadata>
    <name>ChapelleE_Vaillantiere_8-12km</name>
    <desc><![CDATA[gnerando idor: 8396171_8809195_10803642]]></desc>
  </metadata>
  <trk>
    <name><![CDATA[ChapelleE_Vaillantiere_10km-10803642]]></name>
    <extensions>
      <line xmlns="http://www.topografix.com/GPX/gpx_style/0/2">
        <color>0000FF</color>
        <width>4</width>
      </line>
    </extensions>
    <trkseg>
      <trkpt lat="47.34704" lon="-1.57611">
        <ele>38</ele>
        <time>2023-10-26T07:03:55Z</time>
      </trkpt>
      <trkpt lat="47.34687" lon="-1.57601">
        <ele>37</ele>
        <time>2023-10-26T07:04:19Z</time>
      </trkpt>
      <trkpt lat="47.34666" lon="-1.57603">
        <ele>36</ele>
        <time>2023-10-26T07:04:48Z</time>
      </trkpt>
      <trkpt lat="47.34645" lon="-1.57608">
        <ele>37</ele>
        <time>2023-10-26T07:05:16Z</time>
      </trkpt>
      <trkpt lat="47.34627" lon="-1.57621">
        <ele>37</ele>
        <time>2023-10-26T07:05:43Z</time>
      </trkpt>
      <trkpt lat="47.3461" lon="-1.57628">
        <ele>38</ele>
        <time>2023-10-26T07:06:06Z</time>
      </trkpt>
      <trkpt lat="47.34591" lon="-1.57641">
        <ele>38</ele>
        <time>2023-10-26T07:06:34Z</time>
      </trkpt>
      <trkpt lat="47.3457" lon="-1.57649">
        <ele>39</ele>
        <time>2023-10-26T07:07:03Z</time>
      </trkpt>
      <trkpt lat="47.34552" lon="-1.57651">
        <ele>40</ele>
        <time>2023-10-26T07:07:27Z</time>
      </trkpt>
      <trkpt lat="47.34492" lon="-1.57663">
        <ele>43</ele>
        <time>2023-10-26T07:08:48Z</time>
      </trkpt>
      <trkpt lat="47.34471" lon="-1.57671">
        <ele>42</ele>
        <time>2023-10-26T07:09:17Z</time>
      </trkpt>
      <trkpt lat="47.34451" lon="-1.57668">
        <ele>41</ele>
        <time>2023-10-26T07:09:44Z</time>
      </trkpt>
      <trkpt lat="47.34431" lon="-1.57662">
        <ele>40</ele>
        <time>2023-10-26T07:10:11Z</time>
      </trkpt>
      <trkpt lat="47.3441" lon="-1.5766">
        <ele>39</ele>
        <time>2023-10-26T07:10:39Z</time>
      </trkpt>
      <trkpt lat="47.34311" lon="-1.57644">
        <ele>35</ele>
        <time>2023-10-26T07:12:52Z</time>
      </trkpt>
      <trkpt lat="47.34293" lon="-1.57639">
        <ele>34</ele>
        <time>2023-10-26T07:13:16Z</time>
      </trkpt>
      <trkpt lat="47.34276" lon="-1.57628">
        <ele>34</ele>
        <time>2023-10-26T07:13:41Z</time>
      </trkpt>
      <trkpt lat="47.34256" lon="-1.57619">
        <ele>33</ele>
        <time>2023-10-26T07:14:09Z</time>
      </trkpt>
      <trkpt lat="47.3424" lon="-1.57604">
        <ele>33</ele>
        <time>2023-10-26T07:14:34Z</time>
      </trkpt>
      <trkpt lat="47.34219" lon="-1.57595">
        <ele>33</ele>
        <time>2023-10-26T07:15:04Z</time>
      </trkpt>
      <trkpt lat="47.34199" lon="-1.57589">
        <ele>33</ele>
        <time>2023-10-26T07:15:31Z</time>
      </trkpt>
      <trkpt lat="47.34181" lon="-1.5758">
        <ele>34</ele>
        <time>2023-10-26T07:15:56Z</time>
      </trkpt>
      <trkpt lat="47.34162" lon="-1.57567">
        <ele>33</ele>
        <time>2023-10-26T07:16:24Z</time>
      </trkpt>
      <trkpt lat="47.34146" lon="-1.57552">
        <ele>33</ele>
        <time>2023-10-26T07:16:49Z</time>
      </trkpt>
      <trkpt lat="47.34128" lon="-1.57545">
        <ele>34</ele>
        <time>2023-10-26T07:17:14Z</time>
      </trkpt>
      <trkpt lat="47.34111" lon="-1.57533">
        <ele>34</ele>
        <time>2023-10-26T07:17:39Z</time>
      </trkpt>
      <trkpt lat="47.34094" lon="-1.57514">
        <ele>35</ele>
        <time>2023-10-26T07:18:08Z</time>
      </trkpt>
      <trkpt lat="47.34086" lon="-1.5749">
        <ele>34</ele>
        <time>2023-10-26T07:18:32Z</time>
      </trkpt>
      <trkpt lat="47.34072" lon="-1.57466">
        <ele>34</ele>
        <time>2023-10-26T07:19:01Z</time>
      </trkpt>
      <trkpt lat="47.34063" lon="-1.5744">
        <ele>34</ele>
        <time>2023-10-26T07:19:27Z</time>
      </trkpt>
      <trkpt lat="47.3405" lon="-1.57421">
        <ele>34</ele>
        <time>2023-10-26T07:19:51Z</time>
      </trkpt>
      <trkpt lat="47.34037" lon="-1.57401">
        <ele>34</ele>
        <time>2023-10-26T07:20:17Z</time>
      </trkpt>
      <trkpt lat="47.34022" lon="-1.57419">
        <ele>35</ele>
        <time>2023-10-26T07:20:42Z</time>
      </trkpt>
      <trkpt lat="47.34003" lon="-1.57424">
        <ele>36</ele>
        <time>2023-10-26T07:21:08Z</time>
      </trkpt>
      <trkpt lat="47.33985" lon="-1.57412">
        <ele>36</ele>
        <time>2023-10-26T07:21:34Z</time>
      </trkpt>
      <trkpt lat="47.33967" lon="-1.57402">
        <ele>37</ele>
        <time>2023-10-26T07:22:00Z</time>
      </trkpt>
      <trkpt lat="47.33948" lon="-1.57395">
        <ele>37</ele>
        <time>2023-10-26T07:22:26Z</time>
      </trkpt>
      <trkpt lat="47.33929" lon="-1.57384">
        <ele>37</ele>
        <time>2023-10-26T07:22:53Z</time>
      </trkpt>
      <trkpt lat="47.33886" lon="-1.57368">
        <ele>38</ele>
        <time>2023-10-26T07:23:53Z</time>
      </trkpt>
      <trkpt lat="47.33868" lon="-1.57369">
        <ele>39</ele>
        <time>2023-10-26T07:24:17Z</time>
      </trkpt>
      <trkpt lat="47.33853" lon="-1.57389">
        <ele>40</ele>
        <time>2023-10-26T07:24:44Z</time>
      </trkpt>
      <trkpt lat="47.3384" lon="-1.57409">
        <ele>41</ele>
        <time>2023-10-26T07:25:09Z</time>
      </trkpt>
      <trkpt lat="47.3382" lon="-1.57426">
        <ele>41</ele>
        <time>2023-10-26T07:25:40Z</time>
      </trkpt>
      <trkpt lat="47.33813" lon="-1.57455">
        <ele>41</ele>
        <time>2023-10-26T07:26:07Z</time>
      </trkpt>
      <trkpt lat="47.338" lon="-1.5748">
        <ele>41</ele>
        <time>2023-10-26T07:26:36Z</time>
      </trkpt>
      <trkpt lat="47.33786" lon="-1.57502">
        <ele>41</ele>
        <time>2023-10-26T07:27:03Z</time>
      </trkpt>
      <trkpt lat="47.33766" lon="-1.5755">
        <ele>42</ele>
        <time>2023-10-26T07:27:54Z</time>
      </trkpt>
      <trkpt lat="47.3375" lon="-1.57565">
        <ele>42</ele>
        <time>2023-10-26T07:28:19Z</time>
      </trkpt>
      <trkpt lat="47.33747" lon="-1.57593">
        <ele>42</ele>
        <time>2023-10-26T07:28:45Z</time>
      </trkpt>
      <trkpt lat="47.33752" lon="-1.57619">
        <ele>42</ele>
        <time>2023-10-26T07:29:09Z</time>
      </trkpt>
      <trkpt lat="47.33742" lon="-1.57644">
        <ele>42</ele>
        <time>2023-10-26T07:29:36Z</time>
      </trkpt>
      <trkpt lat="47.3373" lon="-1.57667">
        <ele>42</ele>
        <time>2023-10-26T07:30:02Z</time>
      </trkpt>
      <trkpt lat="47.33714" lon="-1.57689">
        <ele>42</ele>
        <time>2023-10-26T07:30:31Z</time>
      </trkpt>
      <trkpt lat="47.33682" lon="-1.57717">
        <ele>42</ele>
        <time>2023-10-26T07:31:21Z</time>
      </trkpt>
      <trkpt lat="47.33668" lon="-1.57735">
        <ele>43</ele>
        <time>2023-10-26T07:31:46Z</time>
      </trkpt>
      <trkpt lat="47.33657" lon="-1.57756">
        <ele>42</ele>
        <time>2023-10-26T07:32:10Z</time>
      </trkpt>
      <trkpt lat="47.33642" lon="-1.57781">
        <ele>41</ele>
        <time>2023-10-26T07:32:40Z</time>
      </trkpt>
      <trkpt lat="47.33628" lon="-1.57805">
        <ele>40</ele>
        <time>2023-10-26T07:33:08Z</time>
      </trkpt>
      <trkpt lat="47.33616" lon="-1.57827">
        <ele>39</ele>
        <time>2023-10-26T07:33:34Z</time>
      </trkpt>
      <trkpt lat="47.3359" lon="-1.57873">
        <ele>36</ele>
        <time>2023-10-26T07:34:28Z</time>
      </trkpt>
      <trkpt lat="47.33577" lon="-1.57892">
        <ele>35</ele>
        <time>2023-10-26T07:34:53Z</time>
      </trkpt>
      <trkpt lat="47.3356" lon="-1.57909">
        <ele>33</ele>
        <time>2023-10-26T07:35:20Z</time>
      </trkpt>
      <trkpt lat="47.33541" lon="-1.57925">
        <ele>32</ele>
        <time>2023-10-26T07:35:49Z</time>
      </trkpt>
      <trkpt lat="47.33523" lon="-1.57934">
        <ele>31</ele>
        <time>2023-10-26T07:36:15Z</time>
      </trkpt>
      <trkpt lat="47.33461" lon="-1.57958">
        <ele>29</ele>
        <time>2023-10-26T07:37:40Z</time>
      </trkpt>
      <trkpt lat="47.33438" lon="-1.57967">
        <ele>29</ele>
        <time>2023-10-26T07:38:12Z</time>
      </trkpt>
      <trkpt lat="47.33427" lon="-1.57989">
        <ele>28</ele>
        <time>2023-10-26T07:38:37Z</time>
      </trkpt>
      <trkpt lat="47.33415" lon="-1.58011">
        <ele>28</ele>
        <time>2023-10-26T07:39:02Z</time>
      </trkpt>
      <trkpt lat="47.33403" lon="-1.58037">
        <ele>28</ele>
        <time>2023-10-26T07:39:31Z</time>
      </trkpt>
      <trkpt lat="47.33392" lon="-1.58063">
        <ele>29</ele>
        <time>2023-10-26T07:39:58Z</time>
      </trkpt>
      <trkpt lat="47.33384" lon="-1.58089">
        <ele>29</ele>
        <time>2023-10-26T07:40:24Z</time>
      </trkpt>
      <trkpt lat="47.33374" lon="-1.58113">
        <ele>30</ele>
        <time>2023-10-26T07:40:50Z</time>
      </trkpt>
      <trkpt lat="47.33319" lon="-1.58228">
        <ele>33</ele>
        <time>2023-10-26T07:42:57Z</time>
      </trkpt>
      <trkpt lat="47.33307" lon="-1.58253">
        <ele>34</ele>
        <time>2023-10-26T07:43:25Z</time>
      </trkpt>
      <trkpt lat="47.33296" lon="-1.58279">
        <ele>34</ele>
        <time>2023-10-26T07:43:52Z</time>
      </trkpt>
      <trkpt lat="47.33284" lon="-1.58302">
        <ele>35</ele>
        <time>2023-10-26T07:44:19Z</time>
      </trkpt>
      <trkpt lat="47.33274" lon="-1.58326">
        <ele>35</ele>
        <time>2023-10-26T07:44:44Z</time>
      </trkpt>
      <trkpt lat="47.33263" lon="-1.58348">
        <ele>36</ele>
        <time>2023-10-26T07:45:09Z</time>
      </trkpt>
      <trkpt lat="47.33252" lon="-1.58375">
        <ele>36</ele>
        <time>2023-10-26T07:45:37Z</time>
      </trkpt>
      <trkpt lat="47.3323" lon="-1.58423">
        <ele>38</ele>
        <time>2023-10-26T07:46:30Z</time>
      </trkpt>
      <trkpt lat="47.3322" lon="-1.58447">
        <ele>39</ele>
        <time>2023-10-26T07:46:55Z</time>
      </trkpt>
      <trkpt lat="47.3321" lon="-1.58471">
        <ele>40</ele>
        <time>2023-10-26T07:47:21Z</time>
      </trkpt>
      <trkpt lat="47.33198" lon="-1.58493">
        <ele>41</ele>
        <time>2023-10-26T07:47:46Z</time>
      </trkpt>
      <trkpt lat="47.33188" lon="-1.58517">
        <ele>41</ele>
        <time>2023-10-26T07:48:12Z</time>
      </trkpt>
      <trkpt lat="47.33193" lon="-1.58544">
        <ele>41</ele>
        <time>2023-10-26T07:48:37Z</time>
      </trkpt>
      <trkpt lat="47.33204" lon="-1.58568">
        <ele>41</ele>
        <time>2023-10-26T07:49:03Z</time>
      </trkpt>
      <trkpt lat="47.33217" lon="-1.58594">
        <ele>41</ele>
        <time>2023-10-26T07:49:32Z</time>
      </trkpt>
      <trkpt lat="47.33241" lon="-1.5864">
        <ele>41</ele>
        <time>2023-10-26T07:50:25Z</time>
      </trkpt>
      <trkpt lat="47.33253" lon="-1.58662">
        <ele>41</ele>
        <time>2023-10-26T07:50:50Z</time>
      </trkpt>
      <trkpt lat="47.33261" lon="-1.58687">
        <ele>41</ele>
        <time>2023-10-26T07:51:15Z</time>
      </trkpt>
      <trkpt lat="47.33285" lon="-1.58734">
        <ele>41</ele>
        <time>2023-10-26T07:52:09Z</time>
      </trkpt>
      <trkpt lat="47.33294" lon="-1.58762">
        <ele>41</ele>
        <time>2023-10-26T07:52:37Z</time>
      </trkpt>
      <trkpt lat="47.33306" lon="-1.58783">
        <ele>40</ele>
        <time>2023-10-26T07:53:02Z</time>
      </trkpt>
      <trkpt lat="47.33319" lon="-1.58806">
        <ele>41</ele>
        <time>2023-10-26T07:53:29Z</time>
      </trkpt>
      <trkpt lat="47.33329" lon="-1.58832">
        <ele>41</ele>
        <time>2023-10-26T07:53:56Z</time>
      </trkpt>
      <trkpt lat="47.33342" lon="-1.58859">
        <ele>41</ele>
        <time>2023-10-26T07:54:26Z</time>
      </trkpt>
      <trkpt lat="47.33355" lon="-1.58884">
        <ele>42</ele>
        <time>2023-10-26T07:54:54Z</time>
      </trkpt>
      <trkpt lat="47.33369" lon="-1.58909">
        <ele>43</ele>
        <time>2023-10-26T07:55:23Z</time>
      </trkpt>
      <trkpt lat="47.3338" lon="-1.58936">
        <ele>44</ele>
        <time>2023-10-26T07:55:52Z</time>
      </trkpt>
      <trkpt lat="47.33391" lon="-1.58958">
        <ele>44</ele>
        <time>2023-10-26T07:56:17Z</time>
      </trkpt>
      <trkpt lat="47.33401" lon="-1.58986">
        <ele>46</ele>
        <time>2023-10-26T07:56:45Z</time>
      </trkpt>
      <trkpt lat="47.33415" lon="-1.59008">
        <ele>47</ele>
        <time>2023-10-26T07:57:13Z</time>
      </trkpt>
      <trkpt lat="47.33426" lon="-1.5903">
        <ele>48</ele>
        <time>2023-10-26T07:57:37Z</time>
      </trkpt>
      <trkpt lat="47.33435" lon="-1.59053">
        <ele>48</ele>
        <time>2023-10-26T07:58:01Z</time>
      </trkpt>
      <trkpt lat="47.33447" lon="-1.59074">
        <ele>49</ele>
        <time>2023-10-26T07:58:26Z</time>
      </trkpt>
      <trkpt lat="47.33456" lon="-1.59098">
        <ele>49</ele>
        <time>2023-10-26T07:58:51Z</time>
      </trkpt>
      <trkpt lat="47.33468" lon="-1.59124">
        <ele>50</ele>
        <time>2023-10-26T07:59:19Z</time>
      </trkpt>
      <trkpt lat="47.33478" lon="-1.59146">
        <ele>51</ele>
        <time>2023-10-26T07:59:43Z</time>
      </trkpt>
      <trkpt lat="47.3349" lon="-1.59166">
        <ele>52</ele>
        <time>2023-10-26T08:00:07Z</time>
      </trkpt>
      <trkpt lat="47.335" lon="-1.59189">
        <ele>52</ele>
        <time>2023-10-26T08:00:32Z</time>
      </trkpt>
      <trkpt lat="47.33512" lon="-1.59217">
        <ele>52</ele>
        <time>2023-10-26T08:01:02Z</time>
      </trkpt>
      <trkpt lat="47.33524" lon="-1.59244">
        <ele>53</ele>
        <time>2023-10-26T08:01:31Z</time>
      </trkpt>
      <trkpt lat="47.33538" lon="-1.59269">
        <ele>54</ele>
        <time>2023-10-26T08:02:01Z</time>
      </trkpt>
      <trkpt lat="47.33561" lon="-1.59317">
        <ele>55</ele>
        <time>2023-10-26T08:02:54Z</time>
      </trkpt>
      <trkpt lat="47.33573" lon="-1.59339">
        <ele>56</ele>
        <time>2023-10-26T08:03:19Z</time>
      </trkpt>
      <trkpt lat="47.33582" lon="-1.59363">
        <ele>56</ele>
        <time>2023-10-26T08:03:44Z</time>
      </trkpt>
      <trkpt lat="47.33594" lon="-1.59388">
        <ele>55</ele>
        <time>2023-10-26T08:04:12Z</time>
      </trkpt>
      <trkpt lat="47.3362" lon="-1.59438">
        <ele>55</ele>
        <time>2023-10-26T08:05:09Z</time>
      </trkpt>
      <trkpt lat="47.33636" lon="-1.59461">
        <ele>55</ele>
        <time>2023-10-26T08:05:39Z</time>
      </trkpt>
      <trkpt lat="47.33654" lon="-1.59455">
        <ele>55</ele>
        <time>2023-10-26T08:06:03Z</time>
      </trkpt>
      <trkpt lat="47.33668" lon="-1.59439">
        <ele>55</ele>
        <time>2023-10-26T08:06:27Z</time>
      </trkpt>
      <trkpt lat="47.33685" lon="-1.59423">
        <ele>54</ele>
        <time>2023-10-26T08:06:54Z</time>
      </trkpt>
      <trkpt lat="47.33701" lon="-1.59395">
        <ele>53</ele>
        <time>2023-10-26T08:07:27Z</time>
      </trkpt>
      <trkpt lat="47.33714" lon="-1.59373">
        <ele>53</ele>
        <time>2023-10-26T08:07:53Z</time>
      </trkpt>
      <trkpt lat="47.33732" lon="-1.59354">
        <ele>52</ele>
        <time>2023-10-26T08:08:23Z</time>
      </trkpt>
      <trkpt lat="47.33759" lon="-1.59311">
        <ele>52</ele>
        <time>2023-10-26T08:09:16Z</time>
      </trkpt>
      <trkpt lat="47.33773" lon="-1.59286">
        <ele>51</ele>
        <time>2023-10-26T08:09:45Z</time>
      </trkpt>
      <trkpt lat="47.33801" lon="-1.59245">
        <ele>51</ele>
        <time>2023-10-26T08:10:38Z</time>
      </trkpt>
      <trkpt lat="47.33814" lon="-1.59227">
        <ele>50</ele>
        <time>2023-10-26T08:11:02Z</time>
      </trkpt>
      <trkpt lat="47.33829" lon="-1.59203">
        <ele>50</ele>
        <time>2023-10-26T08:11:31Z</time>
      </trkpt>
      <trkpt lat="47.33842" lon="-1.59184">
        <ele>50</ele>
        <time>2023-10-26T08:11:56Z</time>
      </trkpt>
      <trkpt lat="47.33856" lon="-1.59165">
        <ele>49</ele>
        <time>2023-10-26T08:12:21Z</time>
      </trkpt>
      <trkpt lat="47.33883" lon="-1.59119">
        <ele>49</ele>
        <time>2023-10-26T08:13:16Z</time>
      </trkpt>
      <trkpt lat="47.33899" lon="-1.59094">
        <ele>48</ele>
        <time>2023-10-26T08:13:47Z</time>
      </trkpt>
      <trkpt lat="47.33915" lon="-1.59077">
        <ele>48</ele>
        <time>2023-10-26T08:14:13Z</time>
      </trkpt>
      <trkpt lat="47.33928" lon="-1.59058">
        <ele>48</ele>
        <time>2023-10-26T08:14:38Z</time>
      </trkpt>
      <trkpt lat="47.33941" lon="-1.59034">
        <ele>47</ele>
        <time>2023-10-26T08:15:06Z</time>
      </trkpt>
      <trkpt lat="47.33958" lon="-1.59013">
        <ele>47</ele>
        <time>2023-10-26T08:15:35Z</time>
      </trkpt>
      <trkpt lat="47.33973" lon="-1.58986">
        <ele>47</ele>
        <time>2023-10-26T08:16:07Z</time>
      </trkpt>
      <trkpt lat="47.34" lon="-1.5895">
        <ele>46</ele>
        <time>2023-10-26T08:16:55Z</time>
      </trkpt>
      <trkpt lat="47.34013" lon="-1.58931">
        <ele>46</ele>
        <time>2023-10-26T08:17:20Z</time>
      </trkpt>
      <trkpt lat="47.34025" lon="-1.58911">
        <ele>46</ele>
        <time>2023-10-26T08:17:44Z</time>
      </trkpt>
      <trkpt lat="47.34037" lon="-1.5889">
        <ele>45</ele>
        <time>2023-10-26T08:18:09Z</time>
      </trkpt>
      <trkpt lat="47.34051" lon="-1.58871">
        <ele>45</ele>
        <time>2023-10-26T08:18:34Z</time>
      </trkpt>
      <trkpt lat="47.34065" lon="-1.5885">
        <ele>45</ele>
        <time>2023-10-26T08:19:01Z</time>
      </trkpt>
      <trkpt lat="47.3409" lon="-1.58808">
        <ele>45</ele>
        <time>2023-10-26T08:19:51Z</time>
      </trkpt>
      <trkpt lat="47.34103" lon="-1.58788">
        <ele>45</ele>
        <time>2023-10-26T08:20:16Z</time>
      </trkpt>
      <trkpt lat="47.34117" lon="-1.58771">
        <ele>45</ele>
        <time>2023-10-26T08:20:41Z</time>
      </trkpt>
      <trkpt lat="47.3413" lon="-1.58752">
        <ele>45</ele>
        <time>2023-10-26T08:21:05Z</time>
      </trkpt>
      <trkpt lat="47.34142" lon="-1.58732">
        <ele>45</ele>
        <time>2023-10-26T08:21:29Z</time>
      </trkpt>
      <trkpt lat="47.34158" lon="-1.58712">
        <ele>45</ele>
        <time>2023-10-26T08:21:57Z</time>
      </trkpt>
      <trkpt lat="47.34172" lon="-1.58691">
        <ele>46</ele>
        <time>2023-10-26T08:22:24Z</time>
      </trkpt>
      <trkpt lat="47.34187" lon="-1.58673">
        <ele>46</ele>
        <time>2023-10-26T08:22:50Z</time>
      </trkpt>
      <trkpt lat="47.34199" lon="-1.58651">
        <ele>46</ele>
        <time>2023-10-26T08:23:15Z</time>
      </trkpt>
      <trkpt lat="47.34227" lon="-1.58611">
        <ele>46</ele>
        <time>2023-10-26T08:24:07Z</time>
      </trkpt>
      <trkpt lat="47.34244" lon="-1.58591">
        <ele>47</ele>
        <time>2023-10-26T08:24:36Z</time>
      </trkpt>
      <trkpt lat="47.34254" lon="-1.58568">
        <ele>47</ele>
        <time>2023-10-26T08:25:01Z</time>
      </trkpt>
      <trkpt lat="47.34269" lon="-1.58544">
        <ele>46</ele>
        <time>2023-10-26T08:25:30Z</time>
      </trkpt>
      <trkpt lat="47.34283" lon="-1.58523">
        <ele>46</ele>
        <time>2023-10-26T08:25:57Z</time>
      </trkpt>
      <trkpt lat="47.343" lon="-1.585">
        <ele>45</ele>
        <time>2023-10-26T08:26:28Z</time>
      </trkpt>
      <trkpt lat="47.34315" lon="-1.58482">
        <ele>45</ele>
        <time>2023-10-26T08:26:54Z</time>
      </trkpt>
      <trkpt lat="47.34333" lon="-1.58497">
        <ele>45</ele>
        <time>2023-10-26T08:27:21Z</time>
      </trkpt>
      <trkpt lat="47.34347" lon="-1.58514">
        <ele>45</ele>
        <time>2023-10-26T08:27:45Z</time>
      </trkpt>
      <trkpt lat="47.34363" lon="-1.58537">
        <ele>44</ele>
        <time>2023-10-26T08:28:15Z</time>
      </trkpt>
      <trkpt lat="47.34378" lon="-1.58554">
        <ele>44</ele>
        <time>2023-10-26T08:28:40Z</time>
      </trkpt>
      <trkpt lat="47.34407" lon="-1.58592">
        <ele>43</ele>
        <time>2023-10-26T08:29:32Z</time>
      </trkpt>
      <trkpt lat="47.34419" lon="-1.58612">
        <ele>43</ele>
        <time>2023-10-26T08:29:56Z</time>
      </trkpt>
      <trkpt lat="47.34413" lon="-1.58637">
        <ele>43</ele>
        <time>2023-10-26T08:30:20Z</time>
      </trkpt>
      <trkpt lat="47.34397" lon="-1.58662">
        <ele>43</ele>
        <time>2023-10-26T08:30:51Z</time>
      </trkpt>
      <trkpt lat="47.34356" lon="-1.58745">
        <ele>44</ele>
        <time>2023-10-26T08:32:24Z</time>
      </trkpt>
      <trkpt lat="47.34343" lon="-1.58772">
        <ele>45</ele>
        <time>2023-10-26T08:32:54Z</time>
      </trkpt>
      <trkpt lat="47.34327" lon="-1.58798">
        <ele>45</ele>
        <time>2023-10-26T08:33:26Z</time>
      </trkpt>
      <trkpt lat="47.34316" lon="-1.58821">
        <ele>45</ele>
        <time>2023-10-26T08:33:51Z</time>
      </trkpt>
      <trkpt lat="47.34302" lon="-1.58847">
        <ele>46</ele>
        <time>2023-10-26T08:34:22Z</time>
      </trkpt>
      <trkpt lat="47.34287" lon="-1.58872">
        <ele>47</ele>
        <time>2023-10-26T08:34:52Z</time>
      </trkpt>
      <trkpt lat="47.34272" lon="-1.58898">
        <ele>47</ele>
        <time>2023-10-26T08:35:23Z</time>
      </trkpt>
      <trkpt lat="47.3426" lon="-1.58924">
        <ele>48</ele>
        <time>2023-10-26T08:35:51Z</time>
      </trkpt>
      <trkpt lat="47.34245" lon="-1.58948">
        <ele>48</ele>
        <time>2023-10-26T08:36:21Z</time>
      </trkpt>
      <trkpt lat="47.34234" lon="-1.5897">
        <ele>48</ele>
        <time>2023-10-26T08:36:45Z</time>
      </trkpt>
      <trkpt lat="47.3422" lon="-1.58998">
        <ele>48</ele>
        <time>2023-10-26T08:37:17Z</time>
      </trkpt>
      <trkpt lat="47.34205" lon="-1.59023">
        <ele>48</ele>
        <time>2023-10-26T08:37:47Z</time>
      </trkpt>
      <trkpt lat="47.34197" lon="-1.59048">
        <ele>49</ele>
        <time>2023-10-26T08:38:12Z</time>
      </trkpt>
      <trkpt lat="47.34215" lon="-1.59055">
        <ele>49</ele>
        <time>2023-10-26T08:38:37Z</time>
      </trkpt>
      <trkpt lat="47.34234" lon="-1.59068">
        <ele>49</ele>
        <time>2023-10-26T08:39:05Z</time>
      </trkpt>
      <trkpt lat="47.34251" lon="-1.59078">
        <ele>49</ele>
        <time>2023-10-26T08:39:29Z</time>
      </trkpt>
      <trkpt lat="47.34271" lon="-1.5909">
        <ele>49</ele>
        <time>2023-10-26T08:39:58Z</time>
      </trkpt>
      <trkpt lat="47.34289" lon="-1.59101">
        <ele>49</ele>
        <time>2023-10-26T08:40:24Z</time>
      </trkpt>
      <trkpt lat="47.34306" lon="-1.59112">
        <ele>49</ele>
        <time>2023-10-26T08:40:49Z</time>
      </trkpt>
      <trkpt lat="47.34324" lon="-1.59125">
        <ele>49</ele>
        <time>2023-10-26T08:41:15Z</time>
      </trkpt>
      <trkpt lat="47.34361" lon="-1.59148">
        <ele>48</ele>
        <time>2023-10-26T08:42:09Z</time>
      </trkpt>
      <trkpt lat="47.34378" lon="-1.59158">
        <ele>47</ele>
        <time>2023-10-26T08:42:33Z</time>
      </trkpt>
      <trkpt lat="47.34397" lon="-1.59172">
        <ele>47</ele>
        <time>2023-10-26T08:43:02Z</time>
      </trkpt>
      <trkpt lat="47.34418" lon="-1.59185">
        <ele>46</ele>
        <time>2023-10-26T08:43:32Z</time>
      </trkpt>
      <trkpt lat="47.34454" lon="-1.59211">
        <ele>44</ele>
        <time>2023-10-26T08:44:26Z</time>
      </trkpt>
      <trkpt lat="47.34474" lon="-1.59225">
        <ele>44</ele>
        <time>2023-10-26T08:44:55Z</time>
      </trkpt>
      <trkpt lat="47.34493" lon="-1.59237">
        <ele>43</ele>
        <time>2023-10-26T08:45:23Z</time>
      </trkpt>
      <trkpt lat="47.34512" lon="-1.5925">
        <ele>43</ele>
        <time>2023-10-26T08:45:51Z</time>
      </trkpt>
      <trkpt lat="47.34532" lon="-1.59258">
        <ele>42</ele>
        <time>2023-10-26T08:46:18Z</time>
      </trkpt>
      <trkpt lat="47.34552" lon="-1.59274">
        <ele>41</ele>
        <time>2023-10-26T08:46:49Z</time>
      </trkpt>
      <trkpt lat="47.34571" lon="-1.59284">
        <ele>40</ele>
        <time>2023-10-26T08:47:16Z</time>
      </trkpt>
      <trkpt lat="47.34589" lon="-1.59298">
        <ele>39</ele>
        <time>2023-10-26T08:47:43Z</time>
      </trkpt>
      <trkpt lat="47.34607" lon="-1.59309">
        <ele>37</ele>
        <time>2023-10-26T08:48:09Z</time>
      </trkpt>
      <trkpt lat="47.34624" lon="-1.59322">
        <ele>36</ele>
        <time>2023-10-26T08:48:34Z</time>
      </trkpt>
      <trkpt lat="47.34701" lon="-1.5937">
        <ele>32</ele>
        <time>2023-10-26T08:50:26Z</time>
      </trkpt>
      <trkpt lat="47.3472" lon="-1.59381">
        <ele>32</ele>
        <time>2023-10-26T08:50:53Z</time>
      </trkpt>
      <trkpt lat="47.34736" lon="-1.59395">
        <ele>31</ele>
        <time>2023-10-26T08:51:18Z</time>
      </trkpt>
      <trkpt lat="47.34753" lon="-1.59408">
        <ele>30</ele>
        <time>2023-10-26T08:51:44Z</time>
      </trkpt>
      <trkpt lat="47.34772" lon="-1.5942">
        <ele>30</ele>
        <time>2023-10-26T08:52:11Z</time>
      </trkpt>
      <trkpt lat="47.34793" lon="-1.5943">
        <ele>29</ele>
        <time>2023-10-26T08:52:41Z</time>
      </trkpt>
      <trkpt lat="47.34813" lon="-1.5943">
        <ele>29</ele>
        <time>2023-10-26T08:53:07Z</time>
      </trkpt>
      <trkpt lat="47.34832" lon="-1.59425">
        <ele>29</ele>
        <time>2023-10-26T08:53:33Z</time>
      </trkpt>
      <trkpt lat="47.34851" lon="-1.59421">
        <ele>28</ele>
        <time>2023-10-26T08:53:59Z</time>
      </trkpt>
      <trkpt lat="47.34871" lon="-1.59414">
        <ele>27</ele>
        <time>2023-10-26T08:54:26Z</time>
      </trkpt>
      <trkpt lat="47.3489" lon="-1.59411">
        <ele>27</ele>
        <time>2023-10-26T08:54:52Z</time>
      </trkpt>
      <trkpt lat="47.34908" lon="-1.59406">
        <ele>26</ele>
        <time>2023-10-26T08:55:16Z</time>
      </trkpt>
      <trkpt lat="47.34925" lon="-1.59389">
        <ele>26</ele>
        <time>2023-10-26T08:55:43Z</time>
      </trkpt>
      <trkpt lat="47.34937" lon="-1.59365">
        <ele>27</ele>
        <time>2023-10-26T08:56:10Z</time>
      </trkpt>
      <trkpt lat="47.34952" lon="-1.59343">
        <ele>27</ele>
        <time>2023-10-26T08:56:39Z</time>
      </trkpt>
      <trkpt lat="47.34965" lon="-1.5932">
        <ele>27</ele>
        <time>2023-10-26T08:57:06Z</time>
      </trkpt>
      <trkpt lat="47.34979" lon="-1.59303">
        <ele>27</ele>
        <time>2023-10-26T08:57:30Z</time>
      </trkpt>
      <trkpt lat="47.34995" lon="-1.59325">
        <ele>25</ele>
        <time>2023-10-26T08:57:59Z</time>
      </trkpt>
      <trkpt lat="47.3501" lon="-1.59343">
        <ele>24</ele>
        <time>2023-10-26T08:58:25Z</time>
      </trkpt>
      <trkpt lat="47.35025" lon="-1.59362">
        <ele>23</ele>
        <time>2023-10-26T08:58:51Z</time>
      </trkpt>
      <trkpt lat="47.35041" lon="-1.59385">
        <ele>22</ele>
        <time>2023-10-26T08:59:21Z</time>
      </trkpt>
      <trkpt lat="47.35055" lon="-1.59402">
        <ele>21</ele>
        <time>2023-10-26T08:59:45Z</time>
      </trkpt>
      <trkpt lat="47.35072" lon="-1.59419">
        <ele>20</ele>
        <time>2023-10-26T09:00:13Z</time>
      </trkpt>
      <trkpt lat="47.35079" lon="-1.59385">
        <ele>21</ele>
        <time>2023-10-26T09:00:45Z</time>
      </trkpt>
      <trkpt lat="47.35075" lon="-1.59356">
        <ele>22</ele>
        <time>2023-10-26T09:01:11Z</time>
      </trkpt>
      <trkpt lat="47.35073" lon="-1.59325">
        <ele>22</ele>
        <time>2023-10-26T09:01:40Z</time>
      </trkpt>
      <trkpt lat="47.35073" lon="-1.59296">
        <ele>22</ele>
        <time>2023-10-26T09:02:06Z</time>
      </trkpt>
      <trkpt lat="47.35069" lon="-1.59268">
        <ele>23</ele>
        <time>2023-10-26T09:02:32Z</time>
      </trkpt>
      <trkpt lat="47.35064" lon="-1.59235">
        <ele>23</ele>
        <time>2023-10-26T09:03:02Z</time>
      </trkpt>
      <trkpt lat="47.35062" lon="-1.59205">
        <ele>24</ele>
        <time>2023-10-26T09:03:30Z</time>
      </trkpt>
      <trkpt lat="47.35071" lon="-1.59182">
        <ele>23</ele>
        <time>2023-10-26T09:03:54Z</time>
      </trkpt>
      <trkpt lat="47.35077" lon="-1.59153">
        <ele>23</ele>
        <time>2023-10-26T09:04:21Z</time>
      </trkpt>
      <trkpt lat="47.35082" lon="-1.59123">
        <ele>24</ele>
        <time>2023-10-26T09:04:49Z</time>
      </trkpt>
      <trkpt lat="47.35083" lon="-1.59089">
        <ele>25</ele>
        <time>2023-10-26T09:05:20Z</time>
      </trkpt>
      <trkpt lat="47.3508" lon="-1.59059">
        <ele>26</ele>
        <time>2023-10-26T09:05:47Z</time>
      </trkpt>
      <trkpt lat="47.35076" lon="-1.5903">
        <ele>28</ele>
        <time>2023-10-26T09:06:14Z</time>
      </trkpt>
      <trkpt lat="47.35074" lon="-1.58999">
        <ele>30</ele>
        <time>2023-10-26T09:06:42Z</time>
      </trkpt>
      <trkpt lat="47.35057" lon="-1.58914">
        <ele>32</ele>
        <time>2023-10-26T09:08:02Z</time>
      </trkpt>
      <trkpt lat="47.35051" lon="-1.58883">
        <ele>33</ele>
        <time>2023-10-26T09:08:31Z</time>
      </trkpt>
      <trkpt lat="47.35036" lon="-1.58831">
        <ele>34</ele>
        <time>2023-10-26T09:09:22Z</time>
      </trkpt>
      <trkpt lat="47.35028" lon="-1.58803">
        <ele>34</ele>
        <time>2023-10-26T09:09:50Z</time>
      </trkpt>
      <trkpt lat="47.3502" lon="-1.58779">
        <ele>34</ele>
        <time>2023-10-26T09:10:14Z</time>
      </trkpt>
      <trkpt lat="47.35013" lon="-1.58749">
        <ele>34</ele>
        <time>2023-10-26T09:10:43Z</time>
      </trkpt>
      <trkpt lat="47.35" lon="-1.58728">
        <ele>33</ele>
        <time>2023-10-26T09:11:08Z</time>
      </trkpt>
      <trkpt lat="47.34985" lon="-1.58708">
        <ele>33</ele>
        <time>2023-10-26T09:11:35Z</time>
      </trkpt>
      <trkpt lat="47.34969" lon="-1.58686">
        <ele>33</ele>
        <time>2023-10-26T09:12:05Z</time>
      </trkpt>
      <trkpt lat="47.34954" lon="-1.58664">
        <ele>32</ele>
        <time>2023-10-26T09:12:33Z</time>
      </trkpt>
      <trkpt lat="47.34942" lon="-1.58644">
        <ele>32</ele>
        <time>2023-10-26T09:12:57Z</time>
      </trkpt>
      <trkpt lat="47.34927" lon="-1.58625">
        <ele>32</ele>
        <time>2023-10-26T09:13:23Z</time>
      </trkpt>
      <trkpt lat="47.34913" lon="-1.58602">
        <ele>31</ele>
        <time>2023-10-26T09:13:51Z</time>
      </trkpt>
      <trkpt lat="47.34899" lon="-1.58579">
        <ele>31</ele>
        <time>2023-10-26T09:14:19Z</time>
      </trkpt>
      <trkpt lat="47.34884" lon="-1.58559">
        <ele>31</ele>
        <time>2023-10-26T09:14:46Z</time>
      </trkpt>
      <trkpt lat="47.34869" lon="-1.58539">
        <ele>30</ele>
        <time>2023-10-26T09:15:13Z</time>
      </trkpt>
      <trkpt lat="47.34854" lon="-1.58519">
        <ele>30</ele>
        <time>2023-10-26T09:15:40Z</time>
      </trkpt>
      <trkpt lat="47.3484" lon="-1.58502">
        <ele>30</ele>
        <time>2023-10-26T09:16:04Z</time>
      </trkpt>
      <trkpt lat="47.34823" lon="-1.58483">
        <ele>31</ele>
        <time>2023-10-26T09:16:33Z</time>
      </trkpt>
      <trkpt lat="47.34805" lon="-1.58464">
        <ele>32</ele>
        <time>2023-10-26T09:17:02Z</time>
      </trkpt>
      <trkpt lat="47.3479" lon="-1.58438">
        <ele>33</ele>
        <time>2023-10-26T09:17:33Z</time>
      </trkpt>
      <trkpt lat="47.34779" lon="-1.58415">
        <ele>34</ele>
        <time>2023-10-26T09:17:59Z</time>
      </trkpt>
      <trkpt lat="47.34762" lon="-1.5836">
        <ele>35</ele>
        <time>2023-10-26T09:18:53Z</time>
      </trkpt>
      <trkpt lat="47.34755" lon="-1.58329">
        <ele>35</ele>
        <time>2023-10-26T09:19:23Z</time>
      </trkpt>
      <trkpt lat="47.34746" lon="-1.58303">
        <ele>35</ele>
        <time>2023-10-26T09:19:49Z</time>
      </trkpt>
      <trkpt lat="47.34736" lon="-1.58278">
        <ele>36</ele>
        <time>2023-10-26T09:20:16Z</time>
      </trkpt>
      <trkpt lat="47.34728" lon="-1.58251">
        <ele>37</ele>
        <time>2023-10-26T09:20:42Z</time>
      </trkpt>
      <trkpt lat="47.34721" lon="-1.58219">
        <ele>38</ele>
        <time>2023-10-26T09:21:13Z</time>
      </trkpt>
      <trkpt lat="47.3471" lon="-1.58187">
        <ele>39</ele>
        <time>2023-10-26T09:21:45Z</time>
      </trkpt>
      <trkpt lat="47.34703" lon="-1.58161">
        <ele>40</ele>
        <time>2023-10-26T09:22:10Z</time>
      </trkpt>
      <trkpt lat="47.34692" lon="-1.58138">
        <ele>41</ele>
        <time>2023-10-26T09:22:36Z</time>
      </trkpt>
      <trkpt lat="47.34674" lon="-1.5813">
        <ele>43</ele>
        <time>2023-10-26T09:23:01Z</time>
      </trkpt>
      <trkpt lat="47.34655" lon="-1.58126">
        <ele>43</ele>
        <time>2023-10-26T09:23:26Z</time>
      </trkpt>
      <trkpt lat="47.34618" lon="-1.58121">
        <ele>44</ele>
        <time>2023-10-26T09:24:16Z</time>
      </trkpt>
      <trkpt lat="47.34612" lon="-1.58093">
        <ele>43</ele>
        <time>2023-10-26T09:24:43Z</time>
      </trkpt>
      <trkpt lat="47.34622" lon="-1.58064">
        <ele>43</ele>
        <time>2023-10-26T09:25:12Z</time>
      </trkpt>
      <trkpt lat="47.3463" lon="-1.58037">
        <ele>43</ele>
        <time>2023-10-26T09:25:39Z</time>
      </trkpt>
      <trkpt lat="47.34637" lon="-1.58012">
        <ele>43</ele>
        <time>2023-10-26T09:26:03Z</time>
      </trkpt>
      <trkpt lat="47.34647" lon="-1.57988">
        <ele>43</ele>
        <time>2023-10-26T09:26:29Z</time>
      </trkpt>
      <trkpt lat="47.34663" lon="-1.57966">
        <ele>43</ele>
        <time>2023-10-26T09:26:58Z</time>
      </trkpt>
      <trkpt lat="47.3468" lon="-1.57953">
        <ele>42</ele>
        <time>2023-10-26T09:27:23Z</time>
      </trkpt>
      <trkpt lat="47.34721" lon="-1.57888">
        <ele>42</ele>
        <time>2023-10-26T09:28:44Z</time>
      </trkpt>
      <trkpt lat="47.34738" lon="-1.57866">
        <ele>42</ele>
        <time>2023-10-26T09:29:14Z</time>
      </trkpt>
      <trkpt lat="47.34751" lon="-1.57844">
        <ele>42</ele>
        <time>2023-10-26T09:29:40Z</time>
      </trkpt>
      <trkpt lat="47.34764" lon="-1.57821">
        <ele>41</ele>
        <time>2023-10-26T09:30:07Z</time>
      </trkpt>
      <trkpt lat="47.34777" lon="-1.57797">
        <ele>40</ele>
        <time>2023-10-26T09:30:35Z</time>
      </trkpt>
      <trkpt lat="47.34793" lon="-1.57778">
        <ele>40</ele>
        <time>2023-10-26T09:31:02Z</time>
      </trkpt>
      <trkpt lat="47.34806" lon="-1.57755">
        <ele>39</ele>
        <time>2023-10-26T09:31:30Z</time>
      </trkpt>
      <trkpt lat="47.34823" lon="-1.57735">
        <ele>39</ele>
        <time>2023-10-26T09:31:59Z</time>
      </trkpt>
      <trkpt lat="47.34839" lon="-1.57709">
        <ele>38</ele>
        <time>2023-10-26T09:32:30Z</time>
      </trkpt>
      <trkpt lat="47.34853" lon="-1.57692">
        <ele>37</ele>
        <time>2023-10-26T09:32:55Z</time>
      </trkpt>
      <trkpt lat="47.34882" lon="-1.57653">
        <ele>37</ele>
        <time>2023-10-26T09:33:47Z</time>
      </trkpt>
      <trkpt lat="47.34892" lon="-1.57625">
        <ele>37</ele>
        <time>2023-10-26T09:34:16Z</time>
      </trkpt>
      <trkpt lat="47.34909" lon="-1.57609">
        <ele>37</ele>
        <time>2023-10-26T09:34:42Z</time>
      </trkpt>
      <trkpt lat="47.34925" lon="-1.57586">
        <ele>36</ele>
        <time>2023-10-26T09:35:12Z</time>
      </trkpt>
      <trkpt lat="47.34941" lon="-1.57569">
        <ele>35</ele>
        <time>2023-10-26T09:35:39Z</time>
      </trkpt>
      <trkpt lat="47.34968" lon="-1.57528">
        <ele>34</ele>
        <time>2023-10-26T09:36:30Z</time>
      </trkpt>
      <trkpt lat="47.34983" lon="-1.5751">
        <ele>32</ele>
        <time>2023-10-26T09:36:56Z</time>
      </trkpt>
      <trkpt lat="47.34999" lon="-1.57494">
        <ele>31</ele>
        <time>2023-10-26T09:37:22Z</time>
      </trkpt>
      <trkpt lat="47.35018" lon="-1.57478">
        <ele>28</ele>
        <time>2023-10-26T09:37:51Z</time>
      </trkpt>
      <trkpt lat="47.35039" lon="-1.57472">
        <ele>25</ele>
        <time>2023-10-26T09:38:20Z</time>
      </trkpt>
      <trkpt lat="47.35061" lon="-1.57467">
        <ele>22</ele>
        <time>2023-10-26T09:38:49Z</time>
      </trkpt>
      <trkpt lat="47.35081" lon="-1.57469">
        <ele>19</ele>
        <time>2023-10-26T09:39:16Z</time>
      </trkpt>
      <trkpt lat="47.351" lon="-1.57462">
        <ele>18</ele>
        <time>2023-10-26T09:39:42Z</time>
      </trkpt>
      <trkpt lat="47.35121" lon="-1.57456">
        <ele>17</ele>
        <time>2023-10-26T09:40:11Z</time>
      </trkpt>
      <trkpt lat="47.35142" lon="-1.5745">
        <ele>15</ele>
        <time>2023-10-26T09:40:39Z</time>
      </trkpt>
      <trkpt lat="47.35162" lon="-1.57447">
        <ele>14</ele>
        <time>2023-10-26T09:41:06Z</time>
      </trkpt>
      <trkpt lat="47.352" lon="-1.57434">
        <ele>14</ele>
        <time>2023-10-26T09:41:58Z</time>
      </trkpt>
      <trkpt lat="47.35221" lon="-1.5743">
        <ele>14</ele>
        <time>2023-10-26T09:42:26Z</time>
      </trkpt>
      <trkpt lat="47.35212" lon="-1.574">
        <ele>14</ele>
        <time>2023-10-26T09:42:56Z</time>
      </trkpt>
      <trkpt lat="47.35195" lon="-1.57375">
        <ele>15</ele>
        <time>2023-10-26T09:43:28Z</time>
      </trkpt>
      <trkpt lat="47.3518" lon="-1.57352">
        <ele>15</ele>
        <time>2023-10-26T09:43:57Z</time>
      </trkpt>
      <trkpt lat="47.35165" lon="-1.57333">
        <ele>15</ele>
        <time>2023-10-26T09:44:23Z</time>
      </trkpt>
      <trkpt lat="47.35151" lon="-1.57315">
        <ele>17</ele>
        <time>2023-10-26T09:44:48Z</time>
      </trkpt>
      <trkpt lat="47.3514" lon="-1.57285">
        <ele>20</ele>
        <time>2023-10-26T09:45:19Z</time>
      </trkpt>
      <trkpt lat="47.35139" lon="-1.57252">
        <ele>22</ele>
        <time>2023-10-26T09:45:49Z</time>
      </trkpt>
      <trkpt lat="47.35125" lon="-1.5723">
        <ele>24</ele>
        <time>2023-10-26T09:46:16Z</time>
      </trkpt>
      <trkpt lat="47.35129" lon="-1.572">
        <ele>23</ele>
        <time>2023-10-26T09:46:44Z</time>
      </trkpt>
      <trkpt lat="47.35138" lon="-1.57177">
        <ele>23</ele>
        <time>2023-10-26T09:47:08Z</time>
      </trkpt>
      <trkpt lat="47.35144" lon="-1.57151">
        <ele>22</ele>
        <time>2023-10-26T09:47:33Z</time>
      </trkpt>
      <trkpt lat="47.3515" lon="-1.57122">
        <ele>21</ele>
        <time>2023-10-26T09:48:00Z</time>
      </trkpt>
      <trkpt lat="47.35156" lon="-1.57095">
        <ele>21</ele>
        <time>2023-10-26T09:48:26Z</time>
      </trkpt>
      <trkpt lat="47.35155" lon="-1.57065">
        <ele>21</ele>
        <time>2023-10-26T09:48:53Z</time>
      </trkpt>
      <trkpt lat="47.35152" lon="-1.57038">
        <ele>21</ele>
        <time>2023-10-26T09:49:18Z</time>
      </trkpt>
      <trkpt lat="47.35154" lon="-1.57007">
        <ele>20</ele>
        <time>2023-10-26T09:49:46Z</time>
      </trkpt>
      <trkpt lat="47.3516" lon="-1.56978">
        <ele>18</ele>
        <time>2023-10-26T09:50:13Z</time>
      </trkpt>
      <trkpt lat="47.35158" lon="-1.5695">
        <ele>17</ele>
        <time>2023-10-26T09:50:39Z</time>
      </trkpt>
      <trkpt lat="47.3514" lon="-1.569">
        <ele>18</ele>
        <time>2023-10-26T09:51:30Z</time>
      </trkpt>
      <trkpt lat="47.35127" lon="-1.5688">
        <ele>20</ele>
        <time>2023-10-26T09:51:55Z</time>
      </trkpt>
      <trkpt lat="47.35116" lon="-1.56904">
        <ele>22</ele>
        <time>2023-10-26T09:52:21Z</time>
      </trkpt>
      <trkpt lat="47.35106" lon="-1.56931">
        <ele>24</ele>
        <time>2023-10-26T09:52:49Z</time>
      </trkpt>
      <trkpt lat="47.35092" lon="-1.56949">
        <ele>27</ele>
        <time>2023-10-26T09:53:14Z</time>
      </trkpt>
      <trkpt lat="47.35085" lon="-1.56924">
        <ele>27</ele>
        <time>2023-10-26T09:53:38Z</time>
      </trkpt>
      <trkpt lat="47.35068" lon="-1.56913">
        <ele>28</ele>
        <time>2023-10-26T09:54:03Z</time>
      </trkpt>
      <trkpt lat="47.35051" lon="-1.56895">
        <ele>29</ele>
        <time>2023-10-26T09:54:31Z</time>
      </trkpt>
      <trkpt lat="47.3504" lon="-1.56874">
        <ele>29</ele>
        <time>2023-10-26T09:54:55Z</time>
      </trkpt>
      <trkpt lat="47.35022" lon="-1.56866">
        <ele>30</ele>
        <time>2023-10-26T09:55:20Z</time>
      </trkpt>
      <trkpt lat="47.35002" lon="-1.56858">
        <ele>32</ele>
        <time>2023-10-26T09:55:47Z</time>
      </trkpt>
      <trkpt lat="47.34995" lon="-1.56832">
        <ele>32</ele>
        <time>2023-10-26T09:56:13Z</time>
      </trkpt>
      <trkpt lat="47.34993" lon="-1.56798">
        <ele>31</ele>
        <time>2023-10-26T09:56:44Z</time>
      </trkpt>
      <trkpt lat="47.35005" lon="-1.56774">
        <ele>29</ele>
        <time>2023-10-26T09:57:11Z</time>
      </trkpt>
      <trkpt lat="47.35015" lon="-1.56751">
        <ele>27</ele>
        <time>2023-10-26T09:57:35Z</time>
      </trkpt>
      <trkpt lat="47.3502" lon="-1.56724">
        <ele>24</ele>
        <time>2023-10-26T09:58:01Z</time>
      </trkpt>
      <trkpt lat="47.35007" lon="-1.56702">
        <ele>22</ele>
        <time>2023-10-26T09:58:27Z</time>
      </trkpt>
      <trkpt lat="47.34993" lon="-1.56684">
        <ele>22</ele>
        <time>2023-10-26T09:58:52Z</time>
      </trkpt>
      <trkpt lat="47.34973" lon="-1.56672">
        <ele>23</ele>
        <time>2023-10-26T09:59:21Z</time>
      </trkpt>
      <trkpt lat="47.34955" lon="-1.56671">
        <ele>25</ele>
        <time>2023-10-26T09:59:45Z</time>
      </trkpt>
      <trkpt lat="47.34939" lon="-1.56658">
        <ele>26</ele>
        <time>2023-10-26T10:00:09Z</time>
      </trkpt>
      <trkpt lat="47.34921" lon="-1.56647">
        <ele>27</ele>
        <time>2023-10-26T10:00:35Z</time>
      </trkpt>
      <trkpt lat="47.34903" lon="-1.56635">
        <ele>25</ele>
        <time>2023-10-26T10:01:01Z</time>
      </trkpt>
      <trkpt lat="47.34885" lon="-1.56625">
        <ele>24</ele>
        <time>2023-10-26T10:01:27Z</time>
      </trkpt>
      <trkpt lat="47.34869" lon="-1.56611">
        <ele>22</ele>
        <time>2023-10-26T10:01:52Z</time>
      </trkpt>
      <trkpt lat="47.34847" lon="-1.56608">
        <ele>22</ele>
        <time>2023-10-26T10:02:21Z</time>
      </trkpt>
      <trkpt lat="47.34828" lon="-1.56598">
        <ele>22</ele>
        <time>2023-10-26T10:02:48Z</time>
      </trkpt>
      <trkpt lat="47.3481" lon="-1.56586">
        <ele>20</ele>
        <time>2023-10-26T10:03:15Z</time>
      </trkpt>
      <trkpt lat="47.34792" lon="-1.56577">
        <ele>19</ele>
        <time>2023-10-26T10:03:40Z</time>
      </trkpt>
      <trkpt lat="47.34773" lon="-1.56572">
        <ele>19</ele>
        <time>2023-10-26T10:04:06Z</time>
      </trkpt>
      <trkpt lat="47.34755" lon="-1.56566">
        <ele>19</ele>
        <time>2023-10-26T10:04:30Z</time>
      </trkpt>
      <trkpt lat="47.34737" lon="-1.56561">
        <ele>18</ele>
        <time>2023-10-26T10:04:55Z</time>
      </trkpt>
      <trkpt lat="47.34714" lon="-1.56567">
        <ele>18</ele>
        <time>2023-10-26T10:05:26Z</time>
      </trkpt>
      <trkpt lat="47.34693" lon="-1.56574">
        <ele>18</ele>
        <time>2023-10-26T10:05:55Z</time>
      </trkpt>
      <trkpt lat="47.34676" lon="-1.56583">
        <ele>18</ele>
        <time>2023-10-26T10:06:19Z</time>
      </trkpt>
      <trkpt lat="47.34658" lon="-1.5659">
        <ele>18</ele>
        <time>2023-10-26T10:06:44Z</time>
      </trkpt>
      <trkpt lat="47.34651" lon="-1.56615">
        <ele>19</ele>
        <time>2023-10-26T10:07:08Z</time>
      </trkpt>
      <trkpt lat="47.34646" lon="-1.56644">
        <ele>20</ele>
        <time>2023-10-26T10:07:35Z</time>
      </trkpt>
      <trkpt lat="47.34644" lon="-1.56672">
        <ele>22</ele>
        <time>2023-10-26T10:08:01Z</time>
      </trkpt>
      <trkpt lat="47.34647" lon="-1.56698">
        <ele>23</ele>
        <time>2023-10-26T10:08:24Z</time>
      </trkpt>
      <trkpt lat="47.34654" lon="-1.56724">
        <ele>25</ele>
        <time>2023-10-26T10:08:50Z</time>
      </trkpt>
      <trkpt lat="47.34666" lon="-1.56749">
        <ele>26</ele>
        <time>2023-10-26T10:09:17Z</time>
      </trkpt>
      <trkpt lat="47.34698" lon="-1.56786">
        <ele>28</ele>
        <time>2023-10-26T10:10:12Z</time>
      </trkpt>
      <trkpt lat="47.3471" lon="-1.56808">
        <ele>30</ele>
        <time>2023-10-26T10:10:37Z</time>
      </trkpt>
      <trkpt lat="47.34719" lon="-1.56835">
        <ele>32</ele>
        <time>2023-10-26T10:11:04Z</time>
      </trkpt>
      <trkpt lat="47.3473" lon="-1.56895">
        <ele>35</ele>
        <time>2023-10-26T10:12:01Z</time>
      </trkpt>
      <trkpt lat="47.34736" lon="-1.56928">
        <ele>36</ele>
        <time>2023-10-26T10:12:32Z</time>
      </trkpt>
      <trkpt lat="47.34743" lon="-1.56983">
        <ele>37</ele>
        <time>2023-10-26T10:13:22Z</time>
      </trkpt>
      <trkpt lat="47.34748" lon="-1.57015">
        <ele>37</ele>
        <time>2023-10-26T10:13:52Z</time>
      </trkpt>
      <trkpt lat="47.34755" lon="-1.57041">
        <ele>37</ele>
        <time>2023-10-26T10:14:17Z</time>
      </trkpt>
      <trkpt lat="47.34762" lon="-1.57066">
        <ele>38</ele>
        <time>2023-10-26T10:14:42Z</time>
      </trkpt>
      <trkpt lat="47.34776" lon="-1.5712">
        <ele>38</ele>
        <time>2023-10-26T10:15:34Z</time>
      </trkpt>
      <trkpt lat="47.34783" lon="-1.57149">
        <ele>37</ele>
        <time>2023-10-26T10:16:02Z</time>
      </trkpt>
      <trkpt lat="47.34791" lon="-1.57175">
        <ele>38</ele>
        <time>2023-10-26T10:16:28Z</time>
      </trkpt>
      <trkpt lat="47.34802" lon="-1.57198">
        <ele>38</ele>
        <time>2023-10-26T10:16:53Z</time>
      </trkpt>
      <trkpt lat="47.3482" lon="-1.57209">
        <ele>39</ele>
        <time>2023-10-26T10:17:19Z</time>
      </trkpt>
      <trkpt lat="47.34838" lon="-1.57226">
        <ele>39</ele>
        <time>2023-10-26T10:17:47Z</time>
      </trkpt>
      <trkpt lat="47.34837" lon="-1.57256">
        <ele>40</ele>
        <time>2023-10-26T10:18:15Z</time>
      </trkpt>
      <trkpt lat="47.34836" lon="-1.57288">
        <ele>41</ele>
        <time>2023-10-26T10:18:44Z</time>
      </trkpt>
      <trkpt lat="47.3483" lon="-1.57317">
        <ele>42</ele>
        <time>2023-10-26T10:19:11Z</time>
      </trkpt>
      <trkpt lat="47.34822" lon="-1.57346">
        <ele>41</ele>
        <time>2023-10-26T10:19:39Z</time>
      </trkpt>
      <trkpt lat="47.34813" lon="-1.57371">
        <ele>40</ele>
        <time>2023-10-26T10:20:05Z</time>
      </trkpt>
      <trkpt lat="47.34801" lon="-1.57397">
        <ele>40</ele>
        <time>2023-10-26T10:20:33Z</time>
      </trkpt>
      <trkpt lat="47.34755" lon="-1.57492">
        <ele>38</ele>
        <time>2023-10-26T10:22:19Z</time>
      </trkpt>
      <trkpt lat="47.34745" lon="-1.57517">
        <ele>38</ele>
        <time>2023-10-26T10:22:45Z</time>
      </trkpt>
      <trkpt lat="47.34736" lon="-1.57549">
        <ele>38</ele>
        <time>2023-10-26T10:23:17Z</time>
      </trkpt>
      <trkpt lat="47.34732" lon="-1.57579">
        <ele>38</ele>
        <time>2023-10-26T10:23:44Z</time>
      </trkpt>
      <trkpt lat="47.3472" lon="-1.57606">
        <ele>38</ele>
        <time>2023-10-26T10:24:13Z</time>
      </trkpt>
    </trkseg>
  </trk>
  <trk>
    <name><![CDATA[ChapelleE_BrosseSuceVaillantiere_12km-8396171]]></name>
    <extensions>
      <line xmlns="http://www.topografix.com/GPX/gpx_style/0/2">
        <color>FF0000</color>
        <width>4</width>
      </line>
    </extensions>
    <trkseg>
      <trkpt lat="47.33727" lon="-1.57166">
        <ele>38</ele>
        <time>2023-10-26T07:02:46Z</time>
      </trkpt>
      <trkpt lat="47.33727" lon="-1.57166">
        <ele>38</ele>
        <time>2023-10-26T07:02:46Z</time>
      </trkpt>
      <trkpt lat="47.33725" lon="-1.57164">
        <ele>38</ele>
        <time>2023-10-26T07:02:49Z</time>
      </trkpt>
      <trkpt lat="47.33725" lon="-1.57164">
        <ele>38</ele>
        <time>2023-10-26T07:02:49Z</time>
      </trkpt>
      <trkpt lat="47.33732" lon="-1.57156">
        <ele>38</ele>
        <time>2023-10-26T07:03:01Z</time>
      </trkpt>
      <trkpt lat="47.33734" lon="-1.57158">
        <ele>38</ele>
        <time>2023-10-26T07:03:04Z</time>
      </trkpt>
      <trkpt lat="47.33735" lon="-1.57156">
        <ele>38</ele>
        <time>2023-10-26T07:03:07Z</time>
      </trkpt>
      <trkpt lat="47.33744" lon="-1.5715">
        <ele>38</ele>
        <time>2023-10-26T07:03:20Z</time>
      </trkpt>
      <trkpt lat="47.3375" lon="-1.57095">
        <ele>37</ele>
        <time>2023-10-26T07:04:10Z</time>
      </trkpt>
      <trkpt lat="47.3375" lon="-1.57092">
        <ele>37</ele>
        <time>2023-10-26T07:04:13Z</time>
      </trkpt>
      <trkpt lat="47.33756" lon="-1.5705">
        <ele>36</ele>
        <time>2023-10-26T07:04:52Z</time>
      </trkpt>
      <trkpt lat="47.33757" lon="-1.57047">
        <ele>36</ele>
        <time>2023-10-26T07:04:55Z</time>
      </trkpt>
      <trkpt lat="47.3376" lon="-1.57003">
        <ele>35</ele>
        <time>2023-10-26T07:05:35Z</time>
      </trkpt>
      <trkpt lat="47.33762" lon="-1.56982">
        <ele>34</ele>
        <time>2023-10-26T07:05:54Z</time>
      </trkpt>
      <trkpt lat="47.33765" lon="-1.56966">
        <ele>33</ele>
        <time>2023-10-26T07:06:09Z</time>
      </trkpt>
      <trkpt lat="47.33775" lon="-1.56783">
        <ele>31</ele>
        <time>2023-10-26T07:08:55Z</time>
      </trkpt>
      <trkpt lat="47.33782" lon="-1.56736">
        <ele>32</ele>
        <time>2023-10-26T07:09:38Z</time>
      </trkpt>
      <trkpt lat="47.33793" lon="-1.56683">
        <ele>33</ele>
        <time>2023-10-26T07:10:28Z</time>
      </trkpt>
      <trkpt lat="47.3381" lon="-1.56584">
        <ele>33</ele>
        <time>2023-10-26T07:12:01Z</time>
      </trkpt>
      <trkpt lat="47.33818" lon="-1.56548">
        <ele>34</ele>
        <time>2023-10-26T07:12:35Z</time>
      </trkpt>
      <trkpt lat="47.33828" lon="-1.56523">
        <ele>34</ele>
        <time>2023-10-26T07:13:01Z</time>
      </trkpt>
      <trkpt lat="47.33831" lon="-1.56502">
        <ele>34</ele>
        <time>2023-10-26T07:13:21Z</time>
      </trkpt>
      <trkpt lat="47.33843" lon="-1.56455">
        <ele>33</ele>
        <time>2023-10-26T07:14:06Z</time>
      </trkpt>
      <trkpt lat="47.3385" lon="-1.56362">
        <ele>31</ele>
        <time>2023-10-26T07:15:31Z</time>
      </trkpt>
      <trkpt lat="47.33848" lon="-1.56315">
        <ele>30</ele>
        <time>2023-10-26T07:16:13Z</time>
      </trkpt>
      <trkpt lat="47.33828" lon="-1.5613">
        <ele>24</ele>
        <time>2023-10-26T07:19:03Z</time>
      </trkpt>
      <trkpt lat="47.33872" lon="-1.56101">
        <ele>23</ele>
        <time>2023-10-26T07:20:07Z</time>
      </trkpt>
      <trkpt lat="47.33899" lon="-1.56086">
        <ele>22</ele>
        <time>2023-10-26T07:20:46Z</time>
      </trkpt>
      <trkpt lat="47.33941" lon="-1.56073">
        <ele>19</ele>
        <time>2023-10-26T07:21:43Z</time>
      </trkpt>
      <trkpt lat="47.3395" lon="-1.56067">
        <ele>18</ele>
        <time>2023-10-26T07:21:56Z</time>
      </trkpt>
      <trkpt lat="47.33965" lon="-1.56051">
        <ele>16</ele>
        <time>2023-10-26T07:22:21Z</time>
      </trkpt>
      <trkpt lat="47.33974" lon="-1.56034">
        <ele>15</ele>
        <time>2023-10-26T07:22:40Z</time>
      </trkpt>
      <trkpt lat="47.33975" lon="-1.56027">
        <ele>15</ele>
        <time>2023-10-26T07:22:47Z</time>
      </trkpt>
      <trkpt lat="47.33993" lon="-1.55996">
        <ele>12</ele>
        <time>2023-10-26T07:23:24Z</time>
      </trkpt>
      <trkpt lat="47.34002" lon="-1.55966">
        <ele>11</ele>
        <time>2023-10-26T07:23:53Z</time>
      </trkpt>
      <trkpt lat="47.34017" lon="-1.55951">
        <ele>11</ele>
        <time>2023-10-26T07:24:17Z</time>
      </trkpt>
      <trkpt lat="47.34032" lon="-1.55951">
        <ele>11</ele>
        <time>2023-10-26T07:24:38Z</time>
      </trkpt>
      <trkpt lat="47.34037" lon="-1.55955">
        <ele>11</ele>
        <time>2023-10-26T07:24:45Z</time>
      </trkpt>
      <trkpt lat="47.3405" lon="-1.55948">
        <ele>12</ele>
        <time>2023-10-26T07:25:04Z</time>
      </trkpt>
      <trkpt lat="47.34058" lon="-1.55931">
        <ele>12</ele>
        <time>2023-10-26T07:25:22Z</time>
      </trkpt>
      <trkpt lat="47.34064" lon="-1.55911">
        <ele>13</ele>
        <time>2023-10-26T07:25:42Z</time>
      </trkpt>
      <trkpt lat="47.34065" lon="-1.55887">
        <ele>13</ele>
        <time>2023-10-26T07:26:04Z</time>
      </trkpt>
      <trkpt lat="47.3406" lon="-1.55864">
        <ele>13</ele>
        <time>2023-10-26T07:26:26Z</time>
      </trkpt>
      <trkpt lat="47.34056" lon="-1.55853">
        <ele>13</ele>
        <time>2023-10-26T07:26:37Z</time>
      </trkpt>
      <trkpt lat="47.34052" lon="-1.55823">
        <ele>13</ele>
        <time>2023-10-26T07:27:05Z</time>
      </trkpt>
      <trkpt lat="47.3405" lon="-1.55778">
        <ele>14</ele>
        <time>2023-10-26T07:27:45Z</time>
      </trkpt>
      <trkpt lat="47.34054" lon="-1.55743">
        <ele>15</ele>
        <time>2023-10-26T07:28:17Z</time>
      </trkpt>
      <trkpt lat="47.34064" lon="-1.55698">
        <ele>16</ele>
        <time>2023-10-26T07:29:00Z</time>
      </trkpt>
      <trkpt lat="47.34065" lon="-1.55685">
        <ele>16</ele>
        <time>2023-10-26T07:29:12Z</time>
      </trkpt>
      <trkpt lat="47.34069" lon="-1.55674">
        <ele>16</ele>
        <time>2023-10-26T07:29:23Z</time>
      </trkpt>
      <trkpt lat="47.34083" lon="-1.55611">
        <ele>16</ele>
        <time>2023-10-26T07:30:23Z</time>
      </trkpt>
      <trkpt lat="47.34111" lon="-1.55525">
        <ele>15</ele>
        <time>2023-10-26T07:31:50Z</time>
      </trkpt>
      <trkpt lat="47.34131" lon="-1.55487">
        <ele>16</ele>
        <time>2023-10-26T07:32:33Z</time>
      </trkpt>
      <trkpt lat="47.34222" lon="-1.55351">
        <ele>17</ele>
        <time>2023-10-26T07:35:26Z</time>
      </trkpt>
      <trkpt lat="47.34289" lon="-1.5525">
        <ele>14</ele>
        <time>2023-10-26T07:37:34Z</time>
      </trkpt>
      <trkpt lat="47.34293" lon="-1.55249">
        <ele>14</ele>
        <time>2023-10-26T07:37:39Z</time>
      </trkpt>
      <trkpt lat="47.34297" lon="-1.55244">
        <ele>14</ele>
        <time>2023-10-26T07:37:46Z</time>
      </trkpt>
      <trkpt lat="47.34304" lon="-1.55242">
        <ele>14</ele>
        <time>2023-10-26T07:37:56Z</time>
      </trkpt>
      <trkpt lat="47.34311" lon="-1.55246">
        <ele>14</ele>
        <time>2023-10-26T07:38:06Z</time>
      </trkpt>
      <trkpt lat="47.34313" lon="-1.55245">
        <ele>14</ele>
        <time>2023-10-26T07:38:09Z</time>
      </trkpt>
      <trkpt lat="47.3432" lon="-1.55245">
        <ele>15</ele>
        <time>2023-10-26T07:38:18Z</time>
      </trkpt>
      <trkpt lat="47.3435" lon="-1.55256">
        <ele>15</ele>
        <time>2023-10-26T07:38:59Z</time>
      </trkpt>
      <trkpt lat="47.34395" lon="-1.55254">
        <ele>16</ele>
        <time>2023-10-26T07:39:59Z</time>
      </trkpt>
      <trkpt lat="47.34438" lon="-1.55269">
        <ele>17</ele>
        <time>2023-10-26T07:40:58Z</time>
      </trkpt>
      <trkpt lat="47.34459" lon="-1.55275">
        <ele>18</ele>
        <time>2023-10-26T07:41:27Z</time>
      </trkpt>
      <trkpt lat="47.34476" lon="-1.55276">
        <ele>19</ele>
        <time>2023-10-26T07:41:49Z</time>
      </trkpt>
      <trkpt lat="47.34489" lon="-1.55271">
        <ele>20</ele>
        <time>2023-10-26T07:42:07Z</time>
      </trkpt>
      <trkpt lat="47.34508" lon="-1.55269">
        <ele>21</ele>
        <time>2023-10-26T07:42:33Z</time>
      </trkpt>
      <trkpt lat="47.3453" lon="-1.5526">
        <ele>22</ele>
        <time>2023-10-26T07:43:03Z</time>
      </trkpt>
      <trkpt lat="47.34549" lon="-1.55246">
        <ele>23</ele>
        <time>2023-10-26T07:43:32Z</time>
      </trkpt>
      <trkpt lat="47.34574" lon="-1.55258">
        <ele>25</ele>
        <time>2023-10-26T07:44:07Z</time>
      </trkpt>
      <trkpt lat="47.3459" lon="-1.55298">
        <ele>26</ele>
        <time>2023-10-26T07:44:49Z</time>
      </trkpt>
      <trkpt lat="47.34612" lon="-1.55331">
        <ele>27</ele>
        <time>2023-10-26T07:45:31Z</time>
      </trkpt>
      <trkpt lat="47.34649" lon="-1.55361">
        <ele>29</ele>
        <time>2023-10-26T07:46:27Z</time>
      </trkpt>
      <trkpt lat="47.34671" lon="-1.55374">
        <ele>30</ele>
        <time>2023-10-26T07:46:58Z</time>
      </trkpt>
      <trkpt lat="47.34704" lon="-1.55373">
        <ele>30</ele>
        <time>2023-10-26T07:47:43Z</time>
      </trkpt>
      <trkpt lat="47.34792" lon="-1.55357">
        <ele>31</ele>
        <time>2023-10-26T07:49:41Z</time>
      </trkpt>
      <trkpt lat="47.34814" lon="-1.55343">
        <ele>31</ele>
        <time>2023-10-26T07:50:13Z</time>
      </trkpt>
      <trkpt lat="47.34839" lon="-1.55321">
        <ele>31</ele>
        <time>2023-10-26T07:50:52Z</time>
      </trkpt>
      <trkpt lat="47.349" lon="-1.55274">
        <ele>31</ele>
        <time>2023-10-26T07:52:23Z</time>
      </trkpt>
      <trkpt lat="47.34907" lon="-1.5527">
        <ele>31</ele>
        <time>2023-10-26T07:52:34Z</time>
      </trkpt>
      <trkpt lat="47.34925" lon="-1.55265">
        <ele>32</ele>
        <time>2023-10-26T07:52:58Z</time>
      </trkpt>
      <trkpt lat="47.3496" lon="-1.55247">
        <ele>33</ele>
        <time>2023-10-26T07:53:47Z</time>
      </trkpt>
      <trkpt lat="47.34993" lon="-1.55234">
        <ele>34</ele>
        <time>2023-10-26T07:54:33Z</time>
      </trkpt>
      <trkpt lat="47.34999" lon="-1.55233">
        <ele>34</ele>
        <time>2023-10-26T07:54:41Z</time>
      </trkpt>
      <trkpt lat="47.35019" lon="-1.55223">
        <ele>34</ele>
        <time>2023-10-26T07:55:09Z</time>
      </trkpt>
      <trkpt lat="47.35052" lon="-1.55201">
        <ele>35</ele>
        <time>2023-10-26T07:55:58Z</time>
      </trkpt>
      <trkpt lat="47.35092" lon="-1.55182">
        <ele>36</ele>
        <time>2023-10-26T07:56:54Z</time>
      </trkpt>
      <trkpt lat="47.35116" lon="-1.55162">
        <ele>37</ele>
        <time>2023-10-26T07:57:30Z</time>
      </trkpt>
      <trkpt lat="47.35121" lon="-1.55147">
        <ele>37</ele>
        <time>2023-10-26T07:57:46Z</time>
      </trkpt>
      <trkpt lat="47.35129" lon="-1.5511">
        <ele>37</ele>
        <time>2023-10-26T07:58:21Z</time>
      </trkpt>
      <trkpt lat="47.35132" lon="-1.55105">
        <ele>37</ele>
        <time>2023-10-26T07:58:27Z</time>
      </trkpt>
      <trkpt lat="47.35134" lon="-1.55076">
        <ele>37</ele>
        <time>2023-10-26T07:58:53Z</time>
      </trkpt>
      <trkpt lat="47.35143" lon="-1.55038">
        <ele>36</ele>
        <time>2023-10-26T07:59:29Z</time>
      </trkpt>
      <trkpt lat="47.35176" lon="-1.54942">
        <ele>35</ele>
        <time>2023-10-26T08:01:07Z</time>
      </trkpt>
      <trkpt lat="47.35186" lon="-1.5492">
        <ele>35</ele>
        <time>2023-10-26T08:01:31Z</time>
      </trkpt>
      <trkpt lat="47.35239" lon="-1.54828">
        <ele>34</ele>
        <time>2023-10-26T08:03:20Z</time>
      </trkpt>
      <trkpt lat="47.35256" lon="-1.54791">
        <ele>34</ele>
        <time>2023-10-26T08:04:00Z</time>
      </trkpt>
      <trkpt lat="47.35248" lon="-1.54778">
        <ele>34</ele>
        <time>2023-10-26T08:04:16Z</time>
      </trkpt>
      <trkpt lat="47.35236" lon="-1.54753">
        <ele>32</ele>
        <time>2023-10-26T08:04:44Z</time>
      </trkpt>
      <trkpt lat="47.35223" lon="-1.54718">
        <ele>31</ele>
        <time>2023-10-26T08:05:20Z</time>
      </trkpt>
      <trkpt lat="47.35218" lon="-1.54699">
        <ele>30</ele>
        <time>2023-10-26T08:05:38Z</time>
      </trkpt>
      <trkpt lat="47.35217" lon="-1.54692">
        <ele>30</ele>
        <time>2023-10-26T08:05:45Z</time>
      </trkpt>
      <trkpt lat="47.35233" lon="-1.54652">
        <ele>30</ele>
        <time>2023-10-26T08:06:27Z</time>
      </trkpt>
      <trkpt lat="47.35242" lon="-1.54617">
        <ele>30</ele>
        <time>2023-10-26T08:07:01Z</time>
      </trkpt>
      <trkpt lat="47.35261" lon="-1.54527">
        <ele>31</ele>
        <time>2023-10-26T08:08:26Z</time>
      </trkpt>
      <trkpt lat="47.35271" lon="-1.54488">
        <ele>31</ele>
        <time>2023-10-26T08:09:04Z</time>
      </trkpt>
      <trkpt lat="47.35311" lon="-1.54437">
        <ele>32</ele>
        <time>2023-10-26T08:10:14Z</time>
      </trkpt>
      <trkpt lat="47.35329" lon="-1.54411">
        <ele>33</ele>
        <time>2023-10-26T08:10:48Z</time>
      </trkpt>
      <trkpt lat="47.35331" lon="-1.54403">
        <ele>33</ele>
        <time>2023-10-26T08:10:55Z</time>
      </trkpt>
      <trkpt lat="47.35364" lon="-1.54357">
        <ele>33</ele>
        <time>2023-10-26T08:11:56Z</time>
      </trkpt>
      <trkpt lat="47.35393" lon="-1.54297">
        <ele>32</ele>
        <time>2023-10-26T08:13:03Z</time>
      </trkpt>
      <trkpt lat="47.35427" lon="-1.54257">
        <ele>33</ele>
        <time>2023-10-26T08:14:01Z</time>
      </trkpt>
      <trkpt lat="47.35457" lon="-1.54228">
        <ele>32</ele>
        <time>2023-10-26T08:14:49Z</time>
      </trkpt>
      <trkpt lat="47.35498" lon="-1.54183">
        <ele>33</ele>
        <time>2023-10-26T08:15:57Z</time>
      </trkpt>
      <trkpt lat="47.35514" lon="-1.54162">
        <ele>34</ele>
        <time>2023-10-26T08:16:25Z</time>
      </trkpt>
      <trkpt lat="47.35553" lon="-1.54126">
        <ele>34</ele>
        <time>2023-10-26T08:17:27Z</time>
      </trkpt>
      <trkpt lat="47.35565" lon="-1.54108">
        <ele>34</ele>
        <time>2023-10-26T08:17:50Z</time>
      </trkpt>
      <trkpt lat="47.35574" lon="-1.54088">
        <ele>34</ele>
        <time>2023-10-26T08:18:11Z</time>
      </trkpt>
      <trkpt lat="47.35589" lon="-1.54035">
        <ele>33</ele>
        <time>2023-10-26T08:19:03Z</time>
      </trkpt>
      <trkpt lat="47.35589" lon="-1.54023">
        <ele>33</ele>
        <time>2023-10-26T08:19:14Z</time>
      </trkpt>
      <trkpt lat="47.35597" lon="-1.54017">
        <ele>33</ele>
        <time>2023-10-26T08:19:26Z</time>
      </trkpt>
      <trkpt lat="47.35619" lon="-1.54023">
        <ele>32</ele>
        <time>2023-10-26T08:19:56Z</time>
      </trkpt>
      <trkpt lat="47.35694" lon="-1.54057">
        <ele>31</ele>
        <time>2023-10-26T08:21:41Z</time>
      </trkpt>
      <trkpt lat="47.35745" lon="-1.54076">
        <ele>32</ele>
        <time>2023-10-26T08:22:51Z</time>
      </trkpt>
      <trkpt lat="47.35745" lon="-1.54099">
        <ele>32</ele>
        <time>2023-10-26T08:23:12Z</time>
      </trkpt>
      <trkpt lat="47.35741" lon="-1.54118">
        <ele>32</ele>
        <time>2023-10-26T08:23:29Z</time>
      </trkpt>
      <trkpt lat="47.35741" lon="-1.54149">
        <ele>32</ele>
        <time>2023-10-26T08:23:58Z</time>
      </trkpt>
      <trkpt lat="47.35748" lon="-1.54194">
        <ele>31</ele>
        <time>2023-10-26T08:24:39Z</time>
      </trkpt>
      <trkpt lat="47.35751" lon="-1.54199">
        <ele>31</ele>
        <time>2023-10-26T08:24:45Z</time>
      </trkpt>
      <trkpt lat="47.35749" lon="-1.5424">
        <ele>29</ele>
        <time>2023-10-26T08:25:22Z</time>
      </trkpt>
      <trkpt lat="47.35752" lon="-1.54264">
        <ele>29</ele>
        <time>2023-10-26T08:25:45Z</time>
      </trkpt>
      <trkpt lat="47.35752" lon="-1.54295">
        <ele>29</ele>
        <time>2023-10-26T08:26:13Z</time>
      </trkpt>
      <trkpt lat="47.35757" lon="-1.54336">
        <ele>29</ele>
        <time>2023-10-26T08:26:50Z</time>
      </trkpt>
      <trkpt lat="47.35769" lon="-1.54395">
        <ele>30</ele>
        <time>2023-10-26T08:27:46Z</time>
      </trkpt>
      <trkpt lat="47.35779" lon="-1.54421">
        <ele>30</ele>
        <time>2023-10-26T08:28:13Z</time>
      </trkpt>
      <trkpt lat="47.35797" lon="-1.54496">
        <ele>29</ele>
        <time>2023-10-26T08:29:25Z</time>
      </trkpt>
      <trkpt lat="47.35801" lon="-1.54502">
        <ele>29</ele>
        <time>2023-10-26T08:29:32Z</time>
      </trkpt>
      <trkpt lat="47.35821" lon="-1.54559">
        <ele>31</ele>
        <time>2023-10-26T08:30:30Z</time>
      </trkpt>
      <trkpt lat="47.35842" lon="-1.54611">
        <ele>31</ele>
        <time>2023-10-26T08:31:25Z</time>
      </trkpt>
      <trkpt lat="47.35842" lon="-1.54613">
        <ele>31</ele>
        <time>2023-10-26T08:31:27Z</time>
      </trkpt>
      <trkpt lat="47.35872" lon="-1.54692">
        <ele>30</ele>
        <time>2023-10-26T08:32:49Z</time>
      </trkpt>
      <trkpt lat="47.3588" lon="-1.54784">
        <ele>30</ele>
        <time>2023-10-26T08:34:13Z</time>
      </trkpt>
      <trkpt lat="47.35911" lon="-1.54848">
        <ele>30</ele>
        <time>2023-10-26T08:35:24Z</time>
      </trkpt>
      <trkpt lat="47.35923" lon="-1.54879">
        <ele>29</ele>
        <time>2023-10-26T08:35:56Z</time>
      </trkpt>
      <trkpt lat="47.35912" lon="-1.54908">
        <ele>29</ele>
        <time>2023-10-26T08:36:26Z</time>
      </trkpt>
      <trkpt lat="47.35907" lon="-1.54934">
        <ele>29</ele>
        <time>2023-10-26T08:36:51Z</time>
      </trkpt>
      <trkpt lat="47.35893" lon="-1.54957">
        <ele>30</ele>
        <time>2023-10-26T08:37:19Z</time>
      </trkpt>
      <trkpt lat="47.35866" lon="-1.55016">
        <ele>31</ele>
        <time>2023-10-26T08:38:23Z</time>
      </trkpt>
      <trkpt lat="47.35832" lon="-1.55101">
        <ele>31</ele>
        <time>2023-10-26T08:39:52Z</time>
      </trkpt>
      <trkpt lat="47.35793" lon="-1.55169">
        <ele>31</ele>
        <time>2023-10-26T08:41:13Z</time>
      </trkpt>
      <trkpt lat="47.35781" lon="-1.55198">
        <ele>32</ele>
        <time>2023-10-26T08:41:43Z</time>
      </trkpt>
      <trkpt lat="47.35774" lon="-1.55401">
        <ele>34</ele>
        <time>2023-10-26T08:44:47Z</time>
      </trkpt>
      <trkpt lat="47.3577" lon="-1.55428">
        <ele>34</ele>
        <time>2023-10-26T08:45:12Z</time>
      </trkpt>
      <trkpt lat="47.35757" lon="-1.55447">
        <ele>34</ele>
        <time>2023-10-26T08:45:37Z</time>
      </trkpt>
      <trkpt lat="47.3569" lon="-1.55502">
        <ele>38</ele>
        <time>2023-10-26T08:47:19Z</time>
      </trkpt>
      <trkpt lat="47.35662" lon="-1.55532">
        <ele>39</ele>
        <time>2023-10-26T08:48:05Z</time>
      </trkpt>
      <trkpt lat="47.35627" lon="-1.55548">
        <ele>38</ele>
        <time>2023-10-26T08:48:54Z</time>
      </trkpt>
      <trkpt lat="47.35596" lon="-1.55564">
        <ele>38</ele>
        <time>2023-10-26T08:49:38Z</time>
      </trkpt>
      <trkpt lat="47.35569" lon="-1.5557">
        <ele>38</ele>
        <time>2023-10-26T08:50:14Z</time>
      </trkpt>
      <trkpt lat="47.35482" lon="-1.55609">
        <ele>37</ele>
        <time>2023-10-26T08:52:16Z</time>
      </trkpt>
      <trkpt lat="47.35468" lon="-1.55612">
        <ele>36</ele>
        <time>2023-10-26T08:52:34Z</time>
      </trkpt>
      <trkpt lat="47.35421" lon="-1.55636">
        <ele>36</ele>
        <time>2023-10-26T08:53:41Z</time>
      </trkpt>
      <trkpt lat="47.35422" lon="-1.55639">
        <ele>36</ele>
        <time>2023-10-26T08:53:44Z</time>
      </trkpt>
      <trkpt lat="47.3542" lon="-1.55638">
        <ele>36</ele>
        <time>2023-10-26T08:53:47Z</time>
      </trkpt>
      <trkpt lat="47.3542" lon="-1.55637">
        <ele>36</ele>
        <time>2023-10-26T08:53:48Z</time>
      </trkpt>
      <trkpt lat="47.35423" lon="-1.55671">
        <ele>36</ele>
        <time>2023-10-26T08:54:19Z</time>
      </trkpt>
      <trkpt lat="47.35424" lon="-1.55707">
        <ele>35</ele>
        <time>2023-10-26T08:54:51Z</time>
      </trkpt>
      <trkpt lat="47.35433" lon="-1.55813">
        <ele>35</ele>
        <time>2023-10-26T08:56:28Z</time>
      </trkpt>
      <trkpt lat="47.35431" lon="-1.5584">
        <ele>35</ele>
        <time>2023-10-26T08:56:52Z</time>
      </trkpt>
      <trkpt lat="47.35418" lon="-1.55851">
        <ele>34</ele>
        <time>2023-10-26T08:57:12Z</time>
      </trkpt>
      <trkpt lat="47.35404" lon="-1.55857">
        <ele>34</ele>
        <time>2023-10-26T08:57:32Z</time>
      </trkpt>
      <trkpt lat="47.35385" lon="-1.5587">
        <ele>34</ele>
        <time>2023-10-26T08:58:00Z</time>
      </trkpt>
      <trkpt lat="47.35344" lon="-1.55885">
        <ele>34</ele>
        <time>2023-10-26T08:58:56Z</time>
      </trkpt>
      <trkpt lat="47.35304" lon="-1.55904">
        <ele>34</ele>
        <time>2023-10-26T08:59:52Z</time>
      </trkpt>
      <trkpt lat="47.35257" lon="-1.55923">
        <ele>33</ele>
        <time>2023-10-26T09:00:57Z</time>
      </trkpt>
      <trkpt lat="47.35194" lon="-1.55944">
        <ele>35</ele>
        <time>2023-10-26T09:02:23Z</time>
      </trkpt>
      <trkpt lat="47.35166" lon="-1.55958">
        <ele>35</ele>
        <time>2023-10-26T09:03:03Z</time>
      </trkpt>
      <trkpt lat="47.35133" lon="-1.55979">
        <ele>36</ele>
        <time>2023-10-26T09:03:51Z</time>
      </trkpt>
      <trkpt lat="47.35114" lon="-1.56009">
        <ele>37</ele>
        <time>2023-10-26T09:04:28Z</time>
      </trkpt>
      <trkpt lat="47.35093" lon="-1.56054">
        <ele>38</ele>
        <time>2023-10-26T09:05:17Z</time>
      </trkpt>
      <trkpt lat="47.35085" lon="-1.56126">
        <ele>39</ele>
        <time>2023-10-26T09:06:23Z</time>
      </trkpt>
      <trkpt lat="47.35088" lon="-1.56266">
        <ele>40</ele>
        <time>2023-10-26T09:08:30Z</time>
      </trkpt>
      <trkpt lat="47.35094" lon="-1.56309">
        <ele>39</ele>
        <time>2023-10-26T09:09:10Z</time>
      </trkpt>
      <trkpt lat="47.35105" lon="-1.56355">
        <ele>38</ele>
        <time>2023-10-26T09:09:54Z</time>
      </trkpt>
      <trkpt lat="47.35153" lon="-1.56475">
        <ele>35</ele>
        <time>2023-10-26T09:12:00Z</time>
      </trkpt>
      <trkpt lat="47.35172" lon="-1.56497">
        <ele>35</ele>
        <time>2023-10-26T09:12:32Z</time>
      </trkpt>
      <trkpt lat="47.35181" lon="-1.56537">
        <ele>32</ele>
        <time>2023-10-26T09:13:10Z</time>
      </trkpt>
      <trkpt lat="47.35181" lon="-1.56564">
        <ele>30</ele>
        <time>2023-10-26T09:13:34Z</time>
      </trkpt>
      <trkpt lat="47.35174" lon="-1.56598">
        <ele>26</ele>
        <time>2023-10-26T09:14:06Z</time>
      </trkpt>
      <trkpt lat="47.35139" lon="-1.56666">
        <ele>17</ele>
        <time>2023-10-26T09:15:24Z</time>
      </trkpt>
      <trkpt lat="47.35134" lon="-1.56683">
        <ele>17</ele>
        <time>2023-10-26T09:15:40Z</time>
      </trkpt>
      <trkpt lat="47.35133" lon="-1.567">
        <ele>17</ele>
        <time>2023-10-26T09:15:56Z</time>
      </trkpt>
      <trkpt lat="47.35145" lon="-1.56725">
        <ele>16</ele>
        <time>2023-10-26T09:16:24Z</time>
      </trkpt>
      <trkpt lat="47.35153" lon="-1.56753">
        <ele>15</ele>
        <time>2023-10-26T09:16:51Z</time>
      </trkpt>
      <trkpt lat="47.35152" lon="-1.56781">
        <ele>15</ele>
        <time>2023-10-26T09:17:16Z</time>
      </trkpt>
      <trkpt lat="47.35147" lon="-1.56815">
        <ele>16</ele>
        <time>2023-10-26T09:17:48Z</time>
      </trkpt>
      <trkpt lat="47.3516" lon="-1.56868">
        <ele>15</ele>
        <time>2023-10-26T09:18:39Z</time>
      </trkpt>
      <trkpt lat="47.3517" lon="-1.56894">
        <ele>14</ele>
        <time>2023-10-26T09:19:06Z</time>
      </trkpt>
      <trkpt lat="47.35173" lon="-1.56916">
        <ele>15</ele>
        <time>2023-10-26T09:19:26Z</time>
      </trkpt>
      <trkpt lat="47.35173" lon="-1.56943">
        <ele>15</ele>
        <time>2023-10-26T09:19:51Z</time>
      </trkpt>
      <trkpt lat="47.35182" lon="-1.56993">
        <ele>16</ele>
        <time>2023-10-26T09:20:37Z</time>
      </trkpt>
      <trkpt lat="47.35183" lon="-1.5702">
        <ele>17</ele>
        <time>2023-10-26T09:21:02Z</time>
      </trkpt>
      <trkpt lat="47.35185" lon="-1.57036">
        <ele>17</ele>
        <time>2023-10-26T09:21:16Z</time>
      </trkpt>
      <trkpt lat="47.35192" lon="-1.57059">
        <ele>17</ele>
        <time>2023-10-26T09:21:39Z</time>
      </trkpt>
      <trkpt lat="47.35198" lon="-1.57112">
        <ele>16</ele>
        <time>2023-10-26T09:22:28Z</time>
      </trkpt>
      <trkpt lat="47.35193" lon="-1.57132">
        <ele>17</ele>
        <time>2023-10-26T09:22:47Z</time>
      </trkpt>
      <trkpt lat="47.35184" lon="-1.57155">
        <ele>18</ele>
        <time>2023-10-26T09:23:11Z</time>
      </trkpt>
      <trkpt lat="47.35172" lon="-1.57173">
        <ele>19</ele>
        <time>2023-10-26T09:23:34Z</time>
      </trkpt>
      <trkpt lat="47.35162" lon="-1.57191">
        <ele>20</ele>
        <time>2023-10-26T09:23:55Z</time>
      </trkpt>
      <trkpt lat="47.35159" lon="-1.57194">
        <ele>20</ele>
        <time>2023-10-26T09:24:00Z</time>
      </trkpt>
      <trkpt lat="47.35149" lon="-1.57216">
        <ele>21</ele>
        <time>2023-10-26T09:24:24Z</time>
      </trkpt>
      <trkpt lat="47.35144" lon="-1.57248">
        <ele>21</ele>
        <time>2023-10-26T09:24:53Z</time>
      </trkpt>
      <trkpt lat="47.35139" lon="-1.57265">
        <ele>21</ele>
        <time>2023-10-26T09:25:10Z</time>
      </trkpt>
      <trkpt lat="47.35133" lon="-1.5727">
        <ele>21</ele>
        <time>2023-10-26T09:25:19Z</time>
      </trkpt>
      <trkpt lat="47.35144" lon="-1.57288">
        <ele>19</ele>
        <time>2023-10-26T09:25:41Z</time>
      </trkpt>
      <trkpt lat="47.35159" lon="-1.57305">
        <ele>17</ele>
        <time>2023-10-26T09:26:07Z</time>
      </trkpt>
      <trkpt lat="47.35188" lon="-1.57355">
        <ele>15</ele>
        <time>2023-10-26T09:27:06Z</time>
      </trkpt>
      <trkpt lat="47.35198" lon="-1.57369">
        <ele>15</ele>
        <time>2023-10-26T09:27:24Z</time>
      </trkpt>
      <trkpt lat="47.35231" lon="-1.57417">
        <ele>14</ele>
        <time>2023-10-26T09:28:26Z</time>
      </trkpt>
      <trkpt lat="47.3523" lon="-1.57427">
        <ele>14</ele>
        <time>2023-10-26T09:28:35Z</time>
      </trkpt>
      <trkpt lat="47.35223" lon="-1.57433">
        <ele>13</ele>
        <time>2023-10-26T09:28:46Z</time>
      </trkpt>
      <trkpt lat="47.35213" lon="-1.57436">
        <ele>13</ele>
        <time>2023-10-26T09:29:00Z</time>
      </trkpt>
      <trkpt lat="47.35212" lon="-1.57438">
        <ele>13</ele>
        <time>2023-10-26T09:29:02Z</time>
      </trkpt>
      <trkpt lat="47.35183" lon="-1.57442">
        <ele>14</ele>
        <time>2023-10-26T09:29:41Z</time>
      </trkpt>
      <trkpt lat="47.35084" lon="-1.57468">
        <ele>19</ele>
        <time>2023-10-26T09:31:55Z</time>
      </trkpt>
      <trkpt lat="47.3506" lon="-1.57471">
        <ele>22</ele>
        <time>2023-10-26T09:32:27Z</time>
      </trkpt>
      <trkpt lat="47.35028" lon="-1.57481">
        <ele>27</ele>
        <time>2023-10-26T09:33:11Z</time>
      </trkpt>
      <trkpt lat="47.34988" lon="-1.57518">
        <ele>32</ele>
        <time>2023-10-26T09:34:14Z</time>
      </trkpt>
      <trkpt lat="47.34959" lon="-1.57551">
        <ele>34</ele>
        <time>2023-10-26T09:35:03Z</time>
      </trkpt>
      <trkpt lat="47.34942" lon="-1.57568">
        <ele>35</ele>
        <time>2023-10-26T09:35:30Z</time>
      </trkpt>
      <trkpt lat="47.34931" lon="-1.5759">
        <ele>36</ele>
        <time>2023-10-26T09:35:55Z</time>
      </trkpt>
      <trkpt lat="47.34853" lon="-1.57702">
        <ele>38</ele>
        <time>2023-10-26T09:38:20Z</time>
      </trkpt>
      <trkpt lat="47.34791" lon="-1.57788">
        <ele>40</ele>
        <time>2023-10-26T09:40:14Z</time>
      </trkpt>
      <trkpt lat="47.3476" lon="-1.57839">
        <ele>42</ele>
        <time>2023-10-26T09:41:16Z</time>
      </trkpt>
      <trkpt lat="47.3471" lon="-1.57908">
        <ele>42</ele>
        <time>2023-10-26T09:42:47Z</time>
      </trkpt>
      <trkpt lat="47.34662" lon="-1.57981">
        <ele>43</ele>
        <time>2023-10-26T09:44:19Z</time>
      </trkpt>
      <trkpt lat="47.34652" lon="-1.57987">
        <ele>43</ele>
        <time>2023-10-26T09:44:33Z</time>
      </trkpt>
      <trkpt lat="47.34593" lon="-1.58068">
        <ele>43</ele>
        <time>2023-10-26T09:46:21Z</time>
      </trkpt>
      <trkpt lat="47.34523" lon="-1.5818">
        <ele>44</ele>
        <time>2023-10-26T09:48:39Z</time>
      </trkpt>
      <trkpt lat="47.34494" lon="-1.5822">
        <ele>46</ele>
        <time>2023-10-26T09:49:32Z</time>
      </trkpt>
      <trkpt lat="47.34468" lon="-1.58267">
        <ele>46</ele>
        <time>2023-10-26T09:50:27Z</time>
      </trkpt>
      <trkpt lat="47.34435" lon="-1.58307">
        <ele>47</ele>
        <time>2023-10-26T09:51:24Z</time>
      </trkpt>
      <trkpt lat="47.34422" lon="-1.58332">
        <ele>48</ele>
        <time>2023-10-26T09:51:52Z</time>
      </trkpt>
      <trkpt lat="47.3437" lon="-1.58408">
        <ele>45</ele>
        <time>2023-10-26T09:53:30Z</time>
      </trkpt>
      <trkpt lat="47.3435" lon="-1.58433">
        <ele>45</ele>
        <time>2023-10-26T09:54:05Z</time>
      </trkpt>
      <trkpt lat="47.34333" lon="-1.58463">
        <ele>45</ele>
        <time>2023-10-26T09:54:40Z</time>
      </trkpt>
      <trkpt lat="47.3433" lon="-1.58474">
        <ele>45</ele>
        <time>2023-10-26T09:54:51Z</time>
      </trkpt>
      <trkpt lat="47.34307" lon="-1.585">
        <ele>45</ele>
        <time>2023-10-26T09:55:29Z</time>
      </trkpt>
      <trkpt lat="47.34293" lon="-1.5852">
        <ele>45</ele>
        <time>2023-10-26T09:55:55Z</time>
      </trkpt>
      <trkpt lat="47.34269" lon="-1.58563">
        <ele>46</ele>
        <time>2023-10-26T09:56:46Z</time>
      </trkpt>
      <trkpt lat="47.34243" lon="-1.58592">
        <ele>47</ele>
        <time>2023-10-26T09:57:29Z</time>
      </trkpt>
      <trkpt lat="47.34223" lon="-1.58624">
        <ele>46</ele>
        <time>2023-10-26T09:58:09Z</time>
      </trkpt>
      <trkpt lat="47.34196" lon="-1.58666">
        <ele>46</ele>
        <time>2023-10-26T09:59:01Z</time>
      </trkpt>
      <trkpt lat="47.34186" lon="-1.58674">
        <ele>46</ele>
        <time>2023-10-26T09:59:16Z</time>
      </trkpt>
      <trkpt lat="47.3413" lon="-1.58762">
        <ele>45</ele>
        <time>2023-10-26T10:01:05Z</time>
      </trkpt>
      <trkpt lat="47.34104" lon="-1.588">
        <ele>45</ele>
        <time>2023-10-26T10:01:54Z</time>
      </trkpt>
      <trkpt lat="47.34056" lon="-1.58873">
        <ele>45</ele>
        <time>2023-10-26T10:03:26Z</time>
      </trkpt>
      <trkpt lat="47.34052" lon="-1.58876">
        <ele>45</ele>
        <time>2023-10-26T10:03:32Z</time>
      </trkpt>
      <trkpt lat="47.34006" lon="-1.58945">
        <ele>46</ele>
        <time>2023-10-26T10:05:00Z</time>
      </trkpt>
      <trkpt lat="47.33993" lon="-1.58969">
        <ele>47</ele>
        <time>2023-10-26T10:05:27Z</time>
      </trkpt>
      <trkpt lat="47.33973" lon="-1.58994">
        <ele>47</ele>
        <time>2023-10-26T10:06:02Z</time>
      </trkpt>
      <trkpt lat="47.33884" lon="-1.59127">
        <ele>49</ele>
        <time>2023-10-26T10:08:51Z</time>
      </trkpt>
      <trkpt lat="47.33859" lon="-1.59159">
        <ele>49</ele>
        <time>2023-10-26T10:09:36Z</time>
      </trkpt>
      <trkpt lat="47.3383" lon="-1.5921">
        <ele>50</ele>
        <time>2023-10-26T10:10:36Z</time>
      </trkpt>
      <trkpt lat="47.33816" lon="-1.59228">
        <ele>50</ele>
        <time>2023-10-26T10:11:01Z</time>
      </trkpt>
      <trkpt lat="47.33801" lon="-1.59257">
        <ele>51</ele>
        <time>2023-10-26T10:11:34Z</time>
      </trkpt>
      <trkpt lat="47.33733" lon="-1.59354">
        <ele>52</ele>
        <time>2023-10-26T10:13:40Z</time>
      </trkpt>
      <trkpt lat="47.337" lon="-1.59419">
        <ele>53</ele>
        <time>2023-10-26T10:14:53Z</time>
      </trkpt>
      <trkpt lat="47.3369" lon="-1.59428">
        <ele>54</ele>
        <time>2023-10-26T10:15:09Z</time>
      </trkpt>
      <trkpt lat="47.33671" lon="-1.59452">
        <ele>55</ele>
        <time>2023-10-26T10:15:42Z</time>
      </trkpt>
      <trkpt lat="47.3366" lon="-1.59457">
        <ele>55</ele>
        <time>2023-10-26T10:15:58Z</time>
      </trkpt>
      <trkpt lat="47.33642" lon="-1.59458">
        <ele>55</ele>
        <time>2023-10-26T10:16:22Z</time>
      </trkpt>
      <trkpt lat="47.33638" lon="-1.59457">
        <ele>55</ele>
        <time>2023-10-26T10:16:27Z</time>
      </trkpt>
      <trkpt lat="47.33613" lon="-1.59409">
        <ele>55</ele>
        <time>2023-10-26T10:17:22Z</time>
      </trkpt>
      <trkpt lat="47.33605" lon="-1.59388">
        <ele>55</ele>
        <time>2023-10-26T10:17:44Z</time>
      </trkpt>
      <trkpt lat="47.33555" lon="-1.59283">
        <ele>54</ele>
        <time>2023-10-26T10:19:40Z</time>
      </trkpt>
      <trkpt lat="47.3353" lon="-1.59237">
        <ele>53</ele>
        <time>2023-10-26T10:20:33Z</time>
      </trkpt>
      <trkpt lat="47.33466" lon="-1.59108">
        <ele>50</ele>
        <time>2023-10-26T10:22:58Z</time>
      </trkpt>
      <trkpt lat="47.33432" lon="-1.59032">
        <ele>48</ele>
        <time>2023-10-26T10:24:20Z</time>
      </trkpt>
      <trkpt lat="47.33414" lon="-1.59006">
        <ele>47</ele>
        <time>2023-10-26T10:24:54Z</time>
      </trkpt>
      <trkpt lat="47.33364" lon="-1.58895">
        <ele>42</ele>
        <time>2023-10-26T10:26:54Z</time>
      </trkpt>
      <trkpt lat="47.33333" lon="-1.58838">
        <ele>41</ele>
        <time>2023-10-26T10:28:00Z</time>
      </trkpt>
      <trkpt lat="47.33311" lon="-1.58789">
        <ele>40</ele>
        <time>2023-10-26T10:28:53Z</time>
      </trkpt>
      <trkpt lat="47.33293" lon="-1.5876">
        <ele>41</ele>
        <time>2023-10-26T10:29:29Z</time>
      </trkpt>
      <trkpt lat="47.33285" lon="-1.58739">
        <ele>41</ele>
        <time>2023-10-26T10:29:51Z</time>
      </trkpt>
      <trkpt lat="47.33267" lon="-1.58704">
        <ele>41</ele>
        <time>2023-10-26T10:30:30Z</time>
      </trkpt>
      <trkpt lat="47.33252" lon="-1.58661">
        <ele>41</ele>
        <time>2023-10-26T10:31:14Z</time>
      </trkpt>
      <trkpt lat="47.33234" lon="-1.58616">
        <ele>41</ele>
        <time>2023-10-26T10:32:01Z</time>
      </trkpt>
      <trkpt lat="47.33192" lon="-1.58533">
        <ele>41</ele>
        <time>2023-10-26T10:33:35Z</time>
      </trkpt>
      <trkpt lat="47.33179" lon="-1.58526">
        <ele>42</ele>
        <time>2023-10-26T10:33:54Z</time>
      </trkpt>
      <trkpt lat="47.33178" lon="-1.58518">
        <ele>42</ele>
        <time>2023-10-26T10:34:01Z</time>
      </trkpt>
      <trkpt lat="47.33179" lon="-1.58525">
        <ele>42</ele>
        <time>2023-10-26T10:34:07Z</time>
      </trkpt>
      <trkpt lat="47.33184" lon="-1.58529">
        <ele>41</ele>
        <time>2023-10-26T10:34:15Z</time>
      </trkpt>
      <trkpt lat="47.3321" lon="-1.5848">
        <ele>40</ele>
        <time>2023-10-26T10:35:11Z</time>
      </trkpt>
      <trkpt lat="47.33242" lon="-1.58401">
        <ele>37</ele>
        <time>2023-10-26T10:36:35Z</time>
      </trkpt>
      <trkpt lat="47.33265" lon="-1.58348">
        <ele>36</ele>
        <time>2023-10-26T10:37:31Z</time>
      </trkpt>
      <trkpt lat="47.33301" lon="-1.58276">
        <ele>34</ele>
        <time>2023-10-26T10:38:52Z</time>
      </trkpt>
      <trkpt lat="47.3331" lon="-1.58253">
        <ele>34</ele>
        <time>2023-10-26T10:39:16Z</time>
      </trkpt>
      <trkpt lat="47.33329" lon="-1.58218">
        <ele>32</ele>
        <time>2023-10-26T10:39:57Z</time>
      </trkpt>
      <trkpt lat="47.33341" lon="-1.58182">
        <ele>31</ele>
        <time>2023-10-26T10:40:33Z</time>
      </trkpt>
      <trkpt lat="47.33385" lon="-1.58088">
        <ele>29</ele>
        <time>2023-10-26T10:42:17Z</time>
      </trkpt>
      <trkpt lat="47.33415" lon="-1.58014">
        <ele>28</ele>
        <time>2023-10-26T10:43:35Z</time>
      </trkpt>
      <trkpt lat="47.3342" lon="-1.58007">
        <ele>28</ele>
        <time>2023-10-26T10:43:44Z</time>
      </trkpt>
      <trkpt lat="47.33428" lon="-1.57989">
        <ele>28</ele>
        <time>2023-10-26T10:44:03Z</time>
      </trkpt>
      <trkpt lat="47.33445" lon="-1.5796">
        <ele>29</ele>
        <time>2023-10-26T10:44:38Z</time>
      </trkpt>
      <trkpt lat="47.33463" lon="-1.57952">
        <ele>29</ele>
        <time>2023-10-26T10:45:03Z</time>
      </trkpt>
      <trkpt lat="47.33483" lon="-1.57954">
        <ele>30</ele>
        <time>2023-10-26T10:45:30Z</time>
      </trkpt>
      <trkpt lat="47.335" lon="-1.57943">
        <ele>30</ele>
        <time>2023-10-26T10:45:54Z</time>
      </trkpt>
      <trkpt lat="47.33519" lon="-1.57938">
        <ele>31</ele>
        <time>2023-10-26T10:46:20Z</time>
      </trkpt>
      <trkpt lat="47.3356" lon="-1.57907">
        <ele>33</ele>
        <time>2023-10-26T10:47:22Z</time>
      </trkpt>
      <trkpt lat="47.33572" lon="-1.57893">
        <ele>35</ele>
        <time>2023-10-26T10:47:42Z</time>
      </trkpt>
      <trkpt lat="47.33599" lon="-1.57855">
        <ele>37</ele>
        <time>2023-10-26T10:48:32Z</time>
      </trkpt>
      <trkpt lat="47.33624" lon="-1.57807">
        <ele>40</ele>
        <time>2023-10-26T10:49:27Z</time>
      </trkpt>
      <trkpt lat="47.33642" lon="-1.57776">
        <ele>41</ele>
        <time>2023-10-26T10:50:04Z</time>
      </trkpt>
      <trkpt lat="47.33647" lon="-1.57773">
        <ele>42</ele>
        <time>2023-10-26T10:50:11Z</time>
      </trkpt>
      <trkpt lat="47.33655" lon="-1.57757">
        <ele>42</ele>
        <time>2023-10-26T10:50:29Z</time>
      </trkpt>
      <trkpt lat="47.33668" lon="-1.5774">
        <ele>43</ele>
        <time>2023-10-26T10:50:52Z</time>
      </trkpt>
      <trkpt lat="47.3367" lon="-1.57734">
        <ele>43</ele>
        <time>2023-10-26T10:50:58Z</time>
      </trkpt>
      <trkpt lat="47.33677" lon="-1.57726">
        <ele>43</ele>
        <time>2023-10-26T10:51:10Z</time>
      </trkpt>
      <trkpt lat="47.33708" lon="-1.57699">
        <ele>42</ele>
        <time>2023-10-26T10:51:58Z</time>
      </trkpt>
      <trkpt lat="47.33731" lon="-1.57672">
        <ele>42</ele>
        <time>2023-10-26T10:52:37Z</time>
      </trkpt>
      <trkpt lat="47.33744" lon="-1.57646">
        <ele>42</ele>
        <time>2023-10-26T10:53:06Z</time>
      </trkpt>
      <trkpt lat="47.33745" lon="-1.57639">
        <ele>42</ele>
        <time>2023-10-26T10:53:13Z</time>
      </trkpt>
      <trkpt lat="47.33752" lon="-1.57622">
        <ele>42</ele>
        <time>2023-10-26T10:53:31Z</time>
      </trkpt>
      <trkpt lat="47.3375" lon="-1.57597">
        <ele>42</ele>
        <time>2023-10-26T10:53:54Z</time>
      </trkpt>
      <trkpt lat="47.33756" lon="-1.57564">
        <ele>42</ele>
        <time>2023-10-26T10:54:24Z</time>
      </trkpt>
      <trkpt lat="47.33791" lon="-1.57506">
        <ele>42</ele>
        <time>2023-10-26T10:55:35Z</time>
      </trkpt>
      <trkpt lat="47.33818" lon="-1.57451">
        <ele>41</ele>
        <time>2023-10-26T10:56:36Z</time>
      </trkpt>
      <trkpt lat="47.33828" lon="-1.57441">
        <ele>41</ele>
        <time>2023-10-26T10:56:52Z</time>
      </trkpt>
      <trkpt lat="47.3386" lon="-1.5738">
        <ele>39</ele>
        <time>2023-10-26T10:58:02Z</time>
      </trkpt>
      <trkpt lat="47.33913" lon="-1.57242">
        <ele>35</ele>
        <time>2023-10-26T11:00:25Z</time>
      </trkpt>
      <trkpt lat="47.33915" lon="-1.57222">
        <ele>35</ele>
        <time>2023-10-26T11:00:44Z</time>
      </trkpt>
      <trkpt lat="47.3389" lon="-1.57207">
        <ele>36</ele>
        <time>2023-10-26T11:01:20Z</time>
      </trkpt>
      <trkpt lat="47.33782" lon="-1.57173">
        <ele>38</ele>
        <time>2023-10-26T11:03:47Z</time>
      </trkpt>
      <trkpt lat="47.33771" lon="-1.57172">
        <ele>38</ele>
        <time>2023-10-26T11:04:02Z</time>
      </trkpt>
    </trkseg>
  </trk>
  <trk>
    <name><![CDATA[ChapelleE_LandesVaillantieres_8km-8809195]]></name>
    <extensions>
      <line xmlns="http://www.topografix.com/GPX/gpx_style/0/2">
        <color>008000</color>
        <width>4</width>
      </line>
    </extensions>
    <trkseg>
      <trkpt lat="47.33908" lon="-1.57377">
        <ele>37</ele>
        <time>2023-10-26T07:14:14Z</time>
      </trkpt>
      <trkpt lat="47.33876" lon="-1.57357">
        <ele>38</ele>
        <time>2023-10-26T07:15:00Z</time>
      </trkpt>
      <trkpt lat="47.33835" lon="-1.57426">
        <ele>41</ele>
        <time>2023-10-26T07:16:23Z</time>
      </trkpt>
      <trkpt lat="47.33803" lon="-1.57479">
        <ele>41</ele>
        <time>2023-10-26T07:17:28Z</time>
      </trkpt>
      <trkpt lat="47.3377" lon="-1.57542">
        <ele>42</ele>
        <time>2023-10-26T07:18:40Z</time>
      </trkpt>
      <trkpt lat="47.33745" lon="-1.57571">
        <ele>42</ele>
        <time>2023-10-26T07:19:22Z</time>
      </trkpt>
      <trkpt lat="47.33754" lon="-1.57618">
        <ele>42</ele>
        <time>2023-10-26T07:20:06Z</time>
      </trkpt>
      <trkpt lat="47.33726" lon="-1.57677">
        <ele>42</ele>
        <time>2023-10-26T07:21:11Z</time>
      </trkpt>
      <trkpt lat="47.33674" lon="-1.57724">
        <ele>43</ele>
        <time>2023-10-26T07:22:33Z</time>
      </trkpt>
      <trkpt lat="47.33638" lon="-1.57791">
        <ele>41</ele>
        <time>2023-10-26T07:23:50Z</time>
      </trkpt>
      <trkpt lat="47.33609" lon="-1.57842">
        <ele>38</ele>
        <time>2023-10-26T07:24:50Z</time>
      </trkpt>
      <trkpt lat="47.33586" lon="-1.57879">
        <ele>36</ele>
        <time>2023-10-26T07:25:36Z</time>
      </trkpt>
      <trkpt lat="47.33553" lon="-1.57912">
        <ele>33</ele>
        <time>2023-10-26T07:26:29Z</time>
      </trkpt>
      <trkpt lat="47.33533" lon="-1.57926">
        <ele>31</ele>
        <time>2023-10-26T07:26:58Z</time>
      </trkpt>
      <trkpt lat="47.33491" lon="-1.57947">
        <ele>30</ele>
        <time>2023-10-26T07:27:58Z</time>
      </trkpt>
      <trkpt lat="47.33441" lon="-1.57961">
        <ele>29</ele>
        <time>2023-10-26T07:29:05Z</time>
      </trkpt>
      <trkpt lat="47.33393" lon="-1.58073">
        <ele>29</ele>
        <time>2023-10-26T07:31:05Z</time>
      </trkpt>
      <trkpt lat="47.33357" lon="-1.58165">
        <ele>30</ele>
        <time>2023-10-26T07:32:41Z</time>
      </trkpt>
      <trkpt lat="47.33291" lon="-1.58302">
        <ele>34</ele>
        <time>2023-10-26T07:35:13Z</time>
      </trkpt>
      <trkpt lat="47.33251" lon="-1.58394">
        <ele>37</ele>
        <time>2023-10-26T07:36:52Z</time>
      </trkpt>
      <trkpt lat="47.33193" lon="-1.58516">
        <ele>41</ele>
        <time>2023-10-26T07:39:07Z</time>
      </trkpt>
      <trkpt lat="47.33262" lon="-1.58677">
        <ele>41</ele>
        <time>2023-10-26T07:41:59Z</time>
      </trkpt>
      <trkpt lat="47.33328" lon="-1.58811">
        <ele>40</ele>
        <time>2023-10-26T07:44:29Z</time>
      </trkpt>
      <trkpt lat="47.33371" lon="-1.58902">
        <ele>43</ele>
        <time>2023-10-26T07:46:09Z</time>
      </trkpt>
      <trkpt lat="47.3344" lon="-1.59056">
        <ele>48</ele>
        <time>2023-10-26T07:48:56Z</time>
      </trkpt>
      <trkpt lat="47.33497" lon="-1.59176">
        <ele>52</ele>
        <time>2023-10-26T07:51:09Z</time>
      </trkpt>
      <trkpt lat="47.33555" lon="-1.59292">
        <ele>54</ele>
        <time>2023-10-26T07:53:19Z</time>
      </trkpt>
      <trkpt lat="47.33586" lon="-1.59347">
        <ele>56</ele>
        <time>2023-10-26T07:54:24Z</time>
      </trkpt>
      <trkpt lat="47.33629" lon="-1.59453">
        <ele>55</ele>
        <time>2023-10-26T07:56:16Z</time>
      </trkpt>
      <trkpt lat="47.33645" lon="-1.5947">
        <ele>55</ele>
        <time>2023-10-26T07:56:42Z</time>
      </trkpt>
      <trkpt lat="47.3368" lon="-1.59442">
        <ele>54</ele>
        <time>2023-10-26T07:57:35Z</time>
      </trkpt>
      <trkpt lat="47.33702" lon="-1.59406">
        <ele>53</ele>
        <time>2023-10-26T07:58:19Z</time>
      </trkpt>
      <trkpt lat="47.33768" lon="-1.59299">
        <ele>52</ele>
        <time>2023-10-26T08:00:30Z</time>
      </trkpt>
      <trkpt lat="47.33845" lon="-1.59184">
        <ele>50</ele>
        <time>2023-10-26T08:02:56Z</time>
      </trkpt>
      <trkpt lat="47.33928" lon="-1.59079">
        <ele>48</ele>
        <time>2023-10-26T08:05:22Z</time>
      </trkpt>
      <trkpt lat="47.34019" lon="-1.58939">
        <ele>46</ele>
        <time>2023-10-26T08:08:17Z</time>
      </trkpt>
      <trkpt lat="47.34111" lon="-1.58803">
        <ele>45</ele>
        <time>2023-10-26T08:11:11Z</time>
      </trkpt>
      <trkpt lat="47.34179" lon="-1.58694">
        <ele>46</ele>
        <time>2023-10-26T08:13:25Z</time>
      </trkpt>
      <trkpt lat="47.34245" lon="-1.58592">
        <ele>47</ele>
        <time>2023-10-26T08:15:33Z</time>
      </trkpt>
      <trkpt lat="47.34315" lon="-1.58489">
        <ele>45</ele>
        <time>2023-10-26T08:17:45Z</time>
      </trkpt>
      <trkpt lat="47.34364" lon="-1.58416">
        <ele>45</ele>
        <time>2023-10-26T08:19:17Z</time>
      </trkpt>
      <trkpt lat="47.34439" lon="-1.58303">
        <ele>47</ele>
        <time>2023-10-26T08:21:41Z</time>
      </trkpt>
      <trkpt lat="47.34592" lon="-1.58078">
        <ele>43</ele>
        <time>2023-10-26T08:26:29Z</time>
      </trkpt>
      <trkpt lat="47.34642" lon="-1.58001">
        <ele>43</ele>
        <time>2023-10-26T08:28:05Z</time>
      </trkpt>
      <trkpt lat="47.34676" lon="-1.57951">
        <ele>42</ele>
        <time>2023-10-26T08:29:09Z</time>
      </trkpt>
      <trkpt lat="47.34758" lon="-1.57838">
        <ele>42</ele>
        <time>2023-10-26T08:31:39Z</time>
      </trkpt>
      <trkpt lat="47.3483" lon="-1.57732">
        <ele>39</ele>
        <time>2023-10-26T08:33:55Z</time>
      </trkpt>
      <trkpt lat="47.34894" lon="-1.57631">
        <ele>37</ele>
        <time>2023-10-26T08:36:00Z</time>
      </trkpt>
      <trkpt lat="47.3496" lon="-1.57546">
        <ele>34</ele>
        <time>2023-10-26T08:37:57Z</time>
      </trkpt>
      <trkpt lat="47.34998" lon="-1.57503">
        <ele>31</ele>
        <time>2023-10-26T08:39:00Z</time>
      </trkpt>
      <trkpt lat="47.35044" lon="-1.57478">
        <ele>24</ele>
        <time>2023-10-26T08:40:06Z</time>
      </trkpt>
      <trkpt lat="47.3511" lon="-1.57459">
        <ele>17</ele>
        <time>2023-10-26T08:41:36Z</time>
      </trkpt>
      <trkpt lat="47.35202" lon="-1.57437">
        <ele>13</ele>
        <time>2023-10-26T08:43:40Z</time>
      </trkpt>
      <trkpt lat="47.35224" lon="-1.57436">
        <ele>13</ele>
        <time>2023-10-26T08:44:09Z</time>
      </trkpt>
      <trkpt lat="47.35232" lon="-1.57417">
        <ele>14</ele>
        <time>2023-10-26T08:44:30Z</time>
      </trkpt>
      <trkpt lat="47.35178" lon="-1.57347">
        <ele>15</ele>
        <time>2023-10-26T08:46:05Z</time>
      </trkpt>
      <trkpt lat="47.3512" lon="-1.57258">
        <ele>23</ele>
        <time>2023-10-26T08:47:57Z</time>
      </trkpt>
      <trkpt lat="47.35066" lon="-1.57188">
        <ele>29</ele>
        <time>2023-10-26T08:49:33Z</time>
      </trkpt>
      <trkpt lat="47.35041" lon="-1.57162">
        <ele>30</ele>
        <time>2023-10-26T08:50:14Z</time>
      </trkpt>
      <trkpt lat="47.35014" lon="-1.57169">
        <ele>31</ele>
        <time>2023-10-26T08:50:50Z</time>
      </trkpt>
      <trkpt lat="47.34997" lon="-1.57183">
        <ele>32</ele>
        <time>2023-10-26T08:51:16Z</time>
      </trkpt>
      <trkpt lat="47.3497" lon="-1.5724">
        <ele>32</ele>
        <time>2023-10-26T08:52:19Z</time>
      </trkpt>
      <trkpt lat="47.34938" lon="-1.57297">
        <ele>34</ele>
        <time>2023-10-26T08:53:26Z</time>
      </trkpt>
      <trkpt lat="47.34907" lon="-1.57369">
        <ele>37</ele>
        <time>2023-10-26T08:54:43Z</time>
      </trkpt>
      <trkpt lat="47.34867" lon="-1.5746">
        <ele>38</ele>
        <time>2023-10-26T08:56:21Z</time>
      </trkpt>
      <trkpt lat="47.3483" lon="-1.57532">
        <ele>38</ele>
        <time>2023-10-26T08:57:43Z</time>
      </trkpt>
      <trkpt lat="47.3482" lon="-1.5754">
        <ele>38</ele>
        <time>2023-10-26T08:57:58Z</time>
      </trkpt>
      <trkpt lat="47.34764" lon="-1.57527">
        <ele>38</ele>
        <time>2023-10-26T08:59:14Z</time>
      </trkpt>
      <trkpt lat="47.34751" lon="-1.57511">
        <ele>38</ele>
        <time>2023-10-26T08:59:37Z</time>
      </trkpt>
      <trkpt lat="47.34761" lon="-1.57464">
        <ele>38</ele>
        <time>2023-10-26T09:00:21Z</time>
      </trkpt>
      <trkpt lat="47.34789" lon="-1.57402">
        <ele>39</ele>
        <time>2023-10-26T09:01:28Z</time>
      </trkpt>
      <trkpt lat="47.34813" lon="-1.57343">
        <ele>41</ele>
        <time>2023-10-26T09:02:31Z</time>
      </trkpt>
      <trkpt lat="47.3483" lon="-1.57282">
        <ele>41</ele>
        <time>2023-10-26T09:03:30Z</time>
      </trkpt>
      <trkpt lat="47.34833" lon="-1.5723">
        <ele>40</ele>
        <time>2023-10-26T09:04:18Z</time>
      </trkpt>
      <trkpt lat="47.34797" lon="-1.57203">
        <ele>38</ele>
        <time>2023-10-26T09:05:11Z</time>
      </trkpt>
      <trkpt lat="47.34761" lon="-1.57087">
        <ele>38</ele>
        <time>2023-10-26T09:07:07Z</time>
      </trkpt>
      <trkpt lat="47.34737" lon="-1.5696">
        <ele>36</ele>
        <time>2023-10-26T09:09:06Z</time>
      </trkpt>
      <trkpt lat="47.3472" lon="-1.56838">
        <ele>32</ele>
        <time>2023-10-26T09:10:59Z</time>
      </trkpt>
      <trkpt lat="47.34664" lon="-1.5674">
        <ele>25</ele>
        <time>2023-10-26T09:12:54Z</time>
      </trkpt>
      <trkpt lat="47.34643" lon="-1.56703">
        <ele>23</ele>
        <time>2023-10-26T09:13:38Z</time>
      </trkpt>
      <trkpt lat="47.34643" lon="-1.5666">
        <ele>21</ele>
        <time>2023-10-26T09:14:17Z</time>
      </trkpt>
      <trkpt lat="47.34652" lon="-1.56586">
        <ele>18</ele>
        <time>2023-10-26T09:15:25Z</time>
      </trkpt>
      <trkpt lat="47.34636" lon="-1.56497">
        <ele>14</ele>
        <time>2023-10-26T09:16:48Z</time>
      </trkpt>
      <trkpt lat="47.3456" lon="-1.56469">
        <ele>11</ele>
        <time>2023-10-26T09:18:33Z</time>
      </trkpt>
      <trkpt lat="47.34498" lon="-1.56447">
        <ele>9</ele>
        <time>2023-10-26T09:19:58Z</time>
      </trkpt>
      <trkpt lat="47.34462" lon="-1.56493">
        <ele>9</ele>
        <time>2023-10-26T09:21:01Z</time>
      </trkpt>
      <trkpt lat="47.34429" lon="-1.56576">
        <ele>11</ele>
        <time>2023-10-26T09:22:28Z</time>
      </trkpt>
      <trkpt lat="47.34419" lon="-1.56621">
        <ele>12</ele>
        <time>2023-10-26T09:23:11Z</time>
      </trkpt>
      <trkpt lat="47.34419" lon="-1.56665">
        <ele>13</ele>
        <time>2023-10-26T09:23:51Z</time>
      </trkpt>
      <trkpt lat="47.34414" lon="-1.56689">
        <ele>14</ele>
        <time>2023-10-26T09:24:14Z</time>
      </trkpt>
      <trkpt lat="47.344" lon="-1.56705">
        <ele>15</ele>
        <time>2023-10-26T09:24:37Z</time>
      </trkpt>
      <trkpt lat="47.34374" lon="-1.56717">
        <ele>16</ele>
        <time>2023-10-26T09:25:14Z</time>
      </trkpt>
      <trkpt lat="47.34341" lon="-1.56712">
        <ele>16</ele>
        <time>2023-10-26T09:25:58Z</time>
      </trkpt>
      <trkpt lat="47.343" lon="-1.56718">
        <ele>16</ele>
        <time>2023-10-26T09:26:53Z</time>
      </trkpt>
      <trkpt lat="47.34288" lon="-1.56708">
        <ele>16</ele>
        <time>2023-10-26T09:27:11Z</time>
      </trkpt>
      <trkpt lat="47.34264" lon="-1.5668">
        <ele>17</ele>
        <time>2023-10-26T09:27:52Z</time>
      </trkpt>
      <trkpt lat="47.34241" lon="-1.56632">
        <ele>17</ele>
        <time>2023-10-26T09:28:45Z</time>
      </trkpt>
      <trkpt lat="47.3423" lon="-1.5661">
        <ele>17</ele>
        <time>2023-10-26T09:29:10Z</time>
      </trkpt>
      <trkpt lat="47.34203" lon="-1.5663">
        <ele>18</ele>
        <time>2023-10-26T09:29:50Z</time>
      </trkpt>
      <trkpt lat="47.34142" lon="-1.56658">
        <ele>19</ele>
        <time>2023-10-26T09:31:16Z</time>
      </trkpt>
      <trkpt lat="47.34085" lon="-1.56687">
        <ele>21</ele>
        <time>2023-10-26T09:32:36Z</time>
      </trkpt>
      <trkpt lat="47.34001" lon="-1.56735">
        <ele>27</ele>
        <time>2023-10-26T09:34:36Z</time>
      </trkpt>
      <trkpt lat="47.33933" lon="-1.56765">
        <ele>29</ele>
        <time>2023-10-26T09:36:11Z</time>
      </trkpt>
      <trkpt lat="47.3387" lon="-1.56776">
        <ele>31</ele>
        <time>2023-10-26T09:37:36Z</time>
      </trkpt>
      <trkpt lat="47.33809" lon="-1.56776">
        <ele>31</ele>
        <time>2023-10-26T09:38:57Z</time>
      </trkpt>
      <trkpt lat="47.33778" lon="-1.56776">
        <ele>31</ele>
        <time>2023-10-26T09:39:38Z</time>
      </trkpt>
      <trkpt lat="47.33769" lon="-1.56902">
        <ele>31</ele>
        <time>2023-10-26T09:41:33Z</time>
      </trkpt>
      <trkpt lat="47.33759" lon="-1.57018">
        <ele>35</ele>
        <time>2023-10-26T09:43:19Z</time>
      </trkpt>
      <trkpt lat="47.33733" lon="-1.57209">
        <ele>38</ele>
        <time>2023-10-26T09:46:15Z</time>
      </trkpt>
      <trkpt lat="47.33727" lon="-1.57272">
        <ele>39</ele>
        <time>2023-10-26T09:47:12Z</time>
      </trkpt>
      <trkpt lat="47.33707" lon="-1.57358">
        <ele>40</ele>
        <time>2023-10-26T09:48:35Z</time>
      </trkpt>
      <trkpt lat="47.33706" lon="-1.57404">
        <ele>41</ele>
        <time>2023-10-26T09:49:16Z</time>
      </trkpt>
      <trkpt lat="47.33717" lon="-1.57435">
        <ele>41</ele>
        <time>2023-10-26T09:49:48Z</time>
      </trkpt>
      <trkpt lat="47.33766" lon="-1.57421">
        <ele>41</ele>
        <time>2023-10-26T09:50:55Z</time>
      </trkpt>
      <trkpt lat="47.33823" lon="-1.57419">
        <ele>41</ele>
        <time>2023-10-26T09:52:11Z</time>
      </trkpt>
      <trkpt lat="47.33867" lon="-1.5735">
        <ele>38</ele>
        <time>2023-10-26T09:53:36Z</time>
      </trkpt>
      <trkpt lat="47.33915" lon="-1.5738">
        <ele>37</ele>
        <time>2023-10-26T09:54:46Z</time>
      </trkpt>
    </trkseg>
  </trk>
  <trk>
    <name><![CDATA[ChapelleE_VaillantiereLaBrosse_12km-7277382]]></name>
    <extensions>
      <line xmlns="http://www.topografix.com/GPX/gpx_style/0/2">
        <color>00FFFF</color>
        <width>4</width>
      </line>
    </extensions>
    <trkseg>
      <trkpt lat="47.33696" lon="-1.57395">
        <ele>41</ele>
        <time>2023-11-03T12:43:28Z</time>
      </trkpt>
      <trkpt lat="47.33626" lon="-1.57284">
        <ele>38</ele>
        <time>2023-11-03T12:45:45Z</time>
      </trkpt>
      <trkpt lat="47.3337" lon="-1.57036">
        <ele>33</ele>
        <time>2023-11-03T12:52:34Z</time>
      </trkpt>
      <trkpt lat="47.33181" lon="-1.57134">
        <ele>29</ele>
        <time>2023-11-03T12:57:01Z</time>
      </trkpt>
      <trkpt lat="47.32576" lon="-1.57456">
        <ele>29</ele>
        <time>2023-11-03T13:11:19Z</time>
      </trkpt>
      <trkpt lat="47.32754" lon="-1.5789">
        <ele>35</ele>
        <time>2023-11-03T13:18:58Z</time>
      </trkpt>
      <trkpt lat="47.32719" lon="-1.57958">
        <ele>38</ele>
        <time>2023-11-03T13:20:15Z</time>
      </trkpt>
      <trkpt lat="47.32748" lon="-1.58061">
        <ele>41</ele>
        <time>2023-11-03T13:21:56Z</time>
      </trkpt>
      <trkpt lat="47.32896" lon="-1.5816">
        <ele>33</ele>
        <time>2023-11-03T13:25:33Z</time>
      </trkpt>
      <trkpt lat="47.33036" lon="-1.58211">
        <ele>35</ele>
        <time>2023-11-03T13:28:46Z</time>
      </trkpt>
      <trkpt lat="47.33181" lon="-1.58525">
        <ele>42</ele>
        <time>2023-11-03T13:34:29Z</time>
      </trkpt>
      <trkpt lat="47.33638" lon="-1.59477">
        <ele>55</ele>
        <time>2023-11-03T13:52:04Z</time>
      </trkpt>
      <trkpt lat="47.34315" lon="-1.58477">
        <ele>45</ele>
        <time>2023-11-03T14:13:23Z</time>
      </trkpt>
      <trkpt lat="47.34426" lon="-1.58619">
        <ele>43</ele>
        <time>2023-11-03T14:16:39Z</time>
      </trkpt>
      <trkpt lat="47.34199" lon="-1.59048">
        <ele>49</ele>
        <time>2023-11-03T14:24:51Z</time>
      </trkpt>
      <trkpt lat="47.34789" lon="-1.5943">
        <ele>29</ele>
        <time>2023-11-03T14:39:11Z</time>
      </trkpt>
      <trkpt lat="47.34914" lon="-1.59409">
        <ele>25</ele>
        <time>2023-11-03T14:41:59Z</time>
      </trkpt>
      <trkpt lat="47.34967" lon="-1.59301">
        <ele>28</ele>
        <time>2023-11-03T14:43:59Z</time>
      </trkpt>
      <trkpt lat="47.3508" lon="-1.59422">
        <ele>20</ele>
        <time>2023-11-03T14:47:05Z</time>
      </trkpt>
      <trkpt lat="47.3506" lon="-1.59228">
        <ele>24</ele>
        <time>2023-11-03T14:50:03Z</time>
      </trkpt>
      <trkpt lat="47.3501" lon="-1.59211">
        <ele>28</ele>
        <time>2023-11-03T14:51:11Z</time>
      </trkpt>
      <trkpt lat="47.34984" lon="-1.59125">
        <ele>33</ele>
        <time>2023-11-03T14:52:36Z</time>
      </trkpt>
      <trkpt lat="47.35019" lon="-1.59113">
        <ele>30</ele>
        <time>2023-11-03T14:53:24Z</time>
      </trkpt>
      <trkpt lat="47.35054" lon="-1.59181">
        <ele>25</ele>
        <time>2023-11-03T14:54:42Z</time>
      </trkpt>
      <trkpt lat="47.35089" lon="-1.59108">
        <ele>24</ele>
        <time>2023-11-03T14:56:02Z</time>
      </trkpt>
      <trkpt lat="47.35013" lon="-1.58739">
        <ele>33</ele>
        <time>2023-11-03T15:01:51Z</time>
      </trkpt>
      <trkpt lat="47.34853" lon="-1.58508">
        <ele>30</ele>
        <time>2023-11-03T15:06:50Z</time>
      </trkpt>
      <trkpt lat="47.34786" lon="-1.58443">
        <ele>33</ele>
        <time>2023-11-03T15:08:37Z</time>
      </trkpt>
      <trkpt lat="47.34693" lon="-1.58134">
        <ele>42</ele>
        <time>2023-11-03T15:13:42Z</time>
      </trkpt>
      <trkpt lat="47.346" lon="-1.58121">
        <ele>44</ele>
        <time>2023-11-03T15:15:47Z</time>
      </trkpt>
      <trkpt lat="47.34644" lon="-1.58005">
        <ele>43</ele>
        <time>2023-11-03T15:17:47Z</time>
      </trkpt>
      <trkpt lat="47.34827" lon="-1.57744">
        <ele>39</ele>
        <time>2023-11-03T15:23:27Z</time>
      </trkpt>
      <trkpt lat="47.34958" lon="-1.57529">
        <ele>34</ele>
        <time>2023-11-03T15:27:48Z</time>
      </trkpt>
      <trkpt lat="47.35031" lon="-1.57478">
        <ele>26</ele>
        <time>2023-11-03T15:29:36Z</time>
      </trkpt>
      <trkpt lat="47.35223" lon="-1.57417">
        <ele>14</ele>
        <time>2023-11-03T15:33:58Z</time>
      </trkpt>
      <trkpt lat="47.35135" lon="-1.57289">
        <ele>20</ele>
        <time>2023-11-03T15:36:43Z</time>
      </trkpt>
      <trkpt lat="47.35199" lon="-1.57113">
        <ele>16</ele>
        <time>2023-11-03T15:39:44Z</time>
      </trkpt>
      <trkpt lat="47.35138" lon="-1.56714">
        <ele>16</ele>
        <time>2023-11-03T15:45:54Z</time>
      </trkpt>
      <trkpt lat="47.34874" lon="-1.56593">
        <ele>20</ele>
        <time>2023-11-03T15:52:02Z</time>
      </trkpt>
      <trkpt lat="47.34789" lon="-1.56559">
        <ele>18</ele>
        <time>2023-11-03T15:54:00Z</time>
      </trkpt>
      <trkpt lat="47.34658" lon="-1.56581">
        <ele>18</ele>
        <time>2023-11-03T15:56:56Z</time>
      </trkpt>
      <trkpt lat="47.34644" lon="-1.56688">
        <ele>23</ele>
        <time>2023-11-03T15:58:34Z</time>
      </trkpt>
      <trkpt lat="47.34711" lon="-1.56804">
        <ele>30</ele>
        <time>2023-11-03T16:00:52Z</time>
      </trkpt>
      <trkpt lat="47.34789" lon="-1.57203">
        <ele>38</ele>
        <time>2023-11-03T16:07:08Z</time>
      </trkpt>
      <trkpt lat="47.34833" lon="-1.57246">
        <ele>40</ele>
        <time>2023-11-03T16:08:18Z</time>
      </trkpt>
      <trkpt lat="47.3474" lon="-1.57516">
        <ele>38</ele>
        <time>2023-11-03T16:12:52Z</time>
      </trkpt>
      <trkpt lat="47.34722" lon="-1.57606">
        <ele>38</ele>
        <time>2023-11-03T16:14:17Z</time>
      </trkpt>
      <trkpt lat="47.34664" lon="-1.57602">
        <ele>36</ele>
        <time>2023-11-03T16:15:34Z</time>
      </trkpt>
      <trkpt lat="47.34455" lon="-1.57675">
        <ele>41</ele>
        <time>2023-11-03T16:20:21Z</time>
      </trkpt>
      <trkpt lat="47.34278" lon="-1.57636">
        <ele>34</ele>
        <time>2023-11-03T16:24:20Z</time>
      </trkpt>
      <trkpt lat="47.34083" lon="-1.57512">
        <ele>35</ele>
        <time>2023-11-03T16:29:03Z</time>
      </trkpt>
      <trkpt lat="47.34089" lon="-1.5752">
        <ele>35</ele>
        <time>2023-11-03T16:29:14Z</time>
      </trkpt>
      <trkpt lat="47.34036" lon="-1.57413">
        <ele>34</ele>
        <time>2023-11-03T16:31:14Z</time>
      </trkpt>
      <trkpt lat="47.33961" lon="-1.57409">
        <ele>37</ele>
        <time>2023-11-03T16:32:54Z</time>
      </trkpt>
      <trkpt lat="47.33868" lon="-1.57357">
        <ele>38</ele>
        <time>2023-11-03T16:35:07Z</time>
      </trkpt>
      <trkpt lat="47.33824" lon="-1.57422">
        <ele>41</ele>
        <time>2023-11-03T16:36:30Z</time>
      </trkpt>
      <trkpt lat="47.33714" lon="-1.57437">
        <ele>42</ele>
        <time>2023-11-03T16:38:57Z</time>
      </trkpt>
      <trkpt lat="47.33696" lon="-1.57397">
        <ele>41</ele>
        <time>2023-11-03T16:39:41Z</time>
      </trkpt>
    </trkseg>
  </trk>
  <trk>
    <name><![CDATA[ChapelleE_Vaillantiere_10km-10803642]]></name>
    <extensions>
      <line xmlns="http://www.topografix.com/GPX/gpx_style/0/2">
        <color>400040</color>
        <opacity>1</opacity>
        <width>4</width>
      </line>
    </extensions>
    <trkseg>
      <trkpt lat="47.34704" lon="-1.57611">
        <ele>38</ele>
        <time>2023-10-26T07:03:55Z</time>
      </trkpt>
      <trkpt lat="47.34687" lon="-1.57601">
        <ele>37</ele>
        <time>2023-10-26T07:04:19Z</time>
      </trkpt>
      <trkpt lat="47.34666" lon="-1.57603">
        <ele>36</ele>
        <time>2023-10-26T07:04:48Z</time>
      </trkpt>
      <trkpt lat="47.34645" lon="-1.57608">
        <ele>37</ele>
        <time>2023-10-26T07:05:16Z</time>
      </trkpt>
      <trkpt lat="47.34627" lon="-1.57621">
        <ele>37</ele>
        <time>2023-10-26T07:05:43Z</time>
      </trkpt>
      <trkpt lat="47.3461" lon="-1.57628">
        <ele>38</ele>
        <time>2023-10-26T07:06:06Z</time>
      </trkpt>
      <trkpt lat="47.34591" lon="-1.57641">
        <ele>38</ele>
        <time>2023-10-26T07:06:34Z</time>
      </trkpt>
      <trkpt lat="47.3457" lon="-1.57649">
        <ele>39</ele>
        <time>2023-10-26T07:07:03Z</time>
      </trkpt>
      <trkpt lat="47.34552" lon="-1.57651">
        <ele>40</ele>
        <time>2023-10-26T07:07:27Z</time>
      </trkpt>
      <trkpt lat="47.34492" lon="-1.57663">
        <ele>43</ele>
        <time>2023-10-26T07:08:48Z</time>
      </trkpt>
      <trkpt lat="47.34471" lon="-1.57671">
        <ele>42</ele>
        <time>2023-10-26T07:09:17Z</time>
      </trkpt>
      <trkpt lat="47.34451" lon="-1.57668">
        <ele>41</ele>
        <time>2023-10-26T07:09:44Z</time>
      </trkpt>
      <trkpt lat="47.34431" lon="-1.57662">
        <ele>40</ele>
        <time>2023-10-26T07:10:11Z</time>
      </trkpt>
      <trkpt lat="47.3441" lon="-1.5766">
        <ele>39</ele>
        <time>2023-10-26T07:10:39Z</time>
      </trkpt>
      <trkpt lat="47.34311" lon="-1.57644">
        <ele>35</ele>
        <time>2023-10-26T07:12:52Z</time>
      </trkpt>
      <trkpt lat="47.34293" lon="-1.57639">
        <ele>34</ele>
        <time>2023-10-26T07:13:16Z</time>
      </trkpt>
      <trkpt lat="47.34276" lon="-1.57628">
        <ele>34</ele>
        <time>2023-10-26T07:13:41Z</time>
      </trkpt>
      <trkpt lat="47.34256" lon="-1.57619">
        <ele>33</ele>
        <time>2023-10-26T07:14:09Z</time>
      </trkpt>
      <trkpt lat="47.3424" lon="-1.57604">
        <ele>33</ele>
        <time>2023-10-26T07:14:34Z</time>
      </trkpt>
      <trkpt lat="47.34219" lon="-1.57595">
        <ele>33</ele>
        <time>2023-10-26T07:15:04Z</time>
      </trkpt>
      <trkpt lat="47.34199" lon="-1.57589">
        <ele>33</ele>
        <time>2023-10-26T07:15:31Z</time>
      </trkpt>
      <trkpt lat="47.34181" lon="-1.5758">
        <ele>34</ele>
        <time>2023-10-26T07:15:56Z</time>
      </trkpt>
      <trkpt lat="47.34162" lon="-1.57567">
        <ele>33</ele>
        <time>2023-10-26T07:16:24Z</time>
      </trkpt>
      <trkpt lat="47.34146" lon="-1.57552">
        <ele>33</ele>
        <time>2023-10-26T07:16:49Z</time>
      </trkpt>
      <trkpt lat="47.34128" lon="-1.57545">
        <ele>34</ele>
        <time>2023-10-26T07:17:14Z</time>
      </trkpt>
      <trkpt lat="47.34111" lon="-1.57533">
        <ele>34</ele>
        <time>2023-10-26T07:17:39Z</time>
      </trkpt>
      <trkpt lat="47.34094" lon="-1.57514">
        <ele>35</ele>
        <time>2023-10-26T07:18:08Z</time>
      </trkpt>
      <trkpt lat="47.34086" lon="-1.5749">
        <ele>34</ele>
        <time>2023-10-26T07:18:32Z</time>
      </trkpt>
      <trkpt lat="47.34072" lon="-1.57466">
        <ele>34</ele>
        <time>2023-10-26T07:19:01Z</time>
      </trkpt>
      <trkpt lat="47.34063" lon="-1.5744">
        <ele>34</ele>
        <time>2023-10-26T07:19:27Z</time>
      </trkpt>
      <trkpt lat="47.3405" lon="-1.57421">
        <ele>34</ele>
        <time>2023-10-26T07:19:51Z</time>
      </trkpt>
      <trkpt lat="47.34037" lon="-1.57401">
        <ele>34</ele>
        <time>2023-10-26T07:20:17Z</time>
      </trkpt>
      <trkpt lat="47.34022" lon="-1.57419">
        <ele>35</ele>
        <time>2023-10-26T07:20:42Z</time>
      </trkpt>
      <trkpt lat="47.34003" lon="-1.57424">
        <ele>36</ele>
        <time>2023-10-26T07:21:08Z</time>
      </trkpt>
      <trkpt lat="47.33985" lon="-1.57412">
        <ele>36</ele>
        <time>2023-10-26T07:21:34Z</time>
      </trkpt>
      <trkpt lat="47.33967" lon="-1.57402">
        <ele>37</ele>
        <time>2023-10-26T07:22:00Z</time>
      </trkpt>
      <trkpt lat="47.33948" lon="-1.57395">
        <ele>37</ele>
        <time>2023-10-26T07:22:26Z</time>
      </trkpt>
      <trkpt lat="47.33929" lon="-1.57384">
        <ele>37</ele>
        <time>2023-10-26T07:22:53Z</time>
      </trkpt>
      <trkpt lat="47.33886" lon="-1.57368">
        <ele>38</ele>
        <time>2023-10-26T07:23:53Z</time>
      </trkpt>
      <trkpt lat="47.33868" lon="-1.57369">
        <ele>39</ele>
        <time>2023-10-26T07:24:17Z</time>
      </trkpt>
      <trkpt lat="47.33853" lon="-1.57389">
        <ele>40</ele>
        <time>2023-10-26T07:24:44Z</time>
      </trkpt>
      <trkpt lat="47.3384" lon="-1.57409">
        <ele>41</ele>
        <time>2023-10-26T07:25:09Z</time>
      </trkpt>
      <trkpt lat="47.3382" lon="-1.57426">
        <ele>41</ele>
        <time>2023-10-26T07:25:40Z</time>
      </trkpt>
      <trkpt lat="47.33813" lon="-1.57455">
        <ele>41</ele>
        <time>2023-10-26T07:26:07Z</time>
      </trkpt>
      <trkpt lat="47.338" lon="-1.5748">
        <ele>41</ele>
        <time>2023-10-26T07:26:36Z</time>
      </trkpt>
      <trkpt lat="47.33786" lon="-1.57502">
        <ele>41</ele>
        <time>2023-10-26T07:27:03Z</time>
      </trkpt>
      <trkpt lat="47.33766" lon="-1.5755">
        <ele>42</ele>
        <time>2023-10-26T07:27:54Z</time>
      </trkpt>
      <trkpt lat="47.3375" lon="-1.57565">
        <ele>42</ele>
        <time>2023-10-26T07:28:19Z</time>
      </trkpt>
      <trkpt lat="47.33747" lon="-1.57593">
        <ele>42</ele>
        <time>2023-10-26T07:28:45Z</time>
      </trkpt>
      <trkpt lat="47.33752" lon="-1.57619">
        <ele>42</ele>
        <time>2023-10-26T07:29:09Z</time>
      </trkpt>
      <trkpt lat="47.33742" lon="-1.57644">
        <ele>42</ele>
        <time>2023-10-26T07:29:36Z</time>
      </trkpt>
      <trkpt lat="47.3373" lon="-1.57667">
        <ele>42</ele>
        <time>2023-10-26T07:30:02Z</time>
      </trkpt>
      <trkpt lat="47.33714" lon="-1.57689">
        <ele>42</ele>
        <time>2023-10-26T07:30:31Z</time>
      </trkpt>
      <trkpt lat="47.33682" lon="-1.57717">
        <ele>42</ele>
        <time>2023-10-26T07:31:21Z</time>
      </trkpt>
      <trkpt lat="47.33668" lon="-1.57735">
        <ele>43</ele>
        <time>2023-10-26T07:31:46Z</time>
      </trkpt>
      <trkpt lat="47.33657" lon="-1.57756">
        <ele>42</ele>
        <time>2023-10-26T07:32:10Z</time>
      </trkpt>
      <trkpt lat="47.33642" lon="-1.57781">
        <ele>41</ele>
        <time>2023-10-26T07:32:40Z</time>
      </trkpt>
      <trkpt lat="47.33628" lon="-1.57805">
        <ele>40</ele>
        <time>2023-10-26T07:33:08Z</time>
      </trkpt>
      <trkpt lat="47.33616" lon="-1.57827">
        <ele>39</ele>
        <time>2023-10-26T07:33:34Z</time>
      </trkpt>
      <trkpt lat="47.3359" lon="-1.57873">
        <ele>36</ele>
        <time>2023-10-26T07:34:28Z</time>
      </trkpt>
      <trkpt lat="47.33577" lon="-1.57892">
        <ele>35</ele>
        <time>2023-10-26T07:34:53Z</time>
      </trkpt>
      <trkpt lat="47.3356" lon="-1.57909">
        <ele>33</ele>
        <time>2023-10-26T07:35:20Z</time>
      </trkpt>
      <trkpt lat="47.33541" lon="-1.57925">
        <ele>32</ele>
        <time>2023-10-26T07:35:49Z</time>
      </trkpt>
      <trkpt lat="47.33523" lon="-1.57934">
        <ele>31</ele>
        <time>2023-10-26T07:36:15Z</time>
      </trkpt>
      <trkpt lat="47.33461" lon="-1.57958">
        <ele>29</ele>
        <time>2023-10-26T07:37:40Z</time>
      </trkpt>
      <trkpt lat="47.33438" lon="-1.57967">
        <ele>29</ele>
        <time>2023-10-26T07:38:12Z</time>
      </trkpt>
      <trkpt lat="47.33427" lon="-1.57989">
        <ele>28</ele>
        <time>2023-10-26T07:38:37Z</time>
      </trkpt>
      <trkpt lat="47.33415" lon="-1.58011">
        <ele>28</ele>
        <time>2023-10-26T07:39:02Z</time>
      </trkpt>
      <trkpt lat="47.33403" lon="-1.58037">
        <ele>28</ele>
        <time>2023-10-26T07:39:31Z</time>
      </trkpt>
      <trkpt lat="47.33392" lon="-1.58063">
        <ele>29</ele>
        <time>2023-10-26T07:39:58Z</time>
      </trkpt>
      <trkpt lat="47.33384" lon="-1.58089">
        <ele>29</ele>
        <time>2023-10-26T07:40:24Z</time>
      </trkpt>
      <trkpt lat="47.33374" lon="-1.58113">
        <ele>30</ele>
        <time>2023-10-26T07:40:50Z</time>
      </trkpt>
      <trkpt lat="47.33319" lon="-1.58228">
        <ele>33</ele>
        <time>2023-10-26T07:42:57Z</time>
      </trkpt>
      <trkpt lat="47.33307" lon="-1.58253">
        <ele>34</ele>
        <time>2023-10-26T07:43:25Z</time>
      </trkpt>
      <trkpt lat="47.33296" lon="-1.58279">
        <ele>34</ele>
        <time>2023-10-26T07:43:52Z</time>
      </trkpt>
      <trkpt lat="47.33284" lon="-1.58302">
        <ele>35</ele>
        <time>2023-10-26T07:44:19Z</time>
      </trkpt>
      <trkpt lat="47.33274" lon="-1.58326">
        <ele>35</ele>
        <time>2023-10-26T07:44:44Z</time>
      </trkpt>
      <trkpt lat="47.33263" lon="-1.58348">
        <ele>36</ele>
        <time>2023-10-26T07:45:09Z</time>
      </trkpt>
      <trkpt lat="47.33252" lon="-1.58375">
        <ele>36</ele>
        <time>2023-10-26T07:45:37Z</time>
      </trkpt>
      <trkpt lat="47.3323" lon="-1.58423">
        <ele>38</ele>
        <time>2023-10-26T07:46:30Z</time>
      </trkpt>
      <trkpt lat="47.3322" lon="-1.58447">
        <ele>39</ele>
        <time>2023-10-26T07:46:55Z</time>
      </trkpt>
      <trkpt lat="47.3321" lon="-1.58471">
        <ele>40</ele>
        <time>2023-10-26T07:47:21Z</time>
      </trkpt>
      <trkpt lat="47.33198" lon="-1.58493">
        <ele>41</ele>
        <time>2023-10-26T07:47:46Z</time>
      </trkpt>
      <trkpt lat="47.33188" lon="-1.58517">
        <ele>41</ele>
        <time>2023-10-26T07:48:12Z</time>
      </trkpt>
      <trkpt lat="47.33193" lon="-1.58544">
        <ele>41</ele>
        <time>2023-10-26T07:48:37Z</time>
      </trkpt>
      <trkpt lat="47.33204" lon="-1.58568">
        <ele>41</ele>
        <time>2023-10-26T07:49:03Z</time>
      </trkpt>
      <trkpt lat="47.33217" lon="-1.58594">
        <ele>41</ele>
        <time>2023-10-26T07:49:32Z</time>
      </trkpt>
      <trkpt lat="47.33241" lon="-1.5864">
        <ele>41</ele>
        <time>2023-10-26T07:50:25Z</time>
      </trkpt>
      <trkpt lat="47.33253" lon="-1.58662">
        <ele>41</ele>
        <time>2023-10-26T07:50:50Z</time>
      </trkpt>
      <trkpt lat="47.33261" lon="-1.58687">
        <ele>41</ele>
        <time>2023-10-26T07:51:15Z</time>
      </trkpt>
      <trkpt lat="47.33285" lon="-1.58734">
        <ele>41</ele>
        <time>2023-10-26T07:52:09Z</time>
      </trkpt>
      <trkpt lat="47.33294" lon="-1.58762">
        <ele>41</ele>
        <time>2023-10-26T07:52:37Z</time>
      </trkpt>
      <trkpt lat="47.33306" lon="-1.58783">
        <ele>40</ele>
        <time>2023-10-26T07:53:02Z</time>
      </trkpt>
      <trkpt lat="47.33319" lon="-1.58806">
        <ele>41</ele>
        <time>2023-10-26T07:53:29Z</time>
      </trkpt>
      <trkpt lat="47.33329" lon="-1.58832">
        <ele>41</ele>
        <time>2023-10-26T07:53:56Z</time>
      </trkpt>
      <trkpt lat="47.33342" lon="-1.58859">
        <ele>41</ele>
        <time>2023-10-26T07:54:26Z</time>
      </trkpt>
      <trkpt lat="47.33355" lon="-1.58884">
        <ele>42</ele>
        <time>2023-10-26T07:54:54Z</time>
      </trkpt>
      <trkpt lat="47.33369" lon="-1.58909">
        <ele>43</ele>
        <time>2023-10-26T07:55:23Z</time>
      </trkpt>
      <trkpt lat="47.3338" lon="-1.58936">
        <ele>44</ele>
        <time>2023-10-26T07:55:52Z</time>
      </trkpt>
      <trkpt lat="47.33391" lon="-1.58958">
        <ele>44</ele>
        <time>2023-10-26T07:56:17Z</time>
      </trkpt>
      <trkpt lat="47.33401" lon="-1.58986">
        <ele>46</ele>
        <time>2023-10-26T07:56:45Z</time>
      </trkpt>
      <trkpt lat="47.33415" lon="-1.59008">
        <ele>47</ele>
        <time>2023-10-26T07:57:13Z</time>
      </trkpt>
      <trkpt lat="47.33426" lon="-1.5903">
        <ele>48</ele>
        <time>2023-10-26T07:57:37Z</time>
      </trkpt>
      <trkpt lat="47.33435" lon="-1.59053">
        <ele>48</ele>
        <time>2023-10-26T07:58:01Z</time>
      </trkpt>
      <trkpt lat="47.33447" lon="-1.59074">
        <ele>49</ele>
        <time>2023-10-26T07:58:26Z</time>
      </trkpt>
      <trkpt lat="47.33456" lon="-1.59098">
        <ele>49</ele>
        <time>2023-10-26T07:58:51Z</time>
      </trkpt>
      <trkpt lat="47.33468" lon="-1.59124">
        <ele>50</ele>
        <time>2023-10-26T07:59:19Z</time>
      </trkpt>
      <trkpt lat="47.33478" lon="-1.59146">
        <ele>51</ele>
        <time>2023-10-26T07:59:43Z</time>
      </trkpt>
      <trkpt lat="47.3349" lon="-1.59166">
        <ele>52</ele>
        <time>2023-10-26T08:00:07Z</time>
      </trkpt>
      <trkpt lat="47.335" lon="-1.59189">
        <ele>52</ele>
        <time>2023-10-26T08:00:32Z</time>
      </trkpt>
      <trkpt lat="47.33512" lon="-1.59217">
        <ele>52</ele>
        <time>2023-10-26T08:01:02Z</time>
      </trkpt>
      <trkpt lat="47.33524" lon="-1.59244">
        <ele>53</ele>
        <time>2023-10-26T08:01:31Z</time>
      </trkpt>
      <trkpt lat="47.33538" lon="-1.59269">
        <ele>54</ele>
        <time>2023-10-26T08:02:01Z</time>
      </trkpt>
      <trkpt lat="47.33561" lon="-1.59317">
        <ele>55</ele>
        <time>2023-10-26T08:02:54Z</time>
      </trkpt>
      <trkpt lat="47.33573" lon="-1.59339">
        <ele>56</ele>
        <time>2023-10-26T08:03:19Z</time>
      </trkpt>
      <trkpt lat="47.33582" lon="-1.59363">
        <ele>56</ele>
        <time>2023-10-26T08:03:44Z</time>
      </trkpt>
      <trkpt lat="47.33594" lon="-1.59388">
        <ele>55</ele>
        <time>2023-10-26T08:04:12Z</time>
      </trkpt>
      <trkpt lat="47.3362" lon="-1.59438">
        <ele>55</ele>
        <time>2023-10-26T08:05:09Z</time>
      </trkpt>
      <trkpt lat="47.33636" lon="-1.59461">
        <ele>55</ele>
        <time>2023-10-26T08:05:39Z</time>
      </trkpt>
      <trkpt lat="47.33654" lon="-1.59455">
        <ele>55</ele>
        <time>2023-10-26T08:06:03Z</time>
      </trkpt>
      <trkpt lat="47.33668" lon="-1.59439">
        <ele>55</ele>
        <time>2023-10-26T08:06:27Z</time>
      </trkpt>
      <trkpt lat="47.33685" lon="-1.59423">
        <ele>54</ele>
        <time>2023-10-26T08:06:54Z</time>
      </trkpt>
      <trkpt lat="47.33701" lon="-1.59395">
        <ele>53</ele>
        <time>2023-10-26T08:07:27Z</time>
      </trkpt>
      <trkpt lat="47.33714" lon="-1.59373">
        <ele>53</ele>
        <time>2023-10-26T08:07:53Z</time>
      </trkpt>
      <trkpt lat="47.33732" lon="-1.59354">
        <ele>52</ele>
        <time>2023-10-26T08:08:23Z</time>
      </trkpt>
      <trkpt lat="47.33759" lon="-1.59311">
        <ele>52</ele>
        <time>2023-10-26T08:09:16Z</time>
      </trkpt>
      <trkpt lat="47.33773" lon="-1.59286">
        <ele>51</ele>
        <time>2023-10-26T08:09:45Z</time>
      </trkpt>
      <trkpt lat="47.33801" lon="-1.59245">
        <ele>51</ele>
        <time>2023-10-26T08:10:38Z</time>
      </trkpt>
      <trkpt lat="47.33814" lon="-1.59227">
        <ele>50</ele>
        <time>2023-10-26T08:11:02Z</time>
      </trkpt>
      <trkpt lat="47.33829" lon="-1.59203">
        <ele>50</ele>
        <time>2023-10-26T08:11:31Z</time>
      </trkpt>
      <trkpt lat="47.33842" lon="-1.59184">
        <ele>50</ele>
        <time>2023-10-26T08:11:56Z</time>
      </trkpt>
      <trkpt lat="47.33856" lon="-1.59165">
        <ele>49</ele>
        <time>2023-10-26T08:12:21Z</time>
      </trkpt>
      <trkpt lat="47.33883" lon="-1.59119">
        <ele>49</ele>
        <time>2023-10-26T08:13:16Z</time>
      </trkpt>
      <trkpt lat="47.33899" lon="-1.59094">
        <ele>48</ele>
        <time>2023-10-26T08:13:47Z</time>
      </trkpt>
      <trkpt lat="47.33915" lon="-1.59077">
        <ele>48</ele>
        <time>2023-10-26T08:14:13Z</time>
      </trkpt>
      <trkpt lat="47.33928" lon="-1.59058">
        <ele>48</ele>
        <time>2023-10-26T08:14:38Z</time>
      </trkpt>
      <trkpt lat="47.33941" lon="-1.59034">
        <ele>47</ele>
        <time>2023-10-26T08:15:06Z</time>
      </trkpt>
      <trkpt lat="47.33958" lon="-1.59013">
        <ele>47</ele>
        <time>2023-10-26T08:15:35Z</time>
      </trkpt>
      <trkpt lat="47.33973" lon="-1.58986">
        <ele>47</ele>
        <time>2023-10-26T08:16:07Z</time>
      </trkpt>
      <trkpt lat="47.34" lon="-1.5895">
        <ele>46</ele>
        <time>2023-10-26T08:16:55Z</time>
      </trkpt>
      <trkpt lat="47.34013" lon="-1.58931">
        <ele>46</ele>
        <time>2023-10-26T08:17:20Z</time>
      </trkpt>
      <trkpt lat="47.34025" lon="-1.58911">
        <ele>46</ele>
        <time>2023-10-26T08:17:44Z</time>
      </trkpt>
      <trkpt lat="47.34037" lon="-1.5889">
        <ele>45</ele>
        <time>2023-10-26T08:18:09Z</time>
      </trkpt>
      <trkpt lat="47.34051" lon="-1.58871">
        <ele>45</ele>
        <time>2023-10-26T08:18:34Z</time>
      </trkpt>
      <trkpt lat="47.34065" lon="-1.5885">
        <ele>45</ele>
        <time>2023-10-26T08:19:01Z</time>
      </trkpt>
      <trkpt lat="47.3409" lon="-1.58808">
        <ele>45</ele>
        <time>2023-10-26T08:19:51Z</time>
      </trkpt>
      <trkpt lat="47.34103" lon="-1.58788">
        <ele>45</ele>
        <time>2023-10-26T08:20:16Z</time>
      </trkpt>
      <trkpt lat="47.34117" lon="-1.58771">
        <ele>45</ele>
        <time>2023-10-26T08:20:41Z</time>
      </trkpt>
      <trkpt lat="47.3413" lon="-1.58752">
        <ele>45</ele>
        <time>2023-10-26T08:21:05Z</time>
      </trkpt>
      <trkpt lat="47.34142" lon="-1.58732">
        <ele>45</ele>
        <time>2023-10-26T08:21:29Z</time>
      </trkpt>
      <trkpt lat="47.34158" lon="-1.58712">
        <ele>45</ele>
        <time>2023-10-26T08:21:57Z</time>
      </trkpt>
      <trkpt lat="47.34172" lon="-1.58691">
        <ele>46</ele>
        <time>2023-10-26T08:22:24Z</time>
      </trkpt>
      <trkpt lat="47.34187" lon="-1.58673">
        <ele>46</ele>
        <time>2023-10-26T08:22:50Z</time>
      </trkpt>
      <trkpt lat="47.34199" lon="-1.58651">
        <ele>46</ele>
        <time>2023-10-26T08:23:15Z</time>
      </trkpt>
      <trkpt lat="47.34227" lon="-1.58611">
        <ele>46</ele>
        <time>2023-10-26T08:24:07Z</time>
      </trkpt>
      <trkpt lat="47.34244" lon="-1.58591">
        <ele>47</ele>
        <time>2023-10-26T08:24:36Z</time>
      </trkpt>
      <trkpt lat="47.34254" lon="-1.58568">
        <ele>47</ele>
        <time>2023-10-26T08:25:01Z</time>
      </trkpt>
      <trkpt lat="47.34269" lon="-1.58544">
        <ele>46</ele>
        <time>2023-10-26T08:25:30Z</time>
      </trkpt>
      <trkpt lat="47.34283" lon="-1.58523">
        <ele>46</ele>
        <time>2023-10-26T08:25:57Z</time>
      </trkpt>
      <trkpt lat="47.343" lon="-1.585">
        <ele>45</ele>
        <time>2023-10-26T08:26:28Z</time>
      </trkpt>
      <trkpt lat="47.34315" lon="-1.58482">
        <ele>45</ele>
        <time>2023-10-26T08:26:54Z</time>
      </trkpt>
      <trkpt lat="47.34333" lon="-1.58497">
        <ele>45</ele>
        <time>2023-10-26T08:27:21Z</time>
      </trkpt>
      <trkpt lat="47.34347" lon="-1.58514">
        <ele>45</ele>
        <time>2023-10-26T08:27:45Z</time>
      </trkpt>
      <trkpt lat="47.34363" lon="-1.58537">
        <ele>44</ele>
        <time>2023-10-26T08:28:15Z</time>
      </trkpt>
      <trkpt lat="47.34378" lon="-1.58554">
        <ele>44</ele>
        <time>2023-10-26T08:28:40Z</time>
      </trkpt>
      <trkpt lat="47.34407" lon="-1.58592">
        <ele>43</ele>
        <time>2023-10-26T08:29:32Z</time>
      </trkpt>
      <trkpt lat="47.34419" lon="-1.58612">
        <ele>43</ele>
        <time>2023-10-26T08:29:56Z</time>
      </trkpt>
      <trkpt lat="47.34413" lon="-1.58637">
        <ele>43</ele>
        <time>2023-10-26T08:30:20Z</time>
      </trkpt>
      <trkpt lat="47.34397" lon="-1.58662">
        <ele>43</ele>
        <time>2023-10-26T08:30:51Z</time>
      </trkpt>
      <trkpt lat="47.34356" lon="-1.58745">
        <ele>44</ele>
        <time>2023-10-26T08:32:24Z</time>
      </trkpt>
      <trkpt lat="47.34343" lon="-1.58772">
        <ele>45</ele>
        <time>2023-10-26T08:32:54Z</time>
      </trkpt>
      <trkpt lat="47.34327" lon="-1.58798">
        <ele>45</ele>
        <time>2023-10-26T08:33:26Z</time>
      </trkpt>
      <trkpt lat="47.34316" lon="-1.58821">
        <ele>45</ele>
        <time>2023-10-26T08:33:51Z</time>
      </trkpt>
      <trkpt lat="47.34302" lon="-1.58847">
        <ele>46</ele>
        <time>2023-10-26T08:34:22Z</time>
      </trkpt>
      <trkpt lat="47.34287" lon="-1.58872">
        <ele>47</ele>
        <time>2023-10-26T08:34:52Z</time>
      </trkpt>
      <trkpt lat="47.34272" lon="-1.58898">
        <ele>47</ele>
        <time>2023-10-26T08:35:23Z</time>
      </trkpt>
      <trkpt lat="47.3426" lon="-1.58924">
        <ele>48</ele>
        <time>2023-10-26T08:35:51Z</time>
      </trkpt>
      <trkpt lat="47.34245" lon="-1.58948">
        <ele>48</ele>
        <time>2023-10-26T08:36:21Z</time>
      </trkpt>
      <trkpt lat="47.34234" lon="-1.5897">
        <ele>48</ele>
        <time>2023-10-26T08:36:45Z</time>
      </trkpt>
      <trkpt lat="47.3422" lon="-1.58998">
        <ele>48</ele>
        <time>2023-10-26T08:37:17Z</time>
      </trkpt>
      <trkpt lat="47.34205" lon="-1.59023">
        <ele>48</ele>
        <time>2023-10-26T08:37:47Z</time>
      </trkpt>
      <trkpt lat="47.34197" lon="-1.59048">
        <ele>49</ele>
        <time>2023-10-26T08:38:12Z</time>
      </trkpt>
      <trkpt lat="47.34215" lon="-1.59055">
        <ele>49</ele>
        <time>2023-10-26T08:38:37Z</time>
      </trkpt>
      <trkpt lat="47.34234" lon="-1.59068">
        <ele>49</ele>
        <time>2023-10-26T08:39:05Z</time>
      </trkpt>
      <trkpt lat="47.34251" lon="-1.59078">
        <ele>49</ele>
        <time>2023-10-26T08:39:29Z</time>
      </trkpt>
      <trkpt lat="47.34271" lon="-1.5909">
        <ele>49</ele>
        <time>2023-10-26T08:39:58Z</time>
      </trkpt>
      <trkpt lat="47.34289" lon="-1.59101">
        <ele>49</ele>
        <time>2023-10-26T08:40:24Z</time>
      </trkpt>
      <trkpt lat="47.34306" lon="-1.59112">
        <ele>49</ele>
        <time>2023-10-26T08:40:49Z</time>
      </trkpt>
      <trkpt lat="47.34324" lon="-1.59125">
        <ele>49</ele>
        <time>2023-10-26T08:41:15Z</time>
      </trkpt>
      <trkpt lat="47.34361" lon="-1.59148">
        <ele>48</ele>
        <time>2023-10-26T08:42:09Z</time>
      </trkpt>
      <trkpt lat="47.34378" lon="-1.59158">
        <ele>47</ele>
        <time>2023-10-26T08:42:33Z</time>
      </trkpt>
      <trkpt lat="47.34397" lon="-1.59172">
        <ele>47</ele>
        <time>2023-10-26T08:43:02Z</time>
      </trkpt>
      <trkpt lat="47.34418" lon="-1.59185">
        <ele>46</ele>
        <time>2023-10-26T08:43:32Z</time>
      </trkpt>
      <trkpt lat="47.34454" lon="-1.59211">
        <ele>44</ele>
        <time>2023-10-26T08:44:26Z</time>
      </trkpt>
      <trkpt lat="47.34474" lon="-1.59225">
        <ele>44</ele>
        <time>2023-10-26T08:44:55Z</time>
      </trkpt>
      <trkpt lat="47.34493" lon="-1.59237">
        <ele>43</ele>
        <time>2023-10-26T08:45:23Z</time>
      </trkpt>
      <trkpt lat="47.34512" lon="-1.5925">
        <ele>43</ele>
        <time>2023-10-26T08:45:51Z</time>
      </trkpt>
      <trkpt lat="47.34532" lon="-1.59258">
        <ele>42</ele>
        <time>2023-10-26T08:46:18Z</time>
      </trkpt>
      <trkpt lat="47.34552" lon="-1.59274">
        <ele>41</ele>
        <time>2023-10-26T08:46:49Z</time>
      </trkpt>
      <trkpt lat="47.34571" lon="-1.59284">
        <ele>40</ele>
        <time>2023-10-26T08:47:16Z</time>
      </trkpt>
      <trkpt lat="47.34589" lon="-1.59298">
        <ele>39</ele>
        <time>2023-10-26T08:47:43Z</time>
      </trkpt>
      <trkpt lat="47.34607" lon="-1.59309">
        <ele>37</ele>
        <time>2023-10-26T08:48:09Z</time>
      </trkpt>
      <trkpt lat="47.34624" lon="-1.59322">
        <ele>36</ele>
        <time>2023-10-26T08:48:34Z</time>
      </trkpt>
      <trkpt lat="47.34701" lon="-1.5937">
        <ele>32</ele>
        <time>2023-10-26T08:50:26Z</time>
      </trkpt>
      <trkpt lat="47.3472" lon="-1.59381">
        <ele>32</ele>
        <time>2023-10-26T08:50:53Z</time>
      </trkpt>
      <trkpt lat="47.34736" lon="-1.59395">
        <ele>31</ele>
        <time>2023-10-26T08:51:18Z</time>
      </trkpt>
      <trkpt lat="47.34753" lon="-1.59408">
        <ele>30</ele>
        <time>2023-10-26T08:51:44Z</time>
      </trkpt>
      <trkpt lat="47.34772" lon="-1.5942">
        <ele>30</ele>
        <time>2023-10-26T08:52:11Z</time>
      </trkpt>
      <trkpt lat="47.34793" lon="-1.5943">
        <ele>29</ele>
        <time>2023-10-26T08:52:41Z</time>
      </trkpt>
      <trkpt lat="47.34813" lon="-1.5943">
        <ele>29</ele>
        <time>2023-10-26T08:53:07Z</time>
      </trkpt>
      <trkpt lat="47.34832" lon="-1.59425">
        <ele>29</ele>
        <time>2023-10-26T08:53:33Z</time>
      </trkpt>
      <trkpt lat="47.34851" lon="-1.59421">
        <ele>28</ele>
        <time>2023-10-26T08:53:59Z</time>
      </trkpt>
      <trkpt lat="47.34871" lon="-1.59414">
        <ele>27</ele>
        <time>2023-10-26T08:54:26Z</time>
      </trkpt>
      <trkpt lat="47.3489" lon="-1.59411">
        <ele>27</ele>
        <time>2023-10-26T08:54:52Z</time>
      </trkpt>
      <trkpt lat="47.34908" lon="-1.59406">
        <ele>26</ele>
        <time>2023-10-26T08:55:16Z</time>
      </trkpt>
      <trkpt lat="47.34925" lon="-1.59389">
        <ele>26</ele>
        <time>2023-10-26T08:55:43Z</time>
      </trkpt>
      <trkpt lat="47.34937" lon="-1.59365">
        <ele>27</ele>
        <time>2023-10-26T08:56:10Z</time>
      </trkpt>
      <trkpt lat="47.34952" lon="-1.59343">
        <ele>27</ele>
        <time>2023-10-26T08:56:39Z</time>
      </trkpt>
      <trkpt lat="47.34965" lon="-1.5932">
        <ele>27</ele>
        <time>2023-10-26T08:57:06Z</time>
      </trkpt>
      <trkpt lat="47.34979" lon="-1.59303">
        <ele>27</ele>
        <time>2023-10-26T08:57:30Z</time>
      </trkpt>
      <trkpt lat="47.34995" lon="-1.59325">
        <ele>25</ele>
        <time>2023-10-26T08:57:59Z</time>
      </trkpt>
      <trkpt lat="47.3501" lon="-1.59343">
        <ele>24</ele>
        <time>2023-10-26T08:58:25Z</time>
      </trkpt>
      <trkpt lat="47.35025" lon="-1.59362">
        <ele>23</ele>
        <time>2023-10-26T08:58:51Z</time>
      </trkpt>
      <trkpt lat="47.35041" lon="-1.59385">
        <ele>22</ele>
        <time>2023-10-26T08:59:21Z</time>
      </trkpt>
      <trkpt lat="47.35055" lon="-1.59402">
        <ele>21</ele>
        <time>2023-10-26T08:59:45Z</time>
      </trkpt>
      <trkpt lat="47.35072" lon="-1.59419">
        <ele>20</ele>
        <time>2023-10-26T09:00:13Z</time>
      </trkpt>
      <trkpt lat="47.35079" lon="-1.59385">
        <ele>21</ele>
        <time>2023-10-26T09:00:45Z</time>
      </trkpt>
      <trkpt lat="47.35075" lon="-1.59356">
        <ele>22</ele>
        <time>2023-10-26T09:01:11Z</time>
      </trkpt>
      <trkpt lat="47.35073" lon="-1.59325">
        <ele>22</ele>
        <time>2023-10-26T09:01:40Z</time>
      </trkpt>
      <trkpt lat="47.35073" lon="-1.59296">
        <ele>22</ele>
        <time>2023-10-26T09:02:06Z</time>
      </trkpt>
      <trkpt lat="47.35069" lon="-1.59268">
        <ele>23</ele>
        <time>2023-10-26T09:02:32Z</time>
      </trkpt>
      <trkpt lat="47.35064" lon="-1.59235">
        <ele>23</ele>
        <time>2023-10-26T09:03:02Z</time>
      </trkpt>
      <trkpt lat="47.35062" lon="-1.59205">
        <ele>24</ele>
        <time>2023-10-26T09:03:30Z</time>
      </trkpt>
      <trkpt lat="47.35071" lon="-1.59182">
        <ele>23</ele>
        <time>2023-10-26T09:03:54Z</time>
      </trkpt>
      <trkpt lat="47.35077" lon="-1.59153">
        <ele>23</ele>
        <time>2023-10-26T09:04:21Z</time>
      </trkpt>
      <trkpt lat="47.35082" lon="-1.59123">
        <ele>24</ele>
        <time>2023-10-26T09:04:49Z</time>
      </trkpt>
      <trkpt lat="47.35083" lon="-1.59089">
        <ele>25</ele>
        <time>2023-10-26T09:05:20Z</time>
      </trkpt>
      <trkpt lat="47.3508" lon="-1.59059">
        <ele>26</ele>
        <time>2023-10-26T09:05:47Z</time>
      </trkpt>
      <trkpt lat="47.35076" lon="-1.5903">
        <ele>28</ele>
        <time>2023-10-26T09:06:14Z</time>
      </trkpt>
      <trkpt lat="47.35074" lon="-1.58999">
        <ele>30</ele>
        <time>2023-10-26T09:06:42Z</time>
      </trkpt>
      <trkpt lat="47.35057" lon="-1.58914">
        <ele>32</ele>
        <time>2023-10-26T09:08:02Z</time>
      </trkpt>
      <trkpt lat="47.35051" lon="-1.58883">
        <ele>33</ele>
        <time>2023-10-26T09:08:31Z</time>
      </trkpt>
      <trkpt lat="47.35036" lon="-1.58831">
        <ele>34</ele>
        <time>2023-10-26T09:09:22Z</time>
      </trkpt>
      <trkpt lat="47.35028" lon="-1.58803">
        <ele>34</ele>
        <time>2023-10-26T09:09:50Z</time>
      </trkpt>
      <trkpt lat="47.3502" lon="-1.58779">
        <ele>34</ele>
        <time>2023-10-26T09:10:14Z</time>
      </trkpt>
      <trkpt lat="47.35013" lon="-1.58749">
        <ele>34</ele>
        <time>2023-10-26T09:10:43Z</time>
      </trkpt>
      <trkpt lat="47.35" lon="-1.58728">
        <ele>33</ele>
        <time>2023-10-26T09:11:08Z</time>
      </trkpt>
      <trkpt lat="47.34985" lon="-1.58708">
        <ele>33</ele>
        <time>2023-10-26T09:11:35Z</time>
      </trkpt>
      <trkpt lat="47.34969" lon="-1.58686">
        <ele>33</ele>
        <time>2023-10-26T09:12:05Z</time>
      </trkpt>
      <trkpt lat="47.34954" lon="-1.58664">
        <ele>32</ele>
        <time>2023-10-26T09:12:33Z</time>
      </trkpt>
      <trkpt lat="47.34942" lon="-1.58644">
        <ele>32</ele>
        <time>2023-10-26T09:12:57Z</time>
      </trkpt>
      <trkpt lat="47.34927" lon="-1.58625">
        <ele>32</ele>
        <time>2023-10-26T09:13:23Z</time>
      </trkpt>
      <trkpt lat="47.34913" lon="-1.58602">
        <ele>31</ele>
        <time>2023-10-26T09:13:51Z</time>
      </trkpt>
      <trkpt lat="47.34899" lon="-1.58579">
        <ele>31</ele>
        <time>2023-10-26T09:14:19Z</time>
      </trkpt>
      <trkpt lat="47.34884" lon="-1.58559">
        <ele>31</ele>
        <time>2023-10-26T09:14:46Z</time>
      </trkpt>
      <trkpt lat="47.34869" lon="-1.58539">
        <ele>30</ele>
        <time>2023-10-26T09:15:13Z</time>
      </trkpt>
      <trkpt lat="47.34854" lon="-1.58519">
        <ele>30</ele>
        <time>2023-10-26T09:15:40Z</time>
      </trkpt>
      <trkpt lat="47.3484" lon="-1.58502">
        <ele>30</ele>
        <time>2023-10-26T09:16:04Z</time>
      </trkpt>
      <trkpt lat="47.34823" lon="-1.58483">
        <ele>31</ele>
        <time>2023-10-26T09:16:33Z</time>
      </trkpt>
      <trkpt lat="47.34805" lon="-1.58464">
        <ele>32</ele>
        <time>2023-10-26T09:17:02Z</time>
      </trkpt>
      <trkpt lat="47.3479" lon="-1.58438">
        <ele>33</ele>
        <time>2023-10-26T09:17:33Z</time>
      </trkpt>
      <trkpt lat="47.34779" lon="-1.58415">
        <ele>34</ele>
        <time>2023-10-26T09:17:59Z</time>
      </trkpt>
      <trkpt lat="47.34762" lon="-1.5836">
        <ele>35</ele>
        <time>2023-10-26T09:18:53Z</time>
      </trkpt>
      <trkpt lat="47.34755" lon="-1.58329">
        <ele>35</ele>
        <time>2023-10-26T09:19:23Z</time>
      </trkpt>
      <trkpt lat="47.34746" lon="-1.58303">
        <ele>35</ele>
        <time>2023-10-26T09:19:49Z</time>
      </trkpt>
      <trkpt lat="47.34736" lon="-1.58278">
        <ele>36</ele>
        <time>2023-10-26T09:20:16Z</time>
      </trkpt>
      <trkpt lat="47.34728" lon="-1.58251">
        <ele>37</ele>
        <time>2023-10-26T09:20:42Z</time>
      </trkpt>
      <trkpt lat="47.34721" lon="-1.58219">
        <ele>38</ele>
        <time>2023-10-26T09:21:13Z</time>
      </trkpt>
      <trkpt lat="47.3471" lon="-1.58187">
        <ele>39</ele>
        <time>2023-10-26T09:21:45Z</time>
      </trkpt>
      <trkpt lat="47.34703" lon="-1.58161">
        <ele>40</ele>
        <time>2023-10-26T09:22:10Z</time>
      </trkpt>
      <trkpt lat="47.34692" lon="-1.58138">
        <ele>41</ele>
        <time>2023-10-26T09:22:36Z</time>
      </trkpt>
      <trkpt lat="47.34674" lon="-1.5813">
        <ele>43</ele>
        <time>2023-10-26T09:23:01Z</time>
      </trkpt>
      <trkpt lat="47.34655" lon="-1.58126">
        <ele>43</ele>
        <time>2023-10-26T09:23:26Z</time>
      </trkpt>
      <trkpt lat="47.34618" lon="-1.58121">
        <ele>44</ele>
        <time>2023-10-26T09:24:16Z</time>
      </trkpt>
      <trkpt lat="47.34612" lon="-1.58093">
        <ele>43</ele>
        <time>2023-10-26T09:24:43Z</time>
      </trkpt>
      <trkpt lat="47.34622" lon="-1.58064">
        <ele>43</ele>
        <time>2023-10-26T09:25:12Z</time>
      </trkpt>
      <trkpt lat="47.3463" lon="-1.58037">
        <ele>43</ele>
        <time>2023-10-26T09:25:39Z</time>
      </trkpt>
      <trkpt lat="47.34637" lon="-1.58012">
        <ele>43</ele>
        <time>2023-10-26T09:26:03Z</time>
      </trkpt>
      <trkpt lat="47.34647" lon="-1.57988">
        <ele>43</ele>
        <time>2023-10-26T09:26:29Z</time>
      </trkpt>
      <trkpt lat="47.34663" lon="-1.57966">
        <ele>43</ele>
        <time>2023-10-26T09:26:58Z</time>
      </trkpt>
      <trkpt lat="47.3468" lon="-1.57953">
        <ele>42</ele>
        <time>2023-10-26T09:27:23Z</time>
      </trkpt>
      <trkpt lat="47.34721" lon="-1.57888">
        <ele>42</ele>
        <time>2023-10-26T09:28:44Z</time>
      </trkpt>
      <trkpt lat="47.34738" lon="-1.57866">
        <ele>42</ele>
        <time>2023-10-26T09:29:14Z</time>
      </trkpt>
      <trkpt lat="47.34751" lon="-1.57844">
        <ele>42</ele>
        <time>2023-10-26T09:29:40Z</time>
      </trkpt>
      <trkpt lat="47.34764" lon="-1.57821">
        <ele>41</ele>
        <time>2023-10-26T09:30:07Z</time>
      </trkpt>
      <trkpt lat="47.34777" lon="-1.57797">
        <ele>40</ele>
        <time>2023-10-26T09:30:35Z</time>
      </trkpt>
      <trkpt lat="47.34793" lon="-1.57778">
        <ele>40</ele>
        <time>2023-10-26T09:31:02Z</time>
      </trkpt>
      <trkpt lat="47.34806" lon="-1.57755">
        <ele>39</ele>
        <time>2023-10-26T09:31:30Z</time>
      </trkpt>
      <trkpt lat="47.34823" lon="-1.57735">
        <ele>39</ele>
        <time>2023-10-26T09:31:59Z</time>
      </trkpt>
      <trkpt lat="47.34839" lon="-1.57709">
        <ele>38</ele>
        <time>2023-10-26T09:32:30Z</time>
      </trkpt>
      <trkpt lat="47.34853" lon="-1.57692">
        <ele>37</ele>
        <time>2023-10-26T09:32:55Z</time>
      </trkpt>
      <trkpt lat="47.34882" lon="-1.57653">
        <ele>37</ele>
        <time>2023-10-26T09:33:47Z</time>
      </trkpt>
      <trkpt lat="47.34892" lon="-1.57625">
        <ele>37</ele>
        <time>2023-10-26T09:34:16Z</time>
      </trkpt>
      <trkpt lat="47.34909" lon="-1.57609">
        <ele>37</ele>
        <time>2023-10-26T09:34:42Z</time>
      </trkpt>
      <trkpt lat="47.34925" lon="-1.57586">
        <ele>36</ele>
        <time>2023-10-26T09:35:12Z</time>
      </trkpt>
      <trkpt lat="47.34941" lon="-1.57569">
        <ele>35</ele>
        <time>2023-10-26T09:35:39Z</time>
      </trkpt>
      <trkpt lat="47.34968" lon="-1.57528">
        <ele>34</ele>
        <time>2023-10-26T09:36:30Z</time>
      </trkpt>
      <trkpt lat="47.34983" lon="-1.5751">
        <ele>32</ele>
        <time>2023-10-26T09:36:56Z</time>
      </trkpt>
      <trkpt lat="47.34999" lon="-1.57494">
        <ele>31</ele>
        <time>2023-10-26T09:37:22Z</time>
      </trkpt>
      <trkpt lat="47.35018" lon="-1.57478">
        <ele>28</ele>
        <time>2023-10-26T09:37:51Z</time>
      </trkpt>
      <trkpt lat="47.35039" lon="-1.57472">
        <ele>25</ele>
        <time>2023-10-26T09:38:20Z</time>
      </trkpt>
      <trkpt lat="47.35061" lon="-1.57467">
        <ele>22</ele>
        <time>2023-10-26T09:38:49Z</time>
      </trkpt>
      <trkpt lat="47.35081" lon="-1.57469">
        <ele>19</ele>
        <time>2023-10-26T09:39:16Z</time>
      </trkpt>
      <trkpt lat="47.351" lon="-1.57462">
        <ele>18</ele>
        <time>2023-10-26T09:39:42Z</time>
      </trkpt>
      <trkpt lat="47.35121" lon="-1.57456">
        <ele>17</ele>
        <time>2023-10-26T09:40:11Z</time>
      </trkpt>
      <trkpt lat="47.35142" lon="-1.5745">
        <ele>15</ele>
        <time>2023-10-26T09:40:39Z</time>
      </trkpt>
      <trkpt lat="47.35162" lon="-1.57447">
        <ele>14</ele>
        <time>2023-10-26T09:41:06Z</time>
      </trkpt>
      <trkpt lat="47.352" lon="-1.57434">
        <ele>14</ele>
        <time>2023-10-26T09:41:58Z</time>
      </trkpt>
      <trkpt lat="47.35221" lon="-1.5743">
        <ele>14</ele>
        <time>2023-10-26T09:42:26Z</time>
      </trkpt>
      <trkpt lat="47.35212" lon="-1.574">
        <ele>14</ele>
        <time>2023-10-26T09:42:56Z</time>
      </trkpt>
      <trkpt lat="47.35195" lon="-1.57375">
        <ele>15</ele>
        <time>2023-10-26T09:43:28Z</time>
      </trkpt>
      <trkpt lat="47.3518" lon="-1.57352">
        <ele>15</ele>
        <time>2023-10-26T09:43:57Z</time>
      </trkpt>
      <trkpt lat="47.35165" lon="-1.57333">
        <ele>15</ele>
        <time>2023-10-26T09:44:23Z</time>
      </trkpt>
      <trkpt lat="47.35151" lon="-1.57315">
        <ele>17</ele>
        <time>2023-10-26T09:44:48Z</time>
      </trkpt>
      <trkpt lat="47.3514" lon="-1.57285">
        <ele>20</ele>
        <time>2023-10-26T09:45:19Z</time>
      </trkpt>
      <trkpt lat="47.35139" lon="-1.57252">
        <ele>22</ele>
        <time>2023-10-26T09:45:49Z</time>
      </trkpt>
      <trkpt lat="47.35125" lon="-1.5723">
        <ele>24</ele>
        <time>2023-10-26T09:46:16Z</time>
      </trkpt>
      <trkpt lat="47.35129" lon="-1.572">
        <ele>23</ele>
        <time>2023-10-26T09:46:44Z</time>
      </trkpt>
      <trkpt lat="47.35138" lon="-1.57177">
        <ele>23</ele>
        <time>2023-10-26T09:47:08Z</time>
      </trkpt>
      <trkpt lat="47.35144" lon="-1.57151">
        <ele>22</ele>
        <time>2023-10-26T09:47:33Z</time>
      </trkpt>
      <trkpt lat="47.3515" lon="-1.57122">
        <ele>21</ele>
        <time>2023-10-26T09:48:00Z</time>
      </trkpt>
      <trkpt lat="47.35156" lon="-1.57095">
        <ele>21</ele>
        <time>2023-10-26T09:48:26Z</time>
      </trkpt>
      <trkpt lat="47.35155" lon="-1.57065">
        <ele>21</ele>
        <time>2023-10-26T09:48:53Z</time>
      </trkpt>
      <trkpt lat="47.35152" lon="-1.57038">
        <ele>21</ele>
        <time>2023-10-26T09:49:18Z</time>
      </trkpt>
      <trkpt lat="47.35154" lon="-1.57007">
        <ele>20</ele>
        <time>2023-10-26T09:49:46Z</time>
      </trkpt>
      <trkpt lat="47.3516" lon="-1.56978">
        <ele>18</ele>
        <time>2023-10-26T09:50:13Z</time>
      </trkpt>
      <trkpt lat="47.35158" lon="-1.5695">
        <ele>17</ele>
        <time>2023-10-26T09:50:39Z</time>
      </trkpt>
      <trkpt lat="47.3514" lon="-1.569">
        <ele>18</ele>
        <time>2023-10-26T09:51:30Z</time>
      </trkpt>
      <trkpt lat="47.35127" lon="-1.5688">
        <ele>20</ele>
        <time>2023-10-26T09:51:55Z</time>
      </trkpt>
      <trkpt lat="47.35116" lon="-1.56904">
        <ele>22</ele>
        <time>2023-10-26T09:52:21Z</time>
      </trkpt>
      <trkpt lat="47.35106" lon="-1.56931">
        <ele>24</ele>
        <time>2023-10-26T09:52:49Z</time>
      </trkpt>
      <trkpt lat="47.35092" lon="-1.56949">
        <ele>27</ele>
        <time>2023-10-26T09:53:14Z</time>
      </trkpt>
      <trkpt lat="47.35085" lon="-1.56924">
        <ele>27</ele>
        <time>2023-10-26T09:53:38Z</time>
      </trkpt>
      <trkpt lat="47.35068" lon="-1.56913">
        <ele>28</ele>
        <time>2023-10-26T09:54:03Z</time>
      </trkpt>
      <trkpt lat="47.35051" lon="-1.56895">
        <ele>29</ele>
        <time>2023-10-26T09:54:31Z</time>
      </trkpt>
      <trkpt lat="47.3504" lon="-1.56874">
        <ele>29</ele>
        <time>2023-10-26T09:54:55Z</time>
      </trkpt>
      <trkpt lat="47.35022" lon="-1.56866">
        <ele>30</ele>
        <time>2023-10-26T09:55:20Z</time>
      </trkpt>
      <trkpt lat="47.35002" lon="-1.56858">
        <ele>32</ele>
        <time>2023-10-26T09:55:47Z</time>
      </trkpt>
      <trkpt lat="47.34995" lon="-1.56832">
        <ele>32</ele>
        <time>2023-10-26T09:56:13Z</time>
      </trkpt>
      <trkpt lat="47.34993" lon="-1.56798">
        <ele>31</ele>
        <time>2023-10-26T09:56:44Z</time>
      </trkpt>
      <trkpt lat="47.35005" lon="-1.56774">
        <ele>29</ele>
        <time>2023-10-26T09:57:11Z</time>
      </trkpt>
      <trkpt lat="47.35015" lon="-1.56751">
        <ele>27</ele>
        <time>2023-10-26T09:57:35Z</time>
      </trkpt>
      <trkpt lat="47.3502" lon="-1.56724">
        <ele>24</ele>
        <time>2023-10-26T09:58:01Z</time>
      </trkpt>
      <trkpt lat="47.35007" lon="-1.56702">
        <ele>22</ele>
        <time>2023-10-26T09:58:27Z</time>
      </trkpt>
      <trkpt lat="47.34993" lon="-1.56684">
        <ele>22</ele>
        <time>2023-10-26T09:58:52Z</time>
      </trkpt>
      <trkpt lat="47.34973" lon="-1.56672">
        <ele>23</ele>
        <time>2023-10-26T09:59:21Z</time>
      </trkpt>
      <trkpt lat="47.34955" lon="-1.56671">
        <ele>25</ele>
        <time>2023-10-26T09:59:45Z</time>
      </trkpt>
      <trkpt lat="47.34939" lon="-1.56658">
        <ele>26</ele>
        <time>2023-10-26T10:00:09Z</time>
      </trkpt>
      <trkpt lat="47.34921" lon="-1.56647">
        <ele>27</ele>
        <time>2023-10-26T10:00:35Z</time>
      </trkpt>
      <trkpt lat="47.34903" lon="-1.56635">
        <ele>25</ele>
        <time>2023-10-26T10:01:01Z</time>
      </trkpt>
      <trkpt lat="47.34885" lon="-1.56625">
        <ele>24</ele>
        <time>2023-10-26T10:01:27Z</time>
      </trkpt>
      <trkpt lat="47.34869" lon="-1.56611">
        <ele>22</ele>
        <time>2023-10-26T10:01:52Z</time>
      </trkpt>
      <trkpt lat="47.34847" lon="-1.56608">
        <ele>22</ele>
        <time>2023-10-26T10:02:21Z</time>
      </trkpt>
      <trkpt lat="47.34828" lon="-1.56598">
        <ele>22</ele>
        <time>2023-10-26T10:02:48Z</time>
      </trkpt>
      <trkpt lat="47.3481" lon="-1.56586">
        <ele>20</ele>
        <time>2023-10-26T10:03:15Z</time>
      </trkpt>
      <trkpt lat="47.34792" lon="-1.56577">
        <ele>19</ele>
        <time>2023-10-26T10:03:40Z</time>
      </trkpt>
      <trkpt lat="47.34773" lon="-1.56572">
        <ele>19</ele>
        <time>2023-10-26T10:04:06Z</time>
      </trkpt>
      <trkpt lat="47.34755" lon="-1.56566">
        <ele>19</ele>
        <time>2023-10-26T10:04:30Z</time>
      </trkpt>
      <trkpt lat="47.34737" lon="-1.56561">
        <ele>18</ele>
        <time>2023-10-26T10:04:55Z</time>
      </trkpt>
      <trkpt lat="47.34714" lon="-1.56567">
        <ele>18</ele>
        <time>2023-10-26T10:05:26Z</time>
      </trkpt>
      <trkpt lat="47.34693" lon="-1.56574">
        <ele>18</ele>
        <time>2023-10-26T10:05:55Z</time>
      </trkpt>
      <trkpt lat="47.34676" lon="-1.56583">
        <ele>18</ele>
        <time>2023-10-26T10:06:19Z</time>
      </trkpt>
      <trkpt lat="47.34658" lon="-1.5659">
        <ele>18</ele>
        <time>2023-10-26T10:06:44Z</time>
      </trkpt>
      <trkpt lat="47.34651" lon="-1.56615">
        <ele>19</ele>
        <time>2023-10-26T10:07:08Z</time>
      </trkpt>
      <trkpt lat="47.34646" lon="-1.56644">
        <ele>20</ele>
        <time>2023-10-26T10:07:35Z</time>
      </trkpt>
      <trkpt lat="47.34644" lon="-1.56672">
        <ele>22</ele>
        <time>2023-10-26T10:08:01Z</time>
      </trkpt>
      <trkpt lat="47.34647" lon="-1.56698">
        <ele>23</ele>
        <time>2023-10-26T10:08:24Z</time>
      </trkpt>
      <trkpt lat="47.34654" lon="-1.56724">
        <ele>25</ele>
        <time>2023-10-26T10:08:50Z</time>
      </trkpt>
      <trkpt lat="47.34666" lon="-1.56749">
        <ele>26</ele>
        <time>2023-10-26T10:09:17Z</time>
      </trkpt>
      <trkpt lat="47.34698" lon="-1.56786">
        <ele>28</ele>
        <time>2023-10-26T10:10:12Z</time>
      </trkpt>
      <trkpt lat="47.3471" lon="-1.56808">
        <ele>30</ele>
        <time>2023-10-26T10:10:37Z</time>
      </trkpt>
      <trkpt lat="47.34719" lon="-1.56835">
        <ele>32</ele>
        <time>2023-10-26T10:11:04Z</time>
      </trkpt>
      <trkpt lat="47.3473" lon="-1.56895">
        <ele>35</ele>
        <time>2023-10-26T10:12:01Z</time>
      </trkpt>
      <trkpt lat="47.34736" lon="-1.56928">
        <ele>36</ele>
        <time>2023-10-26T10:12:32Z</time>
      </trkpt>
      <trkpt lat="47.34743" lon="-1.56983">
        <ele>37</ele>
        <time>2023-10-26T10:13:22Z</time>
      </trkpt>
      <trkpt lat="47.34748" lon="-1.57015">
        <ele>37</ele>
        <time>2023-10-26T10:13:52Z</time>
      </trkpt>
      <trkpt lat="47.34755" lon="-1.57041">
        <ele>37</ele>
        <time>2023-10-26T10:14:17Z</time>
      </trkpt>
      <trkpt lat="47.34762" lon="-1.57066">
        <ele>38</ele>
        <time>2023-10-26T10:14:42Z</time>
      </trkpt>
      <trkpt lat="47.34776" lon="-1.5712">
        <ele>38</ele>
        <time>2023-10-26T10:15:34Z</time>
      </trkpt>
      <trkpt lat="47.34783" lon="-1.57149">
        <ele>37</ele>
        <time>2023-10-26T10:16:02Z</time>
      </trkpt>
      <trkpt lat="47.34791" lon="-1.57175">
        <ele>38</ele>
        <time>2023-10-26T10:16:28Z</time>
      </trkpt>
      <trkpt lat="47.34802" lon="-1.57198">
        <ele>38</ele>
        <time>2023-10-26T10:16:53Z</time>
      </trkpt>
      <trkpt lat="47.3482" lon="-1.57209">
        <ele>39</ele>
        <time>2023-10-26T10:17:19Z</time>
      </trkpt>
      <trkpt lat="47.34838" lon="-1.57226">
        <ele>39</ele>
        <time>2023-10-26T10:17:47Z</time>
      </trkpt>
      <trkpt lat="47.34837" lon="-1.57256">
        <ele>40</ele>
        <time>2023-10-26T10:18:15Z</time>
      </trkpt>
      <trkpt lat="47.34836" lon="-1.57288">
        <ele>41</ele>
        <time>2023-10-26T10:18:44Z</time>
      </trkpt>
      <trkpt lat="47.3483" lon="-1.57317">
        <ele>42</ele>
        <time>2023-10-26T10:19:11Z</time>
      </trkpt>
      <trkpt lat="47.34822" lon="-1.57346">
        <ele>41</ele>
        <time>2023-10-26T10:19:39Z</time>
      </trkpt>
      <trkpt lat="47.34813" lon="-1.57371">
        <ele>40</ele>
        <time>2023-10-26T10:20:05Z</time>
      </trkpt>
      <trkpt lat="47.34801" lon="-1.57397">
        <ele>40</ele>
        <time>2023-10-26T10:20:33Z</time>
      </trkpt>
      <trkpt lat="47.34755" lon="-1.57492">
        <ele>38</ele>
        <time>2023-10-26T10:22:19Z</time>
      </trkpt>
      <trkpt lat="47.34745" lon="-1.57517">
        <ele>38</ele>
        <time>2023-10-26T10:22:45Z</time>
      </trkpt>
      <trkpt lat="47.34736" lon="-1.57549">
        <ele>38</ele>
        <time>2023-10-26T10:23:17Z</time>
      </trkpt>
      <trkpt lat="47.34732" lon="-1.57579">
        <ele>38</ele>
        <time>2023-10-26T10:23:44Z</time>
      </trkpt>
      <trkpt lat="47.3472" lon="-1.57606">
        <ele>38</ele>
        <time>2023-10-26T10:24:13Z</time>
      </trkpt>
    </trkseg>
  </trk>
</gpx>